Darstellungsparameter: Aktuell verwendete Einstellungen:
Skalierung der Graphiken ... ?
xyx+y,   Skalierungsfaktor:      Skalierung: Modus: x, Faktor: 1
Darstellungszeitraum ... ?
Vom - - bis: - -   Zeitraum: 05.04.2020 - 02.05.2020
Min/Max/Avg-Anzeige ... ?
Zeige MMA aktuell
Zeige MMA Monat
Zeige MMA alles
Zeige --A aktuell
Zeige --A Monat
Zeige --A alles
Keine MMA-Anzeige
MMA:
Keine MMA-Graphiken
MMA-Basis: 05.04.2020 - 02.05.2020
Quicknavigation für Darstellung... ?
Tage:      1T, 2T, 3T, 5T -1T -2T -3T -5T +1T +2T +3T +5T
Wochen: 1W, 2W, 3W -1W -2W -3W +1W +2W +3W
Monate: 1M, 3M, 6M -1M -3M -6M +1M +3M +6M
Jahre:    1J, 3J, 5J, 10J -1J -3J -5J -10J +1J +3J +5J +10J
Nutze für die Darstellung ... ?
Originaldaten oder Mittelwerte auf ...
Stundenbasis Tagesbasis Wochenbasis
Monatsbasis Jahresbasis      Datenbasis: Original-Daten
Darstellen als:
Statistik (Auto) Statistik J:M      Darstellung:
Zur Graphik,    zurück zur Übersicht aller Sensoren.
 
Tabellarische Datenbersicht: ?
 
Sensor: Nr:Datum:Temp:Feuchte:
Aussen-T/F 1 05-04-2020 00:01:17 3 C 37 %
2 05-04-2020 00:11:17 2.9 C 38 %
3 05-04-2020 00:21:17 2.8 C 39 %
4 05-04-2020 00:31:17 2.5 C 39 %
5 05-04-2020 00:41:17 2.5 C 40 %
6 05-04-2020 00:51:18 2.4 C 40 %
7 05-04-2020 01:01:18 2.3 C 40 %
8 05-04-2020 01:11:18 2.3 C 40 %
9 05-04-2020 01:21:17 2.2 C 40 %
10 05-04-2020 01:31:18 2.1 C 41 %
11 05-04-2020 01:41:18 1.9 C 42 %
12 05-04-2020 01:51:17 1.8 C 42 %
13 05-04-2020 02:01:18 1.6 C 42 %
14 05-04-2020 02:11:18 1.3 C 42 %
15 05-04-2020 02:21:17 1.4 C 43 %
16 05-04-2020 02:31:18 1.4 C 43 %
17 05-04-2020 02:41:18 1.1 C 43 %
18 05-04-2020 02:51:17 1.1 C 43 %
19 05-04-2020 03:01:18 1.3 C 43 %
20 05-04-2020 03:11:18 1.1 C 43 %
21 05-04-2020 03:21:17 1 C 43 %
22 05-04-2020 03:31:17 0.7 C 45 %
23 05-04-2020 03:41:17 0.5 C 45 %
24 05-04-2020 03:51:17 0.7 C 45 %
25 05-04-2020 04:01:17 0.6 C 45 %
Sensor: Nr:Datum:Temp:Feuchte:
Aussen-T/F 26 05-04-2020 04:11:17 0.4 C 45 %
27 05-04-2020 04:21:17 0.4 C 46 %
28 05-04-2020 04:31:17 0.2 C 46 %
29 05-04-2020 04:41:17 0.2 C 46 %
30 05-04-2020 04:51:17 0.2 C 46 %
31 05-04-2020 05:01:17 0 C 46 %
32 05-04-2020 05:11:17 -0.3 C 46 %
33 05-04-2020 05:21:17 -0.2 C 47 %
34 05-04-2020 05:31:17 -0.3 C 46 %
35 05-04-2020 05:41:17 -0.4 C 47 %
36 05-04-2020 05:51:17 -0.5 C 47 %
37 05-04-2020 06:01:17 -0.4 C 47 %
38 05-04-2020 06:11:17 -0.5 C 47 %
39 05-04-2020 06:21:17 -0.6 C 47 %
40 05-04-2020 06:31:18 -0.8 C 48 %
41 05-04-2020 06:41:18 -0.8 C 47 %
42 05-04-2020 06:51:17 -0.8 C 47 %
43 05-04-2020 07:01:18 -0.9 C 47 %
44 05-04-2020 07:11:18 -0.7 C 48 %
45 05-04-2020 07:21:18 -0.6 C 48 %
46 05-04-2020 07:31:17 -0.5 C 48 %
47 05-04-2020 07:41:17 -0.5 C 48 %
48 05-04-2020 07:51:17 -0.4 C 48 %
49 05-04-2020 08:01:17 -0.3 C 48 %
50 05-04-2020 08:11:17 0 C 49 %
Sensor: Nr:Datum:Temp:Feuchte:
Aussen-T/F 51 05-04-2020 08:21:17 0.1 C 48 %
52 05-04-2020 08:31:17 0.4 C 48 %
53 05-04-2020 08:41:17 0.5 C 49 %
54 05-04-2020 08:51:18 0.8 C 49 %
55 05-04-2020 09:01:17 1.1 C 47 %
56 05-04-2020 09:11:17 1.4 C 47 %
57 05-04-2020 09:21:17 1.8 C 47 %
58 05-04-2020 09:31:17 2.4 C 46 %
59 05-04-2020 09:41:17 2.8 C 46 %
60 05-04-2020 09:51:18 3.4 C 44 %
61 05-04-2020 10:01:18 3.9 C 43 %
62 05-04-2020 10:11:18 4.5 C 41 %
63 05-04-2020 10:21:17 5.4 C 40 %
64 05-04-2020 10:31:17 5.9 C 40 %
65 05-04-2020 10:41:17 7 C 38 %
66 05-04-2020 10:51:17 7.9 C 37 %
67 05-04-2020 11:01:17 8.6 C 36 %
68 05-04-2020 11:11:17 10.7 C 32 %
69 05-04-2020 11:21:17 11.2 C 30 %
70 05-04-2020 11:31:17 13.1 C 21 %
71 05-04-2020 11:41:17 13.9 C 20 %
72 05-04-2020 11:51:17 14.8 C 20 %
73 05-04-2020 12:01:17 15.6 C 20 %
74 05-04-2020 12:11:17 15.9 C 20 %
75 05-04-2020 12:21:17 16.7 C 20 %
Sensor: Nr:Datum:Temp:Feuchte:
Aussen-T/F 76 05-04-2020 12:31:18 17.6 C 20 %
77 05-04-2020 12:41:18 17.4 C 20 %
78 05-04-2020 12:51:17 17.4 C 20 %
79 05-04-2020 13:01:17 17.2 C 20 %
80 05-04-2020 13:11:17 18.4 C 20 %
81 05-04-2020 13:21:17 17.5 C 20 %
82 05-04-2020 13:31:17 17.1 C 20 %
83 05-04-2020 13:41:17 17.9 C 20 %
84 05-04-2020 13:51:17 17.7 C 20 %
85 05-04-2020 14:01:17 17.9 C 20 %
86 05-04-2020 14:11:17 19 C 20 %
87 05-04-2020 14:21:17 19.8 C 20 %
88 05-04-2020 14:31:18 21.7 C 20 %
89 05-04-2020 14:41:18 23.4 C 20 %
90 05-04-2020 14:51:18 23.3 C 20 %
91 05-04-2020 15:01:17 24.7 C 20 %
92 05-04-2020 15:11:18 26.9 C 20 %
93 05-04-2020 15:21:17 24.5 C 20 %
94 05-04-2020 15:31:17 24.8 C 20 %
95 05-04-2020 15:41:17 25.1 C 20 %
96 05-04-2020 15:51:18 26.6 C 20 %
97 05-04-2020 16:01:17 25 C 20 %
98 05-04-2020 16:11:17 23.3 C 20 %
99 05-04-2020 16:21:17 25.5 C 20 %
100 05-04-2020 16:31:17 24.8 C 20 %
Sensor: Nr:Datum:Temp:Feuchte:
Aussen-T/F 101 05-04-2020 16:41:17 23.1 C 20 %
102 05-04-2020 16:51:17 23.4 C 20 %
103 05-04-2020 17:01:17 23.5 C 20 %
104 05-04-2020 17:11:17 26.4 C 20 %
105 05-04-2020 17:21:17 25.9 C 20 %
106 05-04-2020 17:31:17 24.4 C 20 %
107 05-04-2020 17:41:17 24.2 C 20 %
108 05-04-2020 17:51:17 23.6 C 20 %
109 05-04-2020 18:01:17 20.8 C 20 %
110 05-04-2020 18:11:17 19.7 C 20 %
111 05-04-2020 18:21:17 20 C 20 %
112 05-04-2020 18:31:17 19.7 C 20 %
113 05-04-2020 18:41:17 19.4 C 20 %
114 05-04-2020 18:51:17 18.9 C 20 %
115 05-04-2020 19:01:17 18.8 C 20 %
116 05-04-2020 19:11:17 18.4 C 20 %
117 05-04-2020 19:21:17 18 C 20 %
118 05-04-2020 19:31:18 17.5 C 20 %
119 05-04-2020 19:41:18 16.3 C 20 %
120 05-04-2020 19:51:17 15 C 20 %
121 05-04-2020 20:01:18 14.3 C 20 %
122 05-04-2020 20:11:18 14.1 C 20 %
123 05-04-2020 20:21:17 13.5 C 20 %
124 05-04-2020 20:31:17 13.3 C 20 %
125 05-04-2020 20:41:17 13 C 20 %
Sensor: Nr:Datum:Temp:Feuchte:
Aussen-T/F 126 05-04-2020 20:51:17 12.7 C 20 %
127 05-04-2020 21:01:18 12.3 C 20 %
128 05-04-2020 21:11:18 12 C 20 %
129 05-04-2020 21:21:17 12.1 C 20 %
130 05-04-2020 21:31:17 11.7 C 20 %
131 05-04-2020 21:41:17 11.5 C 20 %
132 05-04-2020 21:51:17 10.3 C 20 %
133 05-04-2020 22:01:17 10.5 C 20 %
134 05-04-2020 22:11:17 9.2 C 25 %
135 05-04-2020 22:21:17 8.9 C 26 %
136 05-04-2020 22:31:17 8.8 C 26 %
137 05-04-2020 22:41:17 8.4 C 27 %
138 05-04-2020 22:51:17 8.2 C 27 %
139 05-04-2020 23:01:17 8 C 28 %
140 05-04-2020 23:11:17 7.4 C 30 %
141 05-04-2020 23:21:17 7.4 C 29 %
142 05-04-2020 23:31:17 7 C 30 %
143 05-04-2020 23:41:17 6.7 C 31 %
144 05-04-2020 23:51:17 6.3 C 31 %
145 06-04-2020 00:01:17 6.2 C 32 %
146 06-04-2020 00:11:17 6.3 C 32 %
147 06-04-2020 00:21:17 6.3 C 32 %
148 06-04-2020 00:31:18 6 C 32 %
149 06-04-2020 00:41:18 5.6 C 33 %
150 06-04-2020 00:51:17 5.6 C 34 %
Sensor: Nr:Datum:Temp:Feuchte:
Aussen-T/F 151 06-04-2020 01:01:18 5.4 C 35 %
152 06-04-2020 01:11:18 5.3 C 35 %
153 06-04-2020 01:21:17 5.1 C 35 %
154 06-04-2020 01:31:17 4.8 C 36 %
155 06-04-2020 01:41:17 4.7 C 36 %
156 06-04-2020 01:51:17 4.6 C 36 %
157 06-04-2020 02:01:17 4.5 C 37 %
158 06-04-2020 02:11:17 4.1 C 37 %
159 06-04-2020 02:21:17 4.2 C 37 %
160 06-04-2020 02:31:17 4 C 37 %
161 06-04-2020 02:41:17 4.1 C 37 %
162 06-04-2020 02:51:17 3.8 C 38 %
163 06-04-2020 03:01:17 3.9 C 39 %
164 06-04-2020 03:11:17 3.6 C 39 %
165 06-04-2020 03:21:17 3.3 C 39 %
166 06-04-2020 03:31:18 3.3 C 40 %
167 06-04-2020 03:41:18 3.2 C 40 %
168 06-04-2020 03:51:17 3.3 C 40 %
169 06-04-2020 04:01:17 3.2 C 40 %
170 06-04-2020 04:11:17 3.3 C 40 %
171 06-04-2020 04:21:17 3.1 C 40 %
172 06-04-2020 04:31:17 2.8 C 40 %
173 06-04-2020 04:41:17 2.6 C 41 %
174 06-04-2020 04:51:17 2.5 C 41 %
175 06-04-2020 05:01:17 2.4 C 41 %
Sensor: Nr:Datum:Temp:Feuchte:
Aussen-T/F 176 06-04-2020 05:11:17 2.3 C 41 %
177 06-04-2020 05:21:18 2.2 C 41 %
178 06-04-2020 05:31:17 1.9 C 42 %
179 06-04-2020 05:41:17 1.8 C 43 %
180 06-04-2020 05:51:17 1.7 C 43 %
181 06-04-2020 06:01:17 1.6 C 44 %
182 06-04-2020 06:11:17 1.5 C 44 %
183 06-04-2020 06:21:18 1.3 C 45 %
184 06-04-2020 06:31:17 1.2 C 45 %
185 06-04-2020 06:41:18 1.3 C 45 %
186 06-04-2020 06:51:17 1.3 C 45 %
187 06-04-2020 07:01:17 1.4 C 45 %
188 06-04-2020 07:11:17 1.5 C 45 %
189 06-04-2020 07:21:17 1.6 C 45 %
190 06-04-2020 07:31:18 1.5 C 45 %
191 06-04-2020 07:41:18 1.6 C 45 %
192 06-04-2020 07:51:17 2 C 45 %
193 06-04-2020 08:01:17 1.9 C 45 %
194 06-04-2020 08:11:17 2.2 C 44 %
195 06-04-2020 08:21:17 2.5 C 44 %
196 06-04-2020 08:31:17 3 C 42 %
197 06-04-2020 08:41:17 3.2 C 42 %
198 06-04-2020 08:51:17 3.4 C 41 %
199 06-04-2020 09:01:18 3.5 C 41 %
200 06-04-2020 09:11:18 3.4 C 41 %
Sensor: Nr:Datum:Temp:Feuchte:
Aussen-T/F 201 06-04-2020 09:21:17 3.9 C 41 %
202 06-04-2020 09:31:17 4.3 C 40 %
203 06-04-2020 09:41:17 4.8 C 40 %
204 06-04-2020 09:51:18 5.2 C 40 %
205 06-04-2020 10:01:18 6 C 38 %
206 06-04-2020 10:11:18 6.5 C 37 %
207 06-04-2020 10:21:17 7.2 C 36 %
208 06-04-2020 10:31:17 7.9 C 36 %
209 06-04-2020 10:41:17 8.8 C 35 %
210 06-04-2020 10:51:17 9.8 C 34 %
211 06-04-2020 11:01:17 11.1 C 31 %
212 06-04-2020 11:11:18 12.2 C 29 %
213 06-04-2020 11:21:17 13.3 C 26 %
214 06-04-2020 11:31:17 16 C 20 %
215 06-04-2020 11:41:17 17.1 C 20 %
216 06-04-2020 11:51:18 17.6 C 20 %
217 06-04-2020 12:01:18 18.1 C 20 %
218 06-04-2020 12:11:18 18.6 C 20 %
219 06-04-2020 12:21:17 20.3 C 20 %
220 06-04-2020 12:31:17 21 C 20 %
221 06-04-2020 12:41:17 19.4 C 20 %
222 06-04-2020 12:51:17 20.2 C 20 %
223 06-04-2020 13:01:17 20.6 C 20 %
224 06-04-2020 13:11:17 20.8 C 20 %
225 06-04-2020 13:21:17 20.4 C 20 %
Sensor: Nr:Datum:Temp:Feuchte:
Aussen-T/F 226 06-04-2020 13:31:18 20.3 C 20 %
227 06-04-2020 13:41:18 21.2 C 20 %
228 06-04-2020 13:51:17 21.3 C 20 %
229 06-04-2020 14:01:18 22.3 C 20 %
230 06-04-2020 14:11:18 22.3 C 20 %
231 06-04-2020 14:21:17 23.7 C 20 %
232 06-04-2020 14:31:17 26.8 C 20 %
233 06-04-2020 14:41:17 27.4 C 20 %
234 06-04-2020 14:51:18 28.3 C 20 %
235 06-04-2020 15:01:17 28 C 20 %
236 06-04-2020 15:11:17 26.6 C 20 %
237 06-04-2020 15:21:17 27.1 C 20 %
238 06-04-2020 15:31:17 25.8 C 20 %
239 06-04-2020 15:41:17 26.9 C 20 %
240 06-04-2020 15:51:17 27.9 C 20 %
241 06-04-2020 16:01:17 29.7 C 20 %
242 06-04-2020 16:11:17 27.4 C 20 %
243 06-04-2020 16:21:18 27.4 C 20 %
244 06-04-2020 16:31:18 28.3 C 20 %
245 06-04-2020 16:41:18 28.5 C 20 %
246 06-04-2020 16:51:17 27.1 C 20 %
247 06-04-2020 17:01:17 27.6 C 20 %
248 06-04-2020 17:11:17 26 C 20 %
249 06-04-2020 17:21:17 26.7 C 20 %
250 06-04-2020 17:31:17 25.7 C 20 %
Sensor: Nr:Datum:Temp:Feuchte:
Aussen-T/F 251 06-04-2020 17:41:17 25.5 C 20 %
252 06-04-2020 17:51:17 24.2 C 20 %
253 06-04-2020 18:01:17 23.3 C 20 %
254 06-04-2020 18:11:17 23.1 C 20 %
255 06-04-2020 18:21:17 22.6 C 20 %
256 06-04-2020 18:31:18 22.6 C 20 %
257 06-04-2020 18:41:18 22.3 C 20 %
258 06-04-2020 18:51:17 22 C 20 %
259 06-04-2020 19:01:17 21.7 C 20 %
260 06-04-2020 19:11:17 21.1 C 20 %
261 06-04-2020 19:21:17 20.5 C 20 %
262 06-04-2020 19:31:17 20.2 C 20 %
263 06-04-2020 19:41:17 19.1 C 20 %
264 06-04-2020 19:51:17 18.3 C 20 %
265 06-04-2020 20:01:18 16.4 C 20 %
266 06-04-2020 20:11:18 16.3 C 20 %
267 06-04-2020 20:21:17 15.8 C 20 %
268 06-04-2020 20:31:17 15.3 C 20 %
269 06-04-2020 20:41:18 15.1 C 20 %
270 06-04-2020 20:51:17 13.7 C 20 %
271 06-04-2020 21:01:18 13.2 C 20 %
272 06-04-2020 21:11:18 12.9 C 20 %
273 06-04-2020 21:21:17 12 C 20 %
274 06-04-2020 21:31:18 11.8 C 22 %
275 06-04-2020 21:41:18 11.6 C 22 %
Sensor: Nr:Datum:Temp:Feuchte:
Aussen-T/F 276 06-04-2020 21:51:17 11.1 C 22 %
277 06-04-2020 22:01:17 10.8 C 25 %
278 06-04-2020 22:11:17 10.6 C 25 %
279 06-04-2020 22:21:17 10.2 C 25 %
280 06-04-2020 22:31:17 10 C 26 %
281 06-04-2020 22:41:17 10 C 26 %
282 06-04-2020 22:51:17 9.9 C 26 %
283 06-04-2020 23:01:18 9.8 C 26 %
284 06-04-2020 23:11:18 9.6 C 26 %
285 06-04-2020 23:21:17 9.5 C 27 %
286 06-04-2020 23:31:17 9.4 C 27 %
287 06-04-2020 23:41:17 9.2 C 27 %
288 06-04-2020 23:51:17 9.5 C 29 %
289 07-04-2020 00:01:17 10.2 C 26 %
290 07-04-2020 00:11:17 9.1 C 29 %
291 07-04-2020 00:21:18 8.7 C 30 %
292 07-04-2020 00:31:17 8.8 C 30 %
293 07-04-2020 00:41:17 9 C 30 %
294 07-04-2020 00:51:17 8.6 C 30 %
295 07-04-2020 01:01:17 8.7 C 30 %
296 07-04-2020 01:11:17 9.1 C 30 %
297 07-04-2020 01:21:17 9.4 C 30 %
298 07-04-2020 01:31:17 9.8 C 30 %
299 07-04-2020 01:41:17 10.1 C 30 %
300 07-04-2020 01:51:18 10 C 29 %
Sensor: Nr:Datum:Temp:Feuchte:
Aussen-T/F 301 07-04-2020 02:01:18 9.2 C 30 %
302 07-04-2020 02:11:18 8.8 C 31 %
303 07-04-2020 02:21:17 8.2 C 33 %
304 07-04-2020 02:31:17 7.9 C 34 %
305 07-04-2020 02:41:17 7.5 C 34 %
306 07-04-2020 02:51:17 7.2 C 35 %
307 07-04-2020 03:01:17 7.3 C 35 %
308 07-04-2020 03:11:17 7.6 C 35 %
309 07-04-2020 03:21:17 7.9 C 35 %
310 07-04-2020 03:31:17 8 C 35 %
311 07-04-2020 03:41:17 7.7 C 36 %
312 07-04-2020 03:51:17 7.8 C 35 %
313 07-04-2020 04:01:17 7.8 C 36 %
314 07-04-2020 04:11:17 7.6 C 36 %
315 07-04-2020 04:21:17 7.4 C 36 %
316 07-04-2020 04:31:17 7.2 C 36 %
317 07-04-2020 04:41:18 6.9 C 37 %
318 07-04-2020 04:51:17 6.8 C 37 %
319 07-04-2020 05:01:17 6.3 C 38 %
320 07-04-2020 05:11:17 6.1 C 38 %
321 07-04-2020 05:21:18 5.9 C 40 %
322 07-04-2020 05:31:17 5.8 C 40 %
323 07-04-2020 05:41:17 5.7 C 40 %
324 07-04-2020 05:51:17 5.6 C 41 %
325 07-04-2020 06:01:17 5.6 C 41 %
Sensor: Nr:Datum:Temp:Feuchte:
Aussen-T/F 326 07-04-2020 06:11:17 5.2 C 40 %
327 07-04-2020 06:21:17 5.3 C 41 %
328 07-04-2020 06:31:17 5.2 C 41 %
329 07-04-2020 06:41:17 5 C 41 %
330 07-04-2020 06:51:17 4.8 C 42 %
331 07-04-2020 07:01:18 4.8 C 43 %
332 07-04-2020 07:11:18 4.7 C 43 %
333 07-04-2020 07:21:18 4.8 C 44 %
334 07-04-2020 07:31:17 5 C 43 %
335 07-04-2020 07:41:18 5.7 C 43 %
336 07-04-2020 07:51:17 5.8 C 42 %
337 07-04-2020 08:01:17 5.7 C 41 %
338 07-04-2020 08:11:18 5.8 C 41 %
339 07-04-2020 08:21:17 6 C 41 %
340 07-04-2020 08:31:17 6 C 41 %
341 07-04-2020 08:41:17 6.3 C 41 %
342 07-04-2020 08:51:17 6.6 C 41 %
343 07-04-2020 09:01:17 7.1 C 40 %
344 07-04-2020 09:11:17 7.3 C 40 %
345 07-04-2020 09:21:17 7.5 C 40 %
346 07-04-2020 09:31:17 8 C 39 %
347 07-04-2020 09:41:18 8.9 C 39 %
348 07-04-2020 09:51:17 9.3 C 37 %
349 07-04-2020 10:01:17 9.4 C 38 %
350 07-04-2020 10:11:18 10 C 37 %
Sensor: Nr:Datum:Temp:Feuchte:
Aussen-T/F 351 07-04-2020 10:21:17 10.7 C 37 %
352 07-04-2020 10:31:18 11.4 C 36 %
353 07-04-2020 10:41:18 12.3 C 35 %
354 07-04-2020 10:51:17 13.1 C 33 %
355 07-04-2020 11:01:17 14 C 31 %
356 07-04-2020 11:11:17 14.6 C 31 %
357 07-04-2020 11:21:17 15.2 C 30 %
358 07-04-2020 11:31:17 16 C 28 %
359 07-04-2020 11:41:17 16.5 C 27 %
360 07-04-2020 11:51:17 16.9 C 27 %
361 07-04-2020 12:01:17 17.2 C 26 %
362 07-04-2020 12:11:17 17.7 C 25 %
363 07-04-2020 12:21:18 18.7 C 23 %
364 07-04-2020 12:31:17 20.9 C 21 %
365 07-04-2020 12:41:17 19.6 C 20 %
366 07-04-2020 12:51:18 19.6 C 20 %
367 07-04-2020 13:01:17 20.7 C 20 %
368 07-04-2020 13:11:17 21.3 C 20 %
369 07-04-2020 13:21:17 20.8 C 20 %
370 07-04-2020 13:31:17 19.8 C 20 %
371 07-04-2020 13:41:17 20.4 C 20 %
372 07-04-2020 13:51:18 20.6 C 20 %
373 07-04-2020 14:01:17 21.1 C 20 %
374 07-04-2020 14:11:17 22 C 20 %
375 07-04-2020 14:21:17 23.6 C 20 %
Sensor: Nr:Datum:Temp:Feuchte:
Aussen-T/F 376 07-04-2020 14:31:17 26.2 C 20 %
377 07-04-2020 14:41:17 22.9 C 20 %
378 07-04-2020 14:51:17 26.7 C 20 %
379 07-04-2020 15:01:17 26.4 C 20 %
380 07-04-2020 15:11:17 27.1 C 20 %
381 07-04-2020 15:21:17 30.1 C 20 %
382 07-04-2020 15:31:17 28.4 C 20 %
383 07-04-2020 15:41:18 27.2 C 20 %
384 07-04-2020 15:51:17 26.6 C 20 %
385 07-04-2020 16:01:17 27.4 C 20 %
386 07-04-2020 16:11:17 25.1 C 20 %
387 07-04-2020 16:21:17 27.8 C 20 %
388 07-04-2020 16:31:17 23.9 C 20 %
389 07-04-2020 16:41:18 24.3 C 20 %
390 07-04-2020 16:51:18 29.2 C 20 %
391 07-04-2020 17:01:17 31 C 20 %
392 07-04-2020 17:11:17 25 C 20 %
393 07-04-2020 17:21:17 24.2 C 20 %
394 07-04-2020 17:31:18 24.2 C 20 %
395 07-04-2020 17:41:18 26.9 C 20 %
396 07-04-2020 17:51:18 24.6 C 20 %
397 07-04-2020 18:01:17 23.7 C 20 %
398 07-04-2020 18:11:17 23.7 C 20 %
399 07-04-2020 18:21:17 22.9 C 20 %
400 07-04-2020 18:31:17 22.7 C 20 %
Sensor: Nr:Datum:Temp:Feuchte:
Aussen-T/F 401 07-04-2020 18:41:17 22.3 C 20 %
402 07-04-2020 18:51:17 22 C 20 %
403 07-04-2020 19:01:17 21.8 C 20 %
404 07-04-2020 19:11:18 21 C 20 %
405 07-04-2020 19:21:17 20 C 20 %
406 07-04-2020 19:31:17 19.1 C 20 %
407 07-04-2020 19:41:17 18.4 C 20 %
408 07-04-2020 19:51:17 18.3 C 20 %
409 07-04-2020 20:01:18 17.6 C 20 %
410 07-04-2020 20:11:18 17.3 C 20 %
411 07-04-2020 20:21:17 17.1 C 20 %
412 07-04-2020 20:31:17 16.8 C 20 %
413 07-04-2020 20:41:17 16.5 C 20 %
414 07-04-2020 20:51:17 16.3 C 20 %
415 07-04-2020 21:01:17 16.1 C 20 %
416 07-04-2020 21:11:17 15.9 C 20 %
417 07-04-2020 21:21:18 15.8 C 20 %
418 07-04-2020 21:31:17 15.4 C 21 %
419 07-04-2020 21:41:17 15.2 C 21 %
420 07-04-2020 21:51:17 15.1 C 22 %
421 07-04-2020 22:01:18 14.6 C 25 %
422 07-04-2020 22:11:18 13.1 C 27 %
423 07-04-2020 22:21:17 12.9 C 29 %
424 07-04-2020 22:31:17 12.7 C 30 %
425 07-04-2020 22:41:17 12.7 C 30 %
Sensor: Nr:Datum:Temp:Feuchte:
Aussen-T/F 426 07-04-2020 22:51:18 12.7 C 30 %
427 07-04-2020 23:01:18 12.7 C 30 %
428 07-04-2020 23:11:18 12.6 C 30 %
429 07-04-2020 23:21:17 13.1 C 29 %
430 07-04-2020 23:31:17 12.8 C 30 %
431 07-04-2020 23:41:17 12.8 C 30 %
432 07-04-2020 23:51:17 12.3 C 31 %
433 08-04-2020 00:01:17 11.7 C 33 %
434 08-04-2020 00:11:17 11.7 C 33 %
435 08-04-2020 00:21:17 11.5 C 33 %
436 08-04-2020 00:31:17 11.5 C 33 %
437 08-04-2020 00:41:17 11.2 C 34 %
438 08-04-2020 00:51:18 10.8 C 35 %
439 08-04-2020 01:01:17 10.8 C 36 %
440 08-04-2020 01:11:17 10.9 C 35 %
441 08-04-2020 01:21:17 10.4 C 36 %
442 08-04-2020 01:31:18 10.2 C 36 %
443 08-04-2020 01:41:18 9.9 C 37 %
444 08-04-2020 01:51:17 9.6 C 38 %
445 08-04-2020 02:01:18 9.2 C 38 %
446 08-04-2020 02:11:18 8.7 C 39 %
447 08-04-2020 02:21:17 8.5 C 40 %
448 08-04-2020 02:31:17 8.2 C 40 %
449 08-04-2020 02:41:18 8 C 40 %
450 08-04-2020 02:51:17 7.7 C 41 %
Sensor: Nr:Datum:Temp:Feuchte:
Aussen-T/F 451 08-04-2020 03:01:18 7.4 C 41 %
452 08-04-2020 03:11:18 7.1 C 41 %
453 08-04-2020 03:21:17 7.1 C 42 %
454 08-04-2020 03:31:17 7.1 C 42 %
455 08-04-2020 03:41:17 6.8 C 43 %
456 08-04-2020 03:51:17 6.7 C 43 %
457 08-04-2020 04:01:17 6.6 C 44 %
458 08-04-2020 04:11:18 6.7 C 44 %
459 08-04-2020 04:21:17 6.3 C 44 %
460 08-04-2020 04:31:17 6.3 C 45 %
461 08-04-2020 04:41:17 6.4 C 45 %
462 08-04-2020 04:51:17 6.3 C 45 %
463 08-04-2020 05:01:18 6.1 C 44 %
464 08-04-2020 05:11:18 5.9 C 45 %
465 08-04-2020 05:21:17 5.6 C 45 %
466 08-04-2020 05:31:17 5.4 C 45 %
467 08-04-2020 05:41:18 5.4 C 45 %
468 08-04-2020 05:51:17 5.4 C 46 %
469 08-04-2020 06:01:17 5.3 C 46 %
470 08-04-2020 06:11:17 5.4 C 46 %
471 08-04-2020 06:21:17 5.3 C 46 %
472 08-04-2020 06:31:17 5.3 C 46 %
473 08-04-2020 06:41:17 5.1 C 46 %
474 08-04-2020 06:51:18 5 C 46 %
475 08-04-2020 07:01:18 5 C 46 %
Sensor: Nr:Datum:Temp:Feuchte:
Aussen-T/F 476 08-04-2020 07:11:18 5.1 C 46 %
477 08-04-2020 07:21:17 5.2 C 46 %
478 08-04-2020 07:31:17 5.3 C 46 %
479 08-04-2020 07:41:17 5.4 C 46 %
480 08-04-2020 07:51:17 5.8 C 46 %
481 08-04-2020 08:01:17 5.7 C 46 %
482 08-04-2020 08:11:17 6 C 46 %
483 08-04-2020 08:21:17 6.3 C 46 %
484 08-04-2020 08:31:18 6.3 C 46 %
485 08-04-2020 08:41:18 6.5 C 46 %
486 08-04-2020 08:51:18 6.7 C 46 %
487 08-04-2020 09:01:18 7 C 45 %
488 08-04-2020 09:11:18 7.1 C 45 %
489 08-04-2020 09:21:17 7.6 C 45 %
490 08-04-2020 09:31:17 7.9 C 45 %
491 08-04-2020 09:41:17 8.3 C 45 %
492 08-04-2020 09:51:17 8.7 C 44 %
493 08-04-2020 10:01:17 9.1 C 43 %
494 08-04-2020 10:11:17 9.7 C 43 %
495 08-04-2020 10:21:17 10.2 C 41 %
496 08-04-2020 10:31:18 11 C 40 %
497 08-04-2020 10:41:18 11.8 C 39 %
498 08-04-2020 10:51:18 12.6 C 38 %
499 08-04-2020 11:01:18 13.7 C 36 %
500 08-04-2020 11:11:18 14.5 C 35 %
Sensor: Nr:Datum:Temp:Feuchte:
Aussen-T/F 501 08-04-2020 11:21:17 15.5 C 34 %
502 08-04-2020 11:31:18 16.2 C 32 %
503 08-04-2020 11:41:18 17.6 C 27 %
504 08-04-2020 11:51:17 18.6 C 25 %
505 08-04-2020 12:01:18 19.2 C 22 %
506 08-04-2020 12:11:18 20.1 C 21 %
507 08-04-2020 12:21:17 21.2 C 20 %
508 08-04-2020 12:31:17 22.4 C 20 %
509 08-04-2020 12:41:17 22.9 C 20 %
510 08-04-2020 12:51:17 21.8 C 20 %
511 08-04-2020 13:01:18 22.9 C 20 %
512 08-04-2020 13:11:18 22.4 C 20 %
513 08-04-2020 13:21:17 22.1 C 20 %
514 08-04-2020 13:31:18 22.3 C 20 %
515 08-04-2020 13:41:18 23.3 C 20 %
516 08-04-2020 13:51:17 22.6 C 20 %
517 08-04-2020 14:01:18 23 C 20 %
518 08-04-2020 14:11:18 23.7 C 20 %
519 08-04-2020 14:21:17 24.8 C 20 %
520 08-04-2020 14:31:18 28.3 C 20 %
521 08-04-2020 14:41:18 28.9 C 20 %
522 08-04-2020 14:51:17 28.7 C 20 %
523 08-04-2020 15:01:17 28.7 C 20 %
524 08-04-2020 15:11:17 30.1 C 20 %
525 08-04-2020 15:21:18 29.3 C 20 %
Sensor: Nr:Datum:Temp:Feuchte:
Aussen-T/F 526 08-04-2020 15:31:17 29.5 C 20 %
527 08-04-2020 15:41:17 29.1 C 20 %
528 08-04-2020 15:51:17 32.2 C 20 %
529 08-04-2020 16:01:17 31.1 C 20 %
530 08-04-2020 16:11:17 29.7 C 20 %
531 08-04-2020 16:21:18 30.7 C 20 %
532 08-04-2020 16:31:17 29 C 20 %
533 08-04-2020 16:41:17 32.6 C 20 %
534 08-04-2020 16:51:17 29.7 C 20 %
535 08-04-2020 17:01:17 29.4 C 20 %
536 08-04-2020 17:11:17 29.7 C 20 %
537 08-04-2020 17:21:17 30.1 C 20 %
538 08-04-2020 17:31:17 30.1 C 20 %
539 08-04-2020 17:41:17 29 C 20 %
540 08-04-2020 17:51:17 28.1 C 20 %
541 08-04-2020 18:01:17 26.6 C 20 %
542 08-04-2020 18:11:17 25.2 C 20 %
543 08-04-2020 18:21:17 24.7 C 20 %
544 08-04-2020 18:31:18 24.3 C 20 %
545 08-04-2020 18:41:18 24.1 C 20 %
546 08-04-2020 18:51:17 23.8 C 20 %
547 08-04-2020 19:01:17 23.2 C 20 %
548 08-04-2020 19:11:17 22.6 C 20 %
549 08-04-2020 19:21:17 21.4 C 20 %
550 08-04-2020 19:31:17 20.1 C 20 %
Sensor: Nr:Datum:Temp:Feuchte:
Aussen-T/F 551 08-04-2020 19:41:17 19.7 C 20 %
552 08-04-2020 19:51:17 19.2 C 20 %
553 08-04-2020 20:01:17 18.5 C 20 %
554 08-04-2020 20:11:17 18 C 20 %
555 08-04-2020 20:21:18 17.5 C 20 %
556 08-04-2020 20:31:17 17 C 20 %
557 08-04-2020 20:41:18 16.2 C 20 %
558 08-04-2020 20:51:17 15.6 C 20 %
559 08-04-2020 21:01:18 14.6 C 20 %
560 08-04-2020 21:11:18 13.9 C 20 %
561 08-04-2020 21:21:17 14.2 C 20 %
562 08-04-2020 21:31:17 13.7 C 20 %
563 08-04-2020 21:41:17 13.5 C 20 %
564 08-04-2020 21:51:17 13.4 C 20 %
565 08-04-2020 22:01:17 12.9 C 21 %
566 08-04-2020 22:11:18 12.7 C 21 %
567 08-04-2020 22:21:17 12.5 C 24 %
568 08-04-2020 22:31:17 12.2 C 25 %
569 08-04-2020 22:41:17 11.8 C 26 %
570 08-04-2020 22:51:18 11.6 C 26 %
571 08-04-2020 23:01:17 12 C 25 %
572 08-04-2020 23:11:17 11.5 C 26 %
573 08-04-2020 23:21:17 10.9 C 28 %
574 08-04-2020 23:31:17 10.5 C 29 %
575 08-04-2020 23:41:17 10.7 C 28 %
Sensor: Nr:Datum:Temp:Feuchte:
Aussen-T/F 576 08-04-2020 23:51:17 11.2 C 28 %
577 09-04-2020 00:01:18 10.7 C 29 %
578 09-04-2020 00:11:18 10.7 C 29 %
579 09-04-2020 00:21:17 10.3 C 30 %
580 09-04-2020 00:31:18 10 C 30 %
581 09-04-2020 00:41:18 10.5 C 30 %
582 09-04-2020 00:51:17 10.5 C 30 %
583 09-04-2020 01:01:17 10 C 30 %
584 09-04-2020 01:11:17 9.6 C 31 %
585 09-04-2020 01:21:17 9.2 C 32 %
586 09-04-2020 01:31:17 9.9 C 33 %
587 09-04-2020 01:41:17 9.3 C 33 %
588 09-04-2020 01:51:17 9.6 C 33 %
589 09-04-2020 02:01:17 8.8 C 35 %
590 09-04-2020 02:11:17 9.1 C 34 %
591 09-04-2020 02:21:18 9 C 34 %
592 09-04-2020 02:31:18 8.8 C 35 %
593 09-04-2020 02:41:18 8.7 C 35 %
594 09-04-2020 02:51:17 8.8 C 35 %
595 09-04-2020 03:01:17 9.2 C 34 %
596 09-04-2020 03:11:17 9.7 C 33 %
597 09-04-2020 03:21:17 9.5 C 33 %
598 09-04-2020 03:31:17 9.4 C 34 %
599 09-04-2020 03:41:17 9.5 C 34 %
600 09-04-2020 03:51:17 10.2 C 32 %
Sensor: Nr:Datum:Temp:Feuchte:
Aussen-T/F 601 09-04-2020 04:01:17 9.9 C 34 %
602 09-04-2020 04:11:17 10.1 C 33 %
603 09-04-2020 04:21:17 10 C 33 %
604 09-04-2020 04:31:18 9.4 C 34 %
605 09-04-2020 04:41:18 9.3 C 35 %
606 09-04-2020 04:51:17 8.9 C 35 %
607 09-04-2020 05:01:17 8.7 C 36 %
608 09-04-2020 05:11:17 8.6 C 35 %
609 09-04-2020 05:21:17 8.5 C 36 %
610 09-04-2020 05:31:18 8.2 C 36 %
611 09-04-2020 05:41:18 8.1 C 36 %
612 09-04-2020 05:51:17 8.1 C 37 %
613 09-04-2020 06:01:18 8.1 C 37 %
614 09-04-2020 06:11:18 7.7 C 38 %
615 09-04-2020 06:21:17 7.1 C 38 %
616 09-04-2020 06:31:17 7 C 38 %
617 09-04-2020 06:41:17 6.6 C 39 %
618 09-04-2020 06:51:17 6.8 C 40 %
619 09-04-2020 07:01:17 6.9 C 40 %
620 09-04-2020 07:11:17 7.3 C 39 %
621 09-04-2020 07:21:17 7.3 C 39 %
622 09-04-2020 07:31:17 7 C 39 %
623 09-04-2020 07:41:17 6.9 C 40 %
624 09-04-2020 07:51:17 7 C 40 %
625 09-04-2020 08:01:17 7 C 40 %
Sensor: Nr:Datum:Temp:Feuchte:
Aussen-T/F 626 09-04-2020 08:11:17 7.3 C 40 %
627 09-04-2020 08:21:18 7.4 C 40 %
628 09-04-2020 08:31:17 7.6 C 40 %
629 09-04-2020 08:41:17 8 C 39 %
630 09-04-2020 08:51:17 8.3 C 39 %
631 09-04-2020 09:01:17 8.5 C 38 %
632 09-04-2020 09:11:17 8.7 C 39 %
633 09-04-2020 09:21:17 9 C 38 %
634 09-04-2020 09:31:17 9.3 C 38 %
635 09-04-2020 09:41:17 9.8 C 37 %
636 09-04-2020 09:51:17 10.4 C 36 %
637 09-04-2020 10:01:17 10.8 C 36 %
638 09-04-2020 10:11:17 11.2 C 35 %
639 09-04-2020 10:21:17 11.8 C 35 %
640 09-04-2020 10:31:17 12.6 C 34 %
641 09-04-2020 10:41:17 13.3 C 32 %
642 09-04-2020 10:51:18 14.6 C 31 %
643 09-04-2020 11:01:17 15.4 C 30 %
644 09-04-2020 11:11:18 16.2 C 28 %
645 09-04-2020 11:21:17 17 C 25 %
646 09-04-2020 11:31:17 17.9 C 23 %
647 09-04-2020 11:41:17 18.5 C 21 %
648 09-04-2020 11:51:18 19 C 20 %
649 09-04-2020 12:01:17 19.3 C 20 %
650 09-04-2020 12:11:17 19.8 C 20 %
Sensor: Nr:Datum:Temp:Feuchte:
Aussen-T/F 651 09-04-2020 12:21:17 20.7 C 20 %
652 09-04-2020 12:31:17 22 C 20 %
653 09-04-2020 12:41:17 23 C 20 %
654 09-04-2020 12:51:18 22.3 C 20 %
655 09-04-2020 13:01:17 23.2 C 20 %
656 09-04-2020 13:11:17 23.3 C 20 %
657 09-04-2020 13:21:17 22.9 C 20 %
658 09-04-2020 13:31:17 22.4 C 20 %
659 09-04-2020 13:41:18 22.6 C 20 %
660 09-04-2020 13:51:17 22.8 C 20 %
661 09-04-2020 14:01:17 24.1 C 20 %
662 09-04-2020 14:11:17 23.8 C 20 %
663 09-04-2020 14:21:17 24.3 C 20 %
664 09-04-2020 14:31:17 26.8 C 20 %
665 09-04-2020 14:41:17 28 C 20 %
666 09-04-2020 14:51:17 29.2 C 20 %
667 09-04-2020 15:01:17 28.6 C 20 %
668 09-04-2020 15:11:17 31.7 C 20 %
669 09-04-2020 15:21:17 28.2 C 20 %
670 09-04-2020 15:31:18 28.7 C 20 %
671 09-04-2020 15:41:18 28.4 C 20 %
672 09-04-2020 15:51:17 30.1 C 20 %
673 09-04-2020 16:01:18 29.2 C 20 %
674 09-04-2020 16:11:18 29.3 C 20 %
675 09-04-2020 16:21:17 31.4 C 20 %
Sensor: Nr:Datum:Temp:Feuchte:
Aussen-T/F 676 09-04-2020 16:31:17 28.8 C 20 %
677 09-04-2020 16:41:17 28.8 C 20 %
678 09-04-2020 16:51:17 29.2 C 20 %
679 09-04-2020 17:01:17 28.7 C 20 %
680 09-04-2020 17:11:17 28.4 C 20 %
681 09-04-2020 17:21:17 29.8 C 20 %
682 09-04-2020 17:31:17 28 C 20 %
683 09-04-2020 17:41:17 27.6 C 20 %
684 09-04-2020 17:51:18 27.1 C 20 %
685 09-04-2020 18:01:18 25.2 C 20 %
686 09-04-2020 18:11:18 24 C 20 %
687 09-04-2020 18:21:17 23.7 C 20 %
688 09-04-2020 18:31:17 23.4 C 20 %
689 09-04-2020 18:41:17 23.5 C 20 %
690 09-04-2020 18:51:17 22.9 C 20 %
691 09-04-2020 19:01:18 22.7 C 20 %
692 09-04-2020 19:11:18 22.4 C 20 %
693 09-04-2020 19:21:17 21.8 C 20 %
694 09-04-2020 19:31:17 21.1 C 20 %
695 09-04-2020 19:41:17 20.6 C 20 %
696 09-04-2020 19:51:17 20.1 C 20 %
697 09-04-2020 20:01:17 19.7 C 20 %
698 09-04-2020 20:11:17 17.9 C 20 %
699 09-04-2020 20:21:17 16.6 C 20 %
700 09-04-2020 20:31:17 16.6 C 20 %
Sensor: Nr:Datum:Temp:Feuchte:
Aussen-T/F 701 09-04-2020 20:41:17 16.1 C 21 %
702 09-04-2020 20:51:17 16.4 C 20 %
703 09-04-2020 21:01:17 16.2 C 20 %
704 09-04-2020 21:11:17 16.4 C 20 %
705 09-04-2020 21:21:17 16.5 C 20 %
706 09-04-2020 21:31:17 15.9 C 21 %
707 09-04-2020 21:41:17 15.4 C 22 %
708 09-04-2020 21:51:17 15.5 C 22 %
709 09-04-2020 22:01:17 15.5 C 22 %
710 09-04-2020 22:11:17 15.2 C 22 %
711 09-04-2020 22:21:17 15.1 C 22 %
712 09-04-2020 22:31:18 14.8 C 24 %
713 09-04-2020 22:41:18 14.6 C 25 %
714 09-04-2020 22:51:17 14.3 C 25 %
715 09-04-2020 23:01:18 14.2 C 25 %
716 09-04-2020 23:11:18 14.2 C 25 %
717 09-04-2020 23:21:17 13.6 C 26 %
718 09-04-2020 23:31:17 13.8 C 26 %
719 09-04-2020 23:41:18 13.7 C 26 %
720 09-04-2020 23:51:17 12.7 C 28 %
721 10-04-2020 00:01:17 12.7 C 29 %
722 10-04-2020 00:11:17 11.7 C 31 %
723 10-04-2020 00:21:18 11.8 C 31 %
724 10-04-2020 00:31:18 11.1 C 32 %
725 10-04-2020 00:41:18 10.7 C 34 %
Sensor: Nr:Datum:Temp:Feuchte:
Aussen-T/F 726 10-04-2020 00:51:17 10.5 C 34 %
727 10-04-2020 01:01:17 10.1 C 35 %
728 10-04-2020 01:11:17 10 C 35 %
729 10-04-2020 01:21:17 9.7 C 36 %
730 10-04-2020 01:31:17 9.6 C 36 %
731 10-04-2020 01:41:17 9.5 C 36 %
732 10-04-2020 01:51:17 9 C 36 %
733 10-04-2020 02:01:17 9.2 C 36 %
734 10-04-2020 02:11:17 8.9 C 37 %
735 10-04-2020 02:21:18 8.7 C 37 %
736 10-04-2020 02:31:18 8.6 C 37 %
737 10-04-2020 02:41:18 8.3 C 38 %
738 10-04-2020 02:51:17 8.2 C 38 %
739 10-04-2020 03:01:18 8.3 C 38 %
740 10-04-2020 03:11:18 7.9 C 39 %
741 10-04-2020 03:21:17 7.6 C 39 %
742 10-04-2020 03:31:17 7.4 C 40 %
743 10-04-2020 03:41:17 7.2 C 40 %
744 10-04-2020 03:51:17 7.1 C 40 %
745 10-04-2020 04:01:18 7 C 40 %
746 10-04-2020 04:11:18 6.8 C 41 %
747 10-04-2020 04:21:17 6.9 C 41 %
748 10-04-2020 04:31:17 6.6 C 41 %
749 10-04-2020 04:41:17 6.6 C 41 %
750 10-04-2020 04:51:18 6.6 C 41 %
Sensor: Nr:Datum:Temp:Feuchte:
Aussen-T/F 751 10-04-2020 05:01:17 6.3 C 41 %
752 10-04-2020 05:11:17 6.3 C 42 %
753 10-04-2020 05:21:18 6.4 C 42 %
754 10-04-2020 05:31:17 6.2 C 42 %
755 10-04-2020 05:41:17 5.9 C 43 %
756 10-04-2020 05:51:17 5.7 C 43 %
757 10-04-2020 06:01:17 5.8 C 44 %
758 10-04-2020 06:11:17 5.8 C 44 %
759 10-04-2020 06:21:17 5.6 C 44 %
760 10-04-2020 06:31:18 5.4 C 44 %
761 10-04-2020 06:41:18 5.4 C 44 %
762 10-04-2020 06:51:17 5.4 C 44 %
763 10-04-2020 07:01:18 5.3 C 44 %
764 10-04-2020 07:11:18 5.3 C 45 %
765 10-04-2020 07:21:17 5.3 C 45 %
766 10-04-2020 07:31:18 5.3 C 45 %
767 10-04-2020 07:41:18 5.3 C 45 %
768 10-04-2020 07:51:17 5.9 C 46 %
769 10-04-2020 08:01:17 5.8 C 45 %
770 10-04-2020 08:11:17 5.8 C 45 %
771 10-04-2020 08:21:17 6 C 44 %
772 10-04-2020 08:31:17 6.1 C 45 %
773 10-04-2020 08:41:17 6.2 C 44 %
774 10-04-2020 08:51:17 6.5 C 45 %
775 10-04-2020 09:01:17 6.9 C 45 %
Sensor: Nr:Datum:Temp:Feuchte:
Aussen-T/F 776 10-04-2020 09:11:17 7.8 C 42 %
777 10-04-2020 09:21:18 8.2 C 41 %
778 10-04-2020 09:31:18 8.5 C 40 %
779 10-04-2020 09:41:18 9.1 C 39 %
780 10-04-2020 09:51:17 9.4 C 39 %
781 10-04-2020 10:01:17 9.9 C 38 %
782 10-04-2020 10:11:17 10.2 C 37 %
783 10-04-2020 10:21:17 10.8 C 37 %
784 10-04-2020 10:31:17 11.6 C 36 %
785 10-04-2020 10:41:17 12.3 C 35 %
786 10-04-2020 10:51:17 13.4 C 33 %
787 10-04-2020 11:01:17 14 C 31 %
788 10-04-2020 11:11:17 14.7 C 31 %
789 10-04-2020 11:21:17 15.9 C 28 %
790 10-04-2020 11:31:17 16.3 C 27 %
791 10-04-2020 11:41:17 16.8 C 26 %
792 10-04-2020 11:51:17 17.5 C 25 %
793 10-04-2020 12:01:17 17.9 C 24 %
794 10-04-2020 12:11:17 18.4 C 21 %
795 10-04-2020 12:21:17 19.2 C 20 %
796 10-04-2020 12:31:17 19.7 C 20 %
797 10-04-2020 12:41:17 20.6 C 20 %
798 10-04-2020 12:51:17 20.4 C 20 %
799 10-04-2020 13:01:17 20.8 C 20 %
800 10-04-2020 13:11:17 20.2 C 20 %
Sensor: Nr:Datum:Temp:Feuchte:
Aussen-T/F 801 10-04-2020 13:21:17 20.4 C 20 %
802 10-04-2020 13:31:17 20.2 C 20 %
803 10-04-2020 13:41:17 20.4 C 20 %
804 10-04-2020 13:51:17 20.7 C 20 %
805 10-04-2020 14:01:17 21.7 C 20 %
806 10-04-2020 14:11:17 21.6 C 20 %
807 10-04-2020 14:21:18 22 C 20 %
808 10-04-2020 14:31:18 25.1 C 20 %
809 10-04-2020 14:41:18 29.1 C 20 %
810 10-04-2020 14:51:17 27.6 C 20 %
811 10-04-2020 15:01:17 27.9 C 20 %
812 10-04-2020 15:11:17 31.6 C 20 %
813 10-04-2020 15:21:17 30.1 C 20 %
814 10-04-2020 15:31:17 30.5 C 20 %
815 10-04-2020 15:41:17 30.2 C 20 %
816 10-04-2020 15:51:17 29.1 C 20 %
817 10-04-2020 16:01:17 29.8 C 20 %
818 10-04-2020 16:11:17 30.3 C 20 %
819 10-04-2020 16:21:17 28.8 C 20 %
820 10-04-2020 16:31:17 29.1 C 20 %
821 10-04-2020 16:41:17 28.3 C 20 %
822 10-04-2020 16:51:17 30.8 C 20 %
823 10-04-2020 17:01:17 29.6 C 20 %
824 10-04-2020 17:11:17 28.8 C 20 %
825 10-04-2020 17:21:17 26.8 C 20 %
Sensor: Nr:Datum:Temp:Feuchte:
Aussen-T/F 826 10-04-2020 17:31:17 28.5 C 20 %
827 10-04-2020 17:41:17 27.6 C 20 %
828 10-04-2020 17:51:18 26.4 C 20 %
829 10-04-2020 18:01:17 23.6 C 20 %
830 10-04-2020 18:11:17 23 C 20 %
831 10-04-2020 18:21:18 22.5 C 20 %
832 10-04-2020 18:31:18 22.2 C 20 %
833 10-04-2020 18:41:18 22.3 C 20 %
834 10-04-2020 18:51:17 22 C 20 %
835 10-04-2020 19:01:17 21.6 C 20 %
836 10-04-2020 19:11:17 21.4 C 20 %
837 10-04-2020 19:21:17 21.1 C 20 %
838 10-04-2020 19:31:17 20.9 C 20 %
839 10-04-2020 19:41:17 20.7 C 20 %
840 10-04-2020 19:51:18 20.2 C 20 %
841 10-04-2020 20:01:17 19.6 C 20 %
842 10-04-2020 20:11:17 18.5 C 20 %
843 10-04-2020 20:21:18 16 C 20 %
844 10-04-2020 20:31:17 15.9 C 20 %
845 10-04-2020 20:41:17 15.3 C 20 %
846 10-04-2020 20:51:17 15 C 20 %
847 10-04-2020 21:01:17 15.3 C 20 %
848 10-04-2020 21:11:17 14.7 C 20 %
849 10-04-2020 21:21:17 14.3 C 21 %
850 10-04-2020 21:31:17 13.8 C 21 %
Sensor: Nr:Datum:Temp:Feuchte:
Aussen-T/F 851 10-04-2020 21:41:17 14.2 C 21 %
852 10-04-2020 21:51:17 14.3 C 21 %
853 10-04-2020 22:01:18 14.5 C 21 %
854 10-04-2020 22:11:18 14.9 C 20 %
855 10-04-2020 22:21:18 14.5 C 22 %
856 10-04-2020 22:31:17 14.5 C 22 %
857 10-04-2020 22:41:17 13.9 C 24 %
858 10-04-2020 22:51:17 13.1 C 25 %
859 10-04-2020 23:01:17 12.7 C 25 %
860 10-04-2020 23:11:17 12.8 C 25 %
861 10-04-2020 23:21:17 12 C 26 %
862 10-04-2020 23:31:17 12.2 C 26 %
863 10-04-2020 23:41:17 11.2 C 28 %
864 10-04-2020 23:51:17 11.1 C 29 %
865 11-04-2020 00:01:18 10.5 C 30 %
866 11-04-2020 00:11:18 10.8 C 30 %
867 11-04-2020 00:21:17 10.8 C 30 %
868 11-04-2020 00:31:17 10.1 C 31 %
869 11-04-2020 00:41:18 9.9 C 32 %
870 11-04-2020 00:51:18 10 C 31 %
871 11-04-2020 01:01:17 9.6 C 31 %
872 11-04-2020 01:11:17 9.6 C 32 %
873 11-04-2020 01:21:17 9.1 C 32 %
874 11-04-2020 01:31:18 9.2 C 32 %
875 11-04-2020 01:41:18 9 C 32 %
Sensor: Nr:Datum:Temp:Feuchte:
Aussen-T/F 876 11-04-2020 01:51:18 8.7 C 32 %
877 11-04-2020 02:01:17 8.4 C 32 %
878 11-04-2020 02:11:17 8.2 C 32 %
879 11-04-2020 02:21:18 8.1 C 32 %
880 11-04-2020 02:31:17 8.3 C 32 %
881 11-04-2020 02:41:17 8.1 C 32 %
882 11-04-2020 02:51:17 7.9 C 33 %
883 11-04-2020 03:01:17 8.5 C 31 %
884 11-04-2020 03:11:17 8.7 C 31 %
885 11-04-2020 03:21:17 8.8 C 30 %
886 11-04-2020 03:31:18 8.8 C 30 %
887 11-04-2020 03:41:18 8.2 C 30 %
888 11-04-2020 03:51:17 8.6 C 30 %
889 11-04-2020 04:01:17 8.3 C 30 %
890 11-04-2020 04:11:17 8.3 C 30 %
891 11-04-2020 04:21:17 7.7 C 30 %
892 11-04-2020 04:31:17 7.4 C 30 %
893 11-04-2020 04:41:17 7.5 C 30 %
894 11-04-2020 04:51:17 7.6 C 29 %
895 11-04-2020 05:01:17 7.4 C 29 %
896 11-04-2020 05:11:17 6.9 C 30 %
897 11-04-2020 05:21:17 6.8 C 30 %
898 11-04-2020 05:31:18 6.1 C 31 %
899 11-04-2020 05:41:18 5.8 C 32 %
900 11-04-2020 05:51:17 5.7 C 32 %
Sensor: Nr:Datum:Temp:Feuchte:
Aussen-T/F 901 11-04-2020 06:01:17 5.6 C 32 %
902 11-04-2020 06:11:17 5 C 33 %
903 11-04-2020 06:21:17 4.9 C 35 %
904 11-04-2020 06:31:18 5 C 33 %
905 11-04-2020 06:41:18 4.6 C 35 %
906 11-04-2020 06:51:17 4.6 C 35 %
907 11-04-2020 07:01:18 4.4 C 35 %
908 11-04-2020 07:11:18 4.5 C 35 %
909 11-04-2020 07:21:17 4.4 C 35 %
910 11-04-2020 07:31:18 4.4 C 36 %
911 11-04-2020 07:41:18 4.7 C 35 %
912 11-04-2020 07:51:17 5 C 34 %
913 11-04-2020 08:01:18 5 C 34 %
914 11-04-2020 08:11:18 5 C 35 %
915 11-04-2020 08:21:18 5.1 C 35 %
916 11-04-2020 08:31:18 5.5 C 34 %
917 11-04-2020 08:41:18 6 C 33 %
918 11-04-2020 08:51:18 6.4 C 32 %
919 11-04-2020 09:01:17 6.5 C 33 %
920 11-04-2020 09:11:18 7.1 C 31 %
921 11-04-2020 09:21:17 7.3 C 31 %
922 11-04-2020 09:31:18 7.8 C 31 %
923 11-04-2020 09:41:18 8.2 C 30 %
924 11-04-2020 09:51:17 8.6 C 30 %
925 11-04-2020 10:01:17 9.1 C 29 %
Sensor: Nr:Datum:Temp:Feuchte:
Aussen-T/F 926 11-04-2020 10:11:17 9.5 C 29 %
927 11-04-2020 10:21:17 10.2 C 26 %
928 11-04-2020 10:31:17 10.7 C 27 %
929 11-04-2020 10:41:17 11.5 C 25 %
930 11-04-2020 10:51:17 12.3 C 21 %
931 11-04-2020 11:01:18 12.9 C 20 %
932 11-04-2020 11:11:18 13.7 C 20 %
933 11-04-2020 11:21:17 14.5 C 20 %
934 11-04-2020 11:31:17 15.3 C 20 %
935 11-04-2020 11:41:18 16 C 20 %
936 11-04-2020 11:51:17 16.5 C 20 %
937 11-04-2020 12:01:17 17.2 C 20 %
938 11-04-2020 12:11:17 17.5 C 20 %
939 11-04-2020 12:21:18 18.1 C 20 %
940 11-04-2020 12:31:17 19.1 C 20 %
941 11-04-2020 12:41:17 19.4 C 20 %
942 11-04-2020 12:51:17 19.5 C 20 %
943 11-04-2020 13:01:17 19.6 C 20 %
944 11-04-2020 13:11:17 19.5 C 20 %
945 11-04-2020 13:21:17 19.5 C 20 %
946 11-04-2020 13:31:17 19.6 C 20 %
947 11-04-2020 13:41:17 19.9 C 20 %
948 11-04-2020 13:51:17 20.2 C 20 %
949 11-04-2020 14:01:18 20.9 C 20 %
950 11-04-2020 14:11:18 21.3 C 20 %
Sensor: Nr:Datum:Temp:Feuchte:
Aussen-T/F 951 11-04-2020 14:21:17 21.5 C 20 %
952 11-04-2020 14:31:17 24.4 C 20 %
953 11-04-2020 14:41:17 27.5 C 20 %
954 11-04-2020 14:51:18 27.4 C 20 %
955 11-04-2020 15:01:18 28.6 C 20 %
956 11-04-2020 15:11:18 30.4 C 20 %
957 11-04-2020 15:21:17 29.9 C 20 %
958 11-04-2020 15:31:17 30.4 C 20 %
959 11-04-2020 15:41:17 31.2 C 20 %
960 11-04-2020 15:51:18 31.8 C 20 %
961 11-04-2020 16:01:17 28.5 C 20 %
962 11-04-2020 16:11:17 31.4 C 20 %
963 11-04-2020 16:21:18 30.7 C 20 %
964 11-04-2020 16:31:17 31.5 C 20 %
965 11-04-2020 16:41:17 31.3 C 20 %
966 11-04-2020 16:51:17 32.1 C 20 %
967 11-04-2020 17:01:17 31.8 C 20 %
968 11-04-2020 17:11:17 29.5 C 20 %
969 11-04-2020 17:21:17 29.8 C 20 %
970 11-04-2020 17:31:17 28.7 C 20 %
971 11-04-2020 17:41:17 26.5 C 20 %
972 11-04-2020 17:51:17 27.5 C 20 %
973 11-04-2020 18:01:17 24.2 C 20 %
974 11-04-2020 18:11:17 23.4 C 20 %
975 11-04-2020 18:21:17 23.6 C 20 %
Sensor: Nr:Datum:Temp:Feuchte:
Aussen-T/F 976 11-04-2020 18:31:17 23.6 C 20 %
977 11-04-2020 18:41:17 23.3 C 20 %
978 11-04-2020 18:51:17 22.9 C 20 %
979 11-04-2020 19:01:17 22.9 C 20 %
980 11-04-2020 19:11:17 22.7 C 20 %
981 11-04-2020 19:21:18 22 C 20 %
982 11-04-2020 19:31:17 21.7 C 20 %
983 11-04-2020 19:41:17 21.2 C 20 %
984 11-04-2020 19:51:17 18.9 C 20 %
985 11-04-2020 20:01:17 18 C 20 %
986 11-04-2020 20:11:17 17.1 C 20 %
987 11-04-2020 20:21:17 16.6 C 20 %
988 11-04-2020 20:31:17 16.5 C 20 %
989 11-04-2020 20:41:17 16.5 C 20 %
990 11-04-2020 20:51:17 16.2 C 20 %
991 11-04-2020 21:01:18 16 C 20 %
992 11-04-2020 21:11:18 15.5 C 20 %
993 11-04-2020 21:21:18 15.4 C 20 %
994 11-04-2020 21:31:17 15.1 C 20 %
995 11-04-2020 21:41:17 14.8 C 20 %
996 11-04-2020 21:51:17 14.5 C 20 %
997 11-04-2020 22:01:17 14.3 C 20 %
998 11-04-2020 22:11:17 14.4 C 20 %
999 11-04-2020 22:21:17 14 C 20 %
1000 11-04-2020 22:31:18 14 C 21 %
Sensor: Nr:Datum:Temp:Feuchte:
Aussen-T/F 1001 11-04-2020 22:41:18 14.4 C 21 %
1002 11-04-2020 22:51:17 14.4 C 22 %
1003 11-04-2020 23:01:17 13.7 C 23 %
1004 11-04-2020 23:11:17 13 C 24 %
1005 11-04-2020 23:21:18 12.3 C 26 %
1006 11-04-2020 23:31:18 12.1 C 26 %
1007 11-04-2020 23:41:18 11.8 C 27 %
1008 11-04-2020 23:51:17 11.7 C 28 %
1009 12-04-2020 00:01:17 11.6 C 29 %
1010 12-04-2020 00:11:17 11.3 C 28 %
1011 12-04-2020 00:21:17 11.3 C 29 %
1012 12-04-2020 00:31:17 11.5 C 29 %
1013 12-04-2020 00:41:17 11.6 C 29 %
1014 12-04-2020 00:51:17 11.4 C 28 %
1015 12-04-2020 01:01:17 11.3 C 28 %
1016 12-04-2020 01:11:17 11 C 28 %
1017 12-04-2020 01:21:17 10.6 C 29 %
1018 12-04-2020 01:31:18 10.3 C 29 %
1019 12-04-2020 01:41:18 10.2 C 30 %
1020 12-04-2020 01:51:17 10.6 C 29 %
1021 12-04-2020 02:01:18 10.8 C 30 %
1022 12-04-2020 02:11:18 10.7 C 31 %
1023 12-04-2020 02:21:18 10.3 C 31 %
1024 12-04-2020 02:31:17 10.4 C 30 %
1025 12-04-2020 02:41:17 10.2 C 31 %
Sensor: Nr:Datum:Temp:Feuchte:
Aussen-T/F 1026 12-04-2020 02:51:17 10.1 C 31 %
1027 12-04-2020 03:01:17 10.3 C 31 %
1028 12-04-2020 03:11:17 10.2 C 31 %
1029 12-04-2020 03:21:17 10.1 C 32 %
1030 12-04-2020 03:31:17 10 C 32 %
1031 12-04-2020 03:41:18 9.9 C 33 %
1032 12-04-2020 03:51:17 10 C 32 %
1033 12-04-2020 04:01:17 9.8 C 33 %
1034 12-04-2020 04:11:17 9.7 C 33 %
1035 12-04-2020 04:21:17 8.9 C 35 %
1036 12-04-2020 04:31:17 8.8 C 34 %
1037 12-04-2020 04:41:17 8.9 C 35 %
1038 12-04-2020 04:51:17 8.5 C 35 %
1039 12-04-2020 05:01:18 8.2 C 36 %
1040 12-04-2020 05:11:18 8.4 C 36 %
1041 12-04-2020 05:21:17 8.5 C 36 %
1042 12-04-2020 05:31:17 8.2 C 36 %
1043 12-04-2020 05:41:17 8 C 36 %
1044 12-04-2020 05:51:17 7.6 C 37 %
1045 12-04-2020 06:01:17 7.7 C 37 %
1046 12-04-2020 06:11:17 7.5 C 38 %
1047 12-04-2020 06:21:17 7.2 C 38 %
1048 12-04-2020 06:31:17 7.1 C 39 %
1049 12-04-2020 06:41:17 7.2 C 39 %
1050 12-04-2020 06:51:17 7.3 C 39 %
Sensor: Nr:Datum:Temp:Feuchte:
Aussen-T/F 1051 12-04-2020 07:01:17 6.9 C 39 %
1052 12-04-2020 07:11:17 6.7 C 40 %
1053 12-04-2020 07:21:17 6.5 C 40 %
1054 12-04-2020 07:31:17 6.7 C 40 %
1055 12-04-2020 07:41:17 7.1 C 40 %
1056 12-04-2020 07:51:18 7 C 40 %
1057 12-04-2020 08:01:17 7.3 C 40 %
1058 12-04-2020 08:11:17 7.5 C 40 %
1059 12-04-2020 08:21:17 7.5 C 40 %
1060 12-04-2020 08:31:17 7.6 C 40 %
1061 12-04-2020 08:41:18 7.9 C 40 %
1062 12-04-2020 08:51:17 8.2 C 40 %
1063 12-04-2020 09:01:18 8.8 C 39 %
1064 12-04-2020 09:11:18 9.2 C 38 %
1065 12-04-2020 09:21:17 9.5 C 38 %
1066 12-04-2020 09:31:17 10 C 37 %
1067 12-04-2020 09:41:17 10.1 C 37 %
1068 12-04-2020 09:51:17 11 C 36 %
1069 12-04-2020 10:01:17 11.3 C 36 %
1070 12-04-2020 10:11:17 11.7 C 35 %
1071 12-04-2020 10:21:17 12.2 C 35 %
1072 12-04-2020 10:31:18 13.2 C 33 %
1073 12-04-2020 10:41:18 14.4 C 31 %
1074 12-04-2020 10:51:17 14.9 C 31 %
1075 12-04-2020 11:01:17 15.6 C 30 %
Sensor: Nr:Datum:Temp:Feuchte:
Aussen-T/F 1076 12-04-2020 11:11:17 17 C 27 %
1077 12-04-2020 11:21:17 17.6 C 27 %
1078 12-04-2020 11:31:17 18 C 26 %
1079 12-04-2020 11:41:17 18.5 C 24 %
1080 12-04-2020 11:51:17 19.1 C 20 %
1081 12-04-2020 12:01:17 20.6 C 20 %
1082 12-04-2020 12:11:17 20.8 C 20 %
1083 12-04-2020 12:21:17 21.7 C 20 %
1084 12-04-2020 12:31:17 21.6 C 20 %
1085 12-04-2020 12:41:17 21.8 C 20 %
1086 12-04-2020 12:51:18 21.2 C 20 %
1087 12-04-2020 13:01:17 21.7 C 20 %
1088 12-04-2020 13:11:17 21.7 C 20 %
1089 12-04-2020 13:21:17 22 C 20 %
1090 12-04-2020 13:31:17 21.7 C 20 %
1091 12-04-2020 13:41:17 22 C 20 %
1092 12-04-2020 13:51:17 22.1 C 20 %
1093 12-04-2020 14:01:17 22.4 C 20 %
1094 12-04-2020 14:11:17 22.8 C 20 %
1095 12-04-2020 14:21:17 22.9 C 20 %
1096 12-04-2020 14:31:17 26.2 C 20 %
1097 12-04-2020 14:41:17 28.6 C 20 %
1098 12-04-2020 14:51:17 28.5 C 20 %
1099 12-04-2020 15:01:17 30.3 C 20 %
1100 12-04-2020 15:11:17 27.7 C 20 %
Sensor: Nr:Datum:Temp:Feuchte:
Aussen-T/F 1101 12-04-2020 15:21:17 27.9 C 20 %
1102 12-04-2020 15:31:18 30.7 C 20 %
1103 12-04-2020 15:41:18 30.5 C 20 %
1104 12-04-2020 15:51:18 28.3 C 20 %
1105 12-04-2020 16:01:17 30.5 C 20 %
1106 12-04-2020 16:11:17 33.2 C 20 %
1107 12-04-2020 16:21:17 32.8 C 20 %
1108 12-04-2020 16:31:17 27.8 C 20 %
1109 12-04-2020 16:41:17 26 C 20 %
1110 12-04-2020 16:51:17 24.7 C 20 %
1111 12-04-2020 17:01:17 29.6 C 20 %
1112 12-04-2020 17:11:18 29.6 C 20 %
1113 12-04-2020 17:21:17 29.5 C 20 %
1114 12-04-2020 17:31:17 26.5 C 20 %
1115 12-04-2020 17:41:17 29.3 C 20 %
1116 12-04-2020 17:51:17 29.8 C 20 %
1117 12-04-2020 18:01:18 24.6 C 20 %
1118 12-04-2020 18:11:18 24 C 20 %
1119 12-04-2020 18:21:17 24 C 20 %
1120 12-04-2020 18:31:17 23.6 C 20 %
1121 12-04-2020 18:41:17 22.9 C 20 %
1122 12-04-2020 18:51:17 22.4 C 20 %
1123 12-04-2020 19:01:17 22.5 C 20 %
1124 12-04-2020 19:11:17 22.4 C 20 %
1125 12-04-2020 19:21:17 22 C 20 %
Sensor: Nr:Datum:Temp:Feuchte:
Aussen-T/F 1126 12-04-2020 19:31:17 21.6 C 20 %
1127 12-04-2020 19:41:17 20.3 C 20 %
1128 12-04-2020 19:51:18 19.1 C 20 %
1129 12-04-2020 20:01:18 18.2 C 20 %
1130 12-04-2020 20:11:18 17.9 C 20 %
1131 12-04-2020 20:21:17 17.5 C 20 %
1132 12-04-2020 20:31:18 17 C 20 %
1133 12-04-2020 20:41:18 16.8 C 20 %
1134 12-04-2020 20:51:17 16 C 20 %
1135 12-04-2020 21:01:17 15.5 C 20 %
1136 12-04-2020 21:11:17 14 C 20 %
1137 12-04-2020 21:22:17 13.5 C 20 %
1138 12-04-2020 21:31:17 13.2 C 21 %
1139 12-04-2020 21:41:17 13.2 C 20 %
1140 12-04-2020 21:51:17 13.3 C 21 %
1141 12-04-2020 22:01:17 13.4 C 20 %
1142 12-04-2020 22:11:17 13 C 21 %
1143 12-04-2020 22:22:17 12.9 C 22 %
1144 12-04-2020 22:32:17 12.2 C 23 %
1145 12-04-2020 22:42:17 11.8 C 26 %
1146 12-04-2020 22:51:17 11.7 C 25 %
1147 12-04-2020 23:01:18 11.5 C 25 %
1148 12-04-2020 23:11:18 11.1 C 26 %
1149 12-04-2020 23:21:17 10.9 C 27 %
1150 12-04-2020 23:32:17 10.7 C 28 %
Sensor: Nr:Datum:Temp:Feuchte:
Aussen-T/F 1151 12-04-2020 23:41:17 10.3 C 28 %
1152 12-04-2020 23:52:17 10.5 C 28 %
1153 13-04-2020 00:01:17 10.6 C 28 %
1154 13-04-2020 00:11:17 10.4 C 29 %
1155 13-04-2020 00:21:18 10.4 C 30 %
1156 13-04-2020 00:31:17 10.1 C 30 %
1157 13-04-2020 00:41:17 9.9 C 31 %
1158 13-04-2020 00:51:17 9.7 C 31 %
1159 13-04-2020 01:01:18 9.5 C 31 %
1160 13-04-2020 01:11:18 9.4 C 32 %
1161 13-04-2020 01:21:18 9 C 32 %
1162 13-04-2020 01:31:18 9.3 C 32 %
1163 13-04-2020 01:41:18 9.2 C 32 %
1164 13-04-2020 01:51:18 9.3 C 32 %
1165 13-04-2020 02:02:17 9.2 C 32 %
1166 13-04-2020 02:12:17 9.2 C 32 %
1167 13-04-2020 02:21:17 9.1 C 32 %
1168 13-04-2020 02:31:18 9 C 33 %
1169 13-04-2020 02:41:18 8.6 C 34 %
1170 13-04-2020 02:51:17 8.6 C 34 %
1171 13-04-2020 03:01:18 8.4 C 34 %
1172 13-04-2020 03:11:18 8.2 C 35 %
1173 13-04-2020 03:22:17 7.9 C 35 %
1174 13-04-2020 03:32:17 8.1 C 35 %
1175 13-04-2020 03:42:17 8 C 35 %
Sensor: Nr:Datum:Temp:Feuchte:
Aussen-T/F 1176 13-04-2020 03:51:17 7.8 C 35 %
1177 13-04-2020 04:02:17 7.5 C 36 %
1178 13-04-2020 04:12:17 7.2 C 36 %
1179 13-04-2020 04:21:18 6.8 C 38 %
1180 13-04-2020 04:32:17 6.8 C 38 %
1181 13-04-2020 04:41:17 6.7 C 39 %
1182 13-04-2020 04:52:17 7.7 C 37 %
1183 13-04-2020 05:02:17 7.3 C 37 %
1184 13-04-2020 05:12:17 7.5 C 38 %
1185 13-04-2020 05:22:17 7.8 C 38 %
1186 13-04-2020 05:32:17 7.6 C 37 %
1187 13-04-2020 05:42:17 7.4 C 37 %
1188 13-04-2020 05:52:17 7.2 C 38 %
1189 13-04-2020 06:02:17 7.2 C 38 %
1190 13-04-2020 06:12:17 6.6 C 39 %
1191 13-04-2020 06:22:17 6.2 C 39 %
1192 13-04-2020 06:32:17 6.3 C 40 %
1193 13-04-2020 06:42:17 6.3 C 40 %
1194 13-04-2020 06:52:17 6.4 C 40 %
1195 13-04-2020 07:02:17 6.5 C 40 %
1196 13-04-2020 07:12:17 7.2 C 39 %
1197 13-04-2020 07:22:17 7.6 C 38 %
1198 13-04-2020 07:32:17 8.1 C 37 %
1199 13-04-2020 07:42:17 8.3 C 37 %
1200 13-04-2020 07:52:17 8.5 C 37 %
Sensor: Nr:Datum:Temp:Feuchte:
Aussen-T/F 1201 13-04-2020 08:02:17 8.6 C 36 %
1202 13-04-2020 08:12:18 8.9 C 36 %
1203 13-04-2020 08:22:17 9 C 36 %
1204 13-04-2020 08:32:17 9.4 C 36 %
1205 13-04-2020 08:42:17 10.7 C 37 %
1206 13-04-2020 08:52:17 11.1 C 36 %
1207 13-04-2020 09:02:17 10.7 C 37 %
1208 13-04-2020 09:12:17 10.7 C 37 %
1209 13-04-2020 09:22:17 11 C 36 %
1210 13-04-2020 09:32:17 11.5 C 36 %
1211 13-04-2020 09:42:17 11.9 C 35 %
1212 13-04-2020 09:52:17 11.4 C 35 %
1213 13-04-2020 10:02:17 11.2 C 35 %
1214 13-04-2020 10:12:17 11.1 C 35 %
1215 13-04-2020 10:22:17 11 C 34 %
1216 13-04-2020 10:32:17 11.1 C 34 %
1217 13-04-2020 10:42:17 11.3 C 34 %
1218 13-04-2020 10:52:17 11.6 C 33 %
1219 13-04-2020 11:02:17 11.6 C 33 %
1220 13-04-2020 11:12:17 11.4 C 32 %
1221 13-04-2020 11:22:17 11.8 C 32 %
1222 13-04-2020 11:32:17 11.5 C 31 %
1223 13-04-2020 11:42:17 11.1 C 31 %
1224 13-04-2020 11:52:16 10.8 C 32 %
1225 13-04-2020 12:02:17 10.9 C 32 %
Sensor: Nr:Datum:Temp:Feuchte:
Aussen-T/F 1226 13-04-2020 12:12:17 10.5 C 33 %
1227 13-04-2020 12:22:17 10.4 C 33 %
1228 13-04-2020 12:32:17 10.7 C 32 %
1229 13-04-2020 12:42:17 11.1 C 32 %
1230 13-04-2020 12:52:17 10.6 C 32 %
1231 13-04-2020 13:02:16 10.3 C 32 %
1232 13-04-2020 13:12:16 10.2 C 32 %
1233 13-04-2020 13:22:17 10.2 C 32 %
1234 13-04-2020 13:32:17 9.6 C 33 %
1235 13-04-2020 13:42:17 8.6 C 35 %
1236 13-04-2020 13:52:17 7.6 C 39 %
1237 13-04-2020 14:02:17 7.5 C 40 %
1238 13-04-2020 14:12:17 7.7 C 38 %
1239 13-04-2020 14:22:16 8.7 C 36 %
1240 13-04-2020 14:32:17 9.2 C 35 %
1241 13-04-2020 14:42:17 9.6 C 34 %
1242 13-04-2020 14:52:16 10.9 C 31 %
1243 13-04-2020 15:02:17 12.4 C 26 %
1244 13-04-2020 15:12:17 12.3 C 25 %
1245 13-04-2020 15:22:17 12.7 C 20 %
1246 13-04-2020 15:32:17 11.8 C 20 %
1247 13-04-2020 15:42:17 12.4 C 20 %
1248 13-04-2020 15:52:16 13.2 C 20 %
1249 13-04-2020 16:02:16 12.2 C 20 %
1250 13-04-2020 16:12:16 14.4 C 20 %
Sensor: Nr:Datum:Temp:Feuchte:
Aussen-T/F 1251 13-04-2020 16:22:16 15 C 20 %
1252 13-04-2020 16:32:17 16 C 20 %
1253 13-04-2020 16:42:17 14.9 C 20 %
1254 13-04-2020 16:52:16 16.5 C 20 %
1255 13-04-2020 17:02:17 15.2 C 20 %
1256 13-04-2020 17:12:17 15.6 C 20 %
1257 13-04-2020 17:22:16 15 C 20 %
1258 13-04-2020 17:32:16 15 C 20 %
1259 13-04-2020 17:42:16 14.5 C 20 %
1260 13-04-2020 17:52:16 15.4 C 20 %
1261 13-04-2020 18:02:16 13.2 C 20 %
1262 13-04-2020 18:12:16 12.5 C 20 %
1263 13-04-2020 18:22:17 12.1 C 20 %
1264 13-04-2020 18:32:17 11.9 C 20 %
1265 13-04-2020 18:42:18 11.1 C 20 %
1266 13-04-2020 18:52:16 11.1 C 20 %
1267 13-04-2020 19:02:16 10.8 C 20 %
1268 13-04-2020 19:12:16 10.5 C 20 %
1269 13-04-2020 19:22:16 10.2 C 20 %
1270 13-04-2020 19:32:17 10 C 20 %
1271 13-04-2020 19:42:17 9.8 C 20 %
1272 13-04-2020 19:52:16 9.6 C 20 %
1273 13-04-2020 20:02:16 9 C 20 %
1274 13-04-2020 20:12:16 8.6 C 20 %
1275 13-04-2020 20:22:16 8.5 C 20 %
Sensor: Nr:Datum:Temp:Feuchte:
Aussen-T/F 1276 13-04-2020 20:32:16 8.4 C 20 %
1277 13-04-2020 20:42:16 8.2 C 20 %
1278 13-04-2020 20:52:16 7.5 C 20 %
1279 13-04-2020 21:02:16 7.5 C 20 %
1280 13-04-2020 21:12:16 7.4 C 20 %
1281 13-04-2020 21:22:16 7.3 C 20 %
1282 13-04-2020 21:32:17 7.2 C 20 %
1283 13-04-2020 21:42:17 6.7 C 20 %
1284 13-04-2020 21:52:16 6.5 C 20 %
1285 13-04-2020 22:02:16 6.1 C 20 %
1286 13-04-2020 22:12:16 5.5 C 20 %
1287 13-04-2020 22:22:16 5.1 C 20 %
1288 13-04-2020 22:32:16 4.6 C 23 %
1289 13-04-2020 22:42:16 4.4 C 25 %
1290 13-04-2020 22:52:16 4.1 C 25 %
1291 13-04-2020 23:02:16 3.9 C 26 %
1292 13-04-2020 23:12:16 3.8 C 27 %
1293 13-04-2020 23:22:16 3.5 C 30 %
1294 13-04-2020 23:32:17 3.3 C 29 %
1295 13-04-2020 23:42:17 4 C 26 %
1296 13-04-2020 23:52:16 4 C 25 %
1297 14-04-2020 00:02:16 3.3 C 28 %
1298 14-04-2020 00:12:16 4.1 C 25 %
1299 14-04-2020 00:22:16 3.2 C 27 %
1300 14-04-2020 00:32:16 3.3 C 27 %
Sensor: Nr:Datum:Temp:Feuchte:
Aussen-T/F 1301 14-04-2020 00:42:16 2.8 C 29 %
1302 14-04-2020 00:52:16 2.9 C 29 %
1303 14-04-2020 01:02:16 3.1 C 27 %
1304 14-04-2020 01:12:16 3.4 C 27 %
1305 14-04-2020 01:22:16 2.8 C 28 %
1306 14-04-2020 01:32:16 2.1 C 30 %
1307 14-04-2020 01:42:16 1.9 C 33 %
1308 14-04-2020 01:52:16 1.2 C 35 %
1309 14-04-2020 02:02:16 1.6 C 35 %
1310 14-04-2020 02:12:16 1.3 C 35 %
1311 14-04-2020 02:22:16 0.9 C 36 %
1312 14-04-2020 02:32:16 0.8 C 36 %
1313 14-04-2020 02:42:16 1.1 C 35 %
1314 14-04-2020 02:52:18 1 C 35 %
1315 14-04-2020 03:02:18 1.1 C 35 %
1316 14-04-2020 03:12:18 1.1 C 35 %
1317 14-04-2020 03:22:17 0.7 C 36 %
1318 14-04-2020 03:32:18 1.1 C 36 %
1319 14-04-2020 03:42:18 0.9 C 36 %
1320 14-04-2020 03:52:17 1 C 35 %
1321 14-04-2020 04:02:18 0.9 C 36 %
1322 14-04-2020 04:12:18 0.9 C 36 %
1323 14-04-2020 04:22:17 0.6 C 36 %
1324 14-04-2020 04:32:17 0.7 C 36 %
1325 14-04-2020 04:42:17 0.7 C 36 %
Sensor: Nr:Datum:Temp:Feuchte:
Aussen-T/F 1326 14-04-2020 04:52:18 0.6 C 36 %
1327 14-04-2020 05:02:17 0 C 37 %
1328 14-04-2020 05:12:17 0 C 38 %
1329 14-04-2020 05:22:17 0.6 C 38 %
1330 14-04-2020 05:32:17 0.6 C 39 %
1331 14-04-2020 05:42:17 0.7 C 39 %
1332 14-04-2020 05:52:17 0 C 39 %
1333 14-04-2020 06:02:17 -0.2 C 40 %
1334 14-04-2020 06:12:17 -0.7 C 41 %
1335 14-04-2020 06:22:17 -0.9 C 41 %
1336 14-04-2020 06:32:17 -0.4 C 41 %
1337 14-04-2020 06:42:17 -0.1 C 41 %
1338 14-04-2020 06:52:17 0.5 C 41 %
1339 14-04-2020 07:02:17 0.7 C 41 %
1340 14-04-2020 07:12:17 1.1 C 40 %
1341 14-04-2020 07:22:17 1.3 C 39 %
1342 14-04-2020 07:32:17 1.6 C 39 %
1343 14-04-2020 07:42:17 1.8 C 39 %
1344 14-04-2020 07:52:18 2.1 C 37 %
1345 14-04-2020 08:02:17 2.2 C 38 %
1346 14-04-2020 08:12:17 2.3 C 37 %
1347 14-04-2020 08:22:18 1.7 C 39 %
1348 14-04-2020 08:32:17 1.7 C 40 %
1349 14-04-2020 08:42:17 2.2 C 38 %
1350 14-04-2020 08:52:17 2.4 C 38 %
Sensor: Nr:Datum:Temp:Feuchte:
Aussen-T/F 1351 14-04-2020 09:02:18 3 C 37 %
1352 14-04-2020 09:12:18 3.8 C 36 %
1353 14-04-2020 09:22:17 4.7 C 34 %
1354 14-04-2020 09:32:18 5.7 C 32 %
1355 14-04-2020 09:42:18 5.3 C 31 %
1356 14-04-2020 09:52:17 6 C 31 %
1357 14-04-2020 10:02:17 6.6 C 30 %
1358 14-04-2020 10:12:17 5.8 C 30 %
1359 14-04-2020 10:22:17 5.9 C 30 %
1360 14-04-2020 10:32:17 6.7 C 30 %
1361 14-04-2020 10:42:17 7.4 C 26 %
1362 14-04-2020 10:52:18 8.4 C 23 %
1363 14-04-2020 11:02:17 8.2 C 21 %
1364 14-04-2020 11:12:17 8 C 20 %
1365 14-04-2020 11:22:17 7.9 C 20 %
1366 14-04-2020 11:32:17 8.2 C 20 %
1367 14-04-2020 11:42:17 9.1 C 20 %
1368 14-04-2020 11:52:18 8.4 C 20 %
1369 14-04-2020 12:02:17 8.5 C 20 %
1370 14-04-2020 12:12:17 8.6 C 20 %
1371 14-04-2020 12:22:17 8.9 C 20 %
1372 14-04-2020 12:32:17 8.6 C 20 %
1373 14-04-2020 12:42:17 9.8 C 20 %
1374 14-04-2020 12:52:17 10.6 C 20 %
1375 14-04-2020 13:02:18 10.2 C 20 %
Sensor: Nr:Datum:Temp:Feuchte:
Aussen-T/F 1376 14-04-2020 13:12:18 10 C 20 %
1377 14-04-2020 13:22:17 10.4 C 20 %
1378 14-04-2020 13:32:17 10.7 C 20 %
1379 14-04-2020 13:42:17 10 C 20 %
1380 14-04-2020 13:52:18 9.5 C 20 %
1381 14-04-2020 14:02:17 9.8 C 20 %
1382 14-04-2020 14:12:18 10.3 C 20 %
1383 14-04-2020 14:22:18 11.8 C 20 %
1384 14-04-2020 14:32:18 14.5 C 20 %
1385 14-04-2020 14:42:18 17.4 C 20 %
1386 14-04-2020 14:52:17 16.8 C 20 %
1387 14-04-2020 15:02:17 17.6 C 20 %
1388 14-04-2020 15:12:18 21 C 20 %
1389 14-04-2020 15:22:17 14.7 C 20 %
1390 14-04-2020 15:32:17 16.7 C 20 %
1391 14-04-2020 15:42:17 14 C 20 %
1392 14-04-2020 15:52:17 14 C 20 %
1393 14-04-2020 16:02:17 15 C 20 %
1394 14-04-2020 16:12:17 17.2 C 20 %
1395 14-04-2020 16:22:17 17.7 C 20 %
1396 14-04-2020 16:32:18 16.3 C 20 %
1397 14-04-2020 16:42:18 14 C 20 %
1398 14-04-2020 16:52:17 14.5 C 20 %
1399 14-04-2020 17:02:18 12.2 C 20 %
1400 14-04-2020 17:12:18 14.2 C 20 %
Sensor: Nr:Datum:Temp:Feuchte:
Aussen-T/F 1401 14-04-2020 17:22:17 19.2 C 20 %
1402 14-04-2020 17:32:17 16.8 C 20 %
1403 14-04-2020 17:42:18 15.5 C 20 %
1404 14-04-2020 17:52:17 16 C 20 %
1405 14-04-2020 18:02:18 13.4 C 20 %
1406 14-04-2020 18:12:18 12.4 C 20 %
1407 14-04-2020 18:22:17 12.1 C 20 %
1408 14-04-2020 18:32:18 11.9 C 20 %
1409 14-04-2020 18:42:18 11.7 C 20 %
1410 14-04-2020 18:52:17 11.3 C 20 %
1411 14-04-2020 19:02:17 11.2 C 20 %
1412 14-04-2020 19:12:18 11 C 20 %
1413 14-04-2020 19:22:18 10.6 C 20 %
1414 14-04-2020 19:32:18 10.3 C 20 %
1415 14-04-2020 19:42:18 10.1 C 20 %
1416 14-04-2020 19:52:17 9.7 C 20 %
1417 14-04-2020 20:02:17 9.3 C 20 %
1418 14-04-2020 20:12:17 8.9 C 20 %
1419 14-04-2020 20:22:17 7.7 C 20 %
1420 14-04-2020 20:32:17 7 C 23 %
1421 14-04-2020 20:42:18 6.7 C 25 %
1422 14-04-2020 20:52:17 6.8 C 25 %
1423 14-04-2020 21:02:17 6.5 C 25 %
1424 14-04-2020 21:12:17 6.3 C 25 %
1425 14-04-2020 21:22:17 6 C 26 %
Sensor: Nr:Datum:Temp:Feuchte:
Aussen-T/F 1426 14-04-2020 21:32:17 6.1 C 26 %
1427 14-04-2020 21:42:17 5.8 C 27 %
1428 14-04-2020 21:52:17 5.6 C 27 %
1429 14-04-2020 22:02:18 5.6 C 27 %
1430 14-04-2020 22:12:18 5.1 C 29 %
1431 14-04-2020 22:22:17 5.2 C 28 %
1432 14-04-2020 22:32:18 5 C 29 %
1433 14-04-2020 22:42:18 4.7 C 30 %
1434 14-04-2020 22:52:18 4.7 C 30 %
1435 14-04-2020 23:02:18 4.3 C 32 %
1436 14-04-2020 23:12:18 3.6 C 34 %
1437 14-04-2020 23:22:17 3.2 C 35 %
1438 14-04-2020 23:32:17 3 C 35 %
1439 14-04-2020 23:42:17 2.8 C 36 %
1440 14-04-2020 23:52:17 2.6 C 36 %
1441 15-04-2020 00:02:18 2.4 C 37 %
1442 15-04-2020 00:12:18 2.1 C 37 %
1443 15-04-2020 00:22:17 1.7 C 39 %
1444 15-04-2020 00:32:18 1.6 C 39 %
1445 15-04-2020 00:42:18 1.6 C 40 %
1446 15-04-2020 00:52:17 1.6 C 39 %
1447 15-04-2020 01:02:17 1.5 C 40 %
1448 15-04-2020 01:12:17 1.3 C 40 %
1449 15-04-2020 01:22:17 1.2 C 40 %
1450 15-04-2020 01:32:17 1.3 C 40 %
Sensor: Nr:Datum:Temp:Feuchte:
Aussen-T/F 1451 15-04-2020 01:42:17 1.2 C 40 %
1452 15-04-2020 01:52:17 1 C 40 %
1453 15-04-2020 02:02:17 0.8 C 41 %
1454 15-04-2020 02:12:17 0.8 C 42 %
1455 15-04-2020 02:22:17 0.8 C 42 %
1456 15-04-2020 02:32:17 0.7 C 42 %
1457 15-04-2020 02:42:17 0.6 C 42 %
1458 15-04-2020 02:52:17 0.1 C 42 %
1459 15-04-2020 03:02:17 0.2 C 43 %
1460 15-04-2020 03:12:17 0.3 C 43 %
1461 15-04-2020 03:22:17 0.2 C 43 %
1462 15-04-2020 03:32:18 0.5 C 43 %
1463 15-04-2020 03:42:18 0.1 C 43 %
1464 15-04-2020 03:52:18 0 C 43 %
1465 15-04-2020 04:02:18 0.2 C 43 %
1466 15-04-2020 04:12:18 -0.2 C 43 %
1467 15-04-2020 04:22:17 0 C 44 %
1468 15-04-2020 04:32:18 -0.2 C 43 %
1469 15-04-2020 04:42:18 -0.3 C 44 %
1470 15-04-2020 04:52:17 -0.4 C 44 %
1471 15-04-2020 05:02:18 -0.4 C 44 %
1472 15-04-2020 05:12:18 -0.3 C 44 %
1473 15-04-2020 05:22:17 -0.4 C 45 %
1474 15-04-2020 05:32:17 -0.5 C 45 %
1475 15-04-2020 05:42:17 -0.4 C 45 %
Sensor: Nr:Datum:Temp:Feuchte:
Aussen-T/F 1476 15-04-2020 05:52:17 -0.7 C 45 %
1477 15-04-2020 06:02:17 -0.7 C 45 %
1478 15-04-2020 06:12:17 -0.7 C 45 %
1479 15-04-2020 06:22:17 -0.7 C 45 %
1480 15-04-2020 06:32:17 -0.6 C 45 %
1481 15-04-2020 06:42:17 -0.7 C 45 %
1482 15-04-2020 06:52:17 -0.9 C 45 %
1483 15-04-2020 07:02:17 -0.7 C 45 %
1484 15-04-2020 07:12:17 -0.6 C 45 %
1485 15-04-2020 07:22:17 -0.5 C 45 %
1486 15-04-2020 07:32:17 -0.1 C 46 %
1487 15-04-2020 07:42:17 0.1 C 45 %
1488 15-04-2020 07:52:18 0.4 C 45 %
1489 15-04-2020 08:02:17 0.7 C 45 %
1490 15-04-2020 08:12:17 1 C 43 %
1491 15-04-2020 08:22:18 1.4 C 42 %
1492 15-04-2020 08:32:18 1.6 C 41 %
1493 15-04-2020 08:42:18 1.9 C 41 %
1494 15-04-2020 08:52:18 2.4 C 40 %
1495 15-04-2020 09:02:17 2.8 C 40 %
1496 15-04-2020 09:12:17 3 C 38 %
1497 15-04-2020 09:22:18 3.4 C 38 %
1498 15-04-2020 09:32:18 3.5 C 37 %
1499 15-04-2020 09:42:18 4.2 C 36 %
1500 15-04-2020 09:52:17 4.4 C 36 %
Sensor: Nr:Datum:Temp:Feuchte:
Aussen-T/F 1501 15-04-2020 10:02:18 4.9 C 35 %
1502 15-04-2020 10:12:18 5.4 C 35 %
1503 15-04-2020 10:22:18 6.2 C 34 %
1504 15-04-2020 10:32:18 6.9 C 33 %
1505 15-04-2020 10:42:18 7.4 C 31 %
1506 15-04-2020 10:52:18 8.1 C 30 %
1507 15-04-2020 11:02:17 8.5 C 30 %
1508 15-04-2020 11:12:17 9.2 C 29 %
1509 15-04-2020 11:22:18 9.9 C 28 %
1510 15-04-2020 11:32:17 10.4 C 26 %
1511 15-04-2020 11:42:17 11 C 22 %
1512 15-04-2020 11:52:18 11.6 C 20 %
1513 15-04-2020 12:02:17 12.3 C 20 %
1514 15-04-2020 12:12:17 12.2 C 20 %
1515 15-04-2020 12:22:18 13.3 C 20 %
1516 15-04-2020 12:32:18 13.2 C 20 %
1517 15-04-2020 12:42:18 13.3 C 20 %
1518 15-04-2020 12:52:17 13.2 C 20 %
1519 15-04-2020 13:02:17 13.4 C 20 %
1520 15-04-2020 13:12:17 13.5 C 20 %
1521 15-04-2020 13:22:18 13.4 C 20 %
1522 15-04-2020 13:32:18 14.2 C 20 %
1523 15-04-2020 13:42:18 14.4 C 20 %
1524 15-04-2020 13:52:17 14.7 C 20 %
1525 15-04-2020 14:02:17 15.2 C 20 %
Sensor: Nr:Datum:Temp:Feuchte:
Aussen-T/F 1526 15-04-2020 14:12:17 15.5 C 20 %
1527 15-04-2020 14:22:17 16.9 C 20 %
1528 15-04-2020 14:32:17 21.6 C 20 %
1529 15-04-2020 14:42:17 23.9 C 20 %
1530 15-04-2020 14:52:17 25.2 C 20 %
1531 15-04-2020 15:02:18 24.8 C 20 %
1532 15-04-2020 15:12:18 23.5 C 20 %
1533 15-04-2020 15:22:18 24.4 C 20 %
1534 15-04-2020 15:32:18 23.9 C 20 %
1535 15-04-2020 15:42:18 24.5 C 20 %
1536 15-04-2020 15:52:17 24.4 C 20 %
1537 15-04-2020 16:02:18 24.8 C 20 %
1538 15-04-2020 16:12:18 24.6 C 20 %
1539 15-04-2020 16:22:17 23.3 C 20 %
1540 15-04-2020 16:32:18 23.7 C 20 %
1541 15-04-2020 16:42:18 25.4 C 20 %
1542 15-04-2020 16:52:18 25.9 C 20 %
1543 15-04-2020 17:02:17 25.4 C 20 %
1544 15-04-2020 17:12:17 26.8 C 20 %
1545 15-04-2020 17:22:18 24.8 C 20 %
1546 15-04-2020 17:32:17 24 C 20 %
1547 15-04-2020 17:42:17 22.4 C 20 %
1548 15-04-2020 17:52:18 24.4 C 20 %
1549 15-04-2020 18:02:18 20.6 C 20 %
1550 15-04-2020 18:12:18 20.2 C 20 %
Sensor: Nr:Datum:Temp:Feuchte:
Aussen-T/F 1551 15-04-2020 18:22:18 19.7 C 20 %
1552 15-04-2020 18:32:18 19.1 C 20 %
1553 15-04-2020 18:42:18 19.4 C 20 %
1554 15-04-2020 18:52:17 19.4 C 20 %
1555 15-04-2020 19:02:17 18.8 C 20 %
1556 15-04-2020 19:12:17 18.7 C 20 %
1557 15-04-2020 19:22:17 18.2 C 20 %
1558 15-04-2020 19:32:17 18 C 20 %
1559 15-04-2020 19:42:18 17.3 C 20 %
1560 15-04-2020 19:52:17 15.3 C 20 %
1561 15-04-2020 20:02:18 14 C 20 %
1562 15-04-2020 20:12:18 13.6 C 20 %
1563 15-04-2020 20:22:18 13.4 C 20 %
1564 15-04-2020 20:32:17 13.1 C 20 %
1565 15-04-2020 20:42:18 12.7 C 20 %
1566 15-04-2020 20:52:17 12 C 20 %
1567 15-04-2020 21:02:18 12 C 20 %
1568 15-04-2020 21:12:18 11 C 20 %
1569 15-04-2020 21:22:17 11 C 20 %
1570 15-04-2020 21:32:17 10.5 C 20 %
1571 15-04-2020 21:42:17 9.4 C 25 %
1572 15-04-2020 21:52:17 9 C 26 %
1573 15-04-2020 22:02:17 8.9 C 27 %
1574 15-04-2020 22:12:17 8.6 C 28 %
1575 15-04-2020 22:22:17 8.8 C 28 %
Sensor: Nr:Datum:Temp:Feuchte:
Aussen-T/F 1576 15-04-2020 22:32:18 8.1 C 28 %
1577 15-04-2020 22:42:18 7.7 C 29 %
1578 15-04-2020 22:52:17 7.3 C 30 %
1579 15-04-2020 23:02:17 7.1 C 30 %
1580 15-04-2020 23:12:17 7.2 C 30 %
1581 15-04-2020 23:22:17 7 C 30 %
1582 15-04-2020 23:32:17 6.6 C 31 %
1583 15-04-2020 23:42:18 6.4 C 32 %
1584 15-04-2020 23:52:17 6.2 C 32 %
1585 16-04-2020 00:02:17 6.2 C 32 %
1586 16-04-2020 00:12:17 6 C 33 %
1587 16-04-2020 00:22:17 5.8 C 34 %
1588 16-04-2020 00:32:18 5.5 C 35 %
1589 16-04-2020 00:42:18 5.3 C 35 %
1590 16-04-2020 00:52:17 5.2 C 35 %
1591 16-04-2020 01:02:17 4.8 C 35 %
1592 16-04-2020 01:12:17 4.8 C 35 %
1593 16-04-2020 01:22:17 5.1 C 35 %
1594 16-04-2020 01:32:18 5.1 C 35 %
1595 16-04-2020 01:42:18 4.7 C 36 %
1596 16-04-2020 01:52:17 4.8 C 36 %
1597 16-04-2020 02:02:18 4.6 C 36 %
1598 16-04-2020 02:12:18 4.3 C 36 %
1599 16-04-2020 02:22:18 3.9 C 38 %
1600 16-04-2020 02:32:17 4.1 C 38 %
Sensor: Nr:Datum:Temp:Feuchte:
Aussen-T/F 1601 16-04-2020 02:42:17 4 C 38 %
1602 16-04-2020 02:52:17 3.7 C 39 %
1603 16-04-2020 03:02:17 3.6 C 40 %
1604 16-04-2020 03:12:17 3.6 C 39 %
1605 16-04-2020 03:22:17 3.5 C 39 %
1606 16-04-2020 03:32:17 3.3 C 39 %
1607 16-04-2020 03:42:17 3 C 40 %
1608 16-04-2020 03:52:17 2.9 C 41 %
1609 16-04-2020 04:02:17 3.2 C 40 %
1610 16-04-2020 04:12:17 3.2 C 40 %
1611 16-04-2020 04:22:17 2.7 C 41 %
1612 16-04-2020 04:32:18 2.6 C 41 %
1613 16-04-2020 04:42:18 3 C 41 %
1614 16-04-2020 04:52:17 2.6 C 42 %
1615 16-04-2020 05:02:17 2.7 C 42 %
1616 16-04-2020 05:12:17 2.7 C 42 %
1617 16-04-2020 05:22:17 2.6 C 42 %
1618 16-04-2020 05:32:17 2.3 C 42 %
1619 16-04-2020 05:42:17 2 C 42 %
1620 16-04-2020 05:52:17 2.1 C 43 %
1621 16-04-2020 06:02:18 2.4 C 43 %
1622 16-04-2020 06:12:18 2 C 42 %
1623 16-04-2020 06:22:17 1.6 C 44 %
1624 16-04-2020 06:32:17 1.4 C 44 %
1625 16-04-2020 06:42:17 1.8 C 45 %
Sensor: Nr:Datum:Temp:Feuchte:
Aussen-T/F 1626 16-04-2020 06:52:17 1.8 C 45 %
1627 16-04-2020 07:02:17 1.8 C 45 %
1628 16-04-2020 07:12:17 1.8 C 45 %
1629 16-04-2020 07:22:17 2.2 C 44 %
1630 16-04-2020 07:32:17 2.1 C 44 %
1631 16-04-2020 07:42:17 2.1 C 44 %
1632 16-04-2020 07:52:17 2.5 C 44 %
1633 16-04-2020 08:02:17 2.5 C 44 %
1634 16-04-2020 08:12:17 2.6 C 44 %
1635 16-04-2020 08:22:17 3 C 43 %
1636 16-04-2020 08:32:18 3.2 C 42 %
1637 16-04-2020 08:42:18 3.5 C 42 %
1638 16-04-2020 08:52:17 3.6 C 41 %
1639 16-04-2020 09:02:18 3.9 C 41 %
1640 16-04-2020 09:12:18 4.2 C 41 %
1641 16-04-2020 09:22:17 4.5 C 40 %
1642 16-04-2020 09:32:17 5.1 C 40 %
1643 16-04-2020 09:42:17 5.8 C 39 %
1644 16-04-2020 09:52:17 6.6 C 37 %
1645 16-04-2020 10:02:18 7 C 36 %
1646 16-04-2020 10:12:18 7.5 C 36 %
1647 16-04-2020 10:22:17 8.1 C 35 %
1648 16-04-2020 10:32:17 9.4 C 34 %
1649 16-04-2020 10:42:18 10.4 C 31 %
1650 16-04-2020 10:52:17 11.2 C 30 %
Sensor: Nr:Datum:Temp:Feuchte:
Aussen-T/F 1651 16-04-2020 11:02:18 12.2 C 29 %
1652 16-04-2020 11:12:18 14.2 C 25 %
1653 16-04-2020 11:22:17 15.5 C 20 %
1654 16-04-2020 11:32:17 16.8 C 20 %
1655 16-04-2020 11:42:17 17.6 C 20 %
1656 16-04-2020 11:52:17 18 C 20 %
1657 16-04-2020 12:02:18 18.4 C 20 %
1658 16-04-2020 12:12:18 18.7 C 20 %
1659 16-04-2020 12:22:17 19.1 C 20 %
1660 16-04-2020 12:32:18 19.3 C 20 %
1661 16-04-2020 12:42:18 19.5 C 20 %
1662 16-04-2020 12:52:17 19.6 C 20 %
1663 16-04-2020 13:02:18 20.1 C 20 %
1664 16-04-2020 13:12:18 20.5 C 20 %
1665 16-04-2020 13:22:17 20.8 C 20 %
1666 16-04-2020 13:32:18 21.1 C 20 %
1667 16-04-2020 13:42:18 21.5 C 20 %
1668 16-04-2020 13:52:17 21.7 C 20 %
1669 16-04-2020 14:02:17 22 C 20 %
1670 16-04-2020 14:12:17 22.4 C 20 %
1671 16-04-2020 14:22:17 22.8 C 20 %
1672 16-04-2020 14:32:17 26.2 C 20 %
1673 16-04-2020 14:42:17 28 C 20 %
1674 16-04-2020 14:52:17 29.6 C 20 %
1675 16-04-2020 15:02:17 29.8 C 20 %
Sensor: Nr:Datum:Temp:Feuchte:
Aussen-T/F 1676 16-04-2020 15:12:17 29.5 C 20 %
1677 16-04-2020 15:22:17 28.5 C 20 %
1678 16-04-2020 15:32:18 30.1 C 20 %
1679 16-04-2020 15:42:18 25.8 C 20 %
1680 16-04-2020 15:52:17 27.1 C 20 %
1681 16-04-2020 16:02:17 29.5 C 20 %
1682 16-04-2020 16:12:17 28.4 C 20 %
1683 16-04-2020 16:22:17 26.5 C 20 %
1684 16-04-2020 16:32:17 26.6 C 20 %
1685 16-04-2020 16:42:18 27.2 C 20 %
1686 16-04-2020 16:52:17 24.9 C 20 %
1687 16-04-2020 17:02:17 25 C 20 %
1688 16-04-2020 17:12:17 26.1 C 20 %
1689 16-04-2020 17:22:18 28.3 C 20 %
1690 16-04-2020 17:32:17 27.6 C 20 %
1691 16-04-2020 17:42:17 27.3 C 20 %
1692 16-04-2020 17:52:17 26.5 C 20 %
1693 16-04-2020 18:02:17 25.6 C 20 %
1694 16-04-2020 18:12:17 24.3 C 20 %
1695 16-04-2020 18:22:17 24.4 C 20 %
1696 16-04-2020 18:32:17 24.2 C 20 %
1697 16-04-2020 18:42:17 23.9 C 20 %
1698 16-04-2020 18:52:17 24 C 20 %
1699 16-04-2020 19:02:17 23.2 C 20 %
1700 16-04-2020 19:12:17 22.9 C 20 %
Sensor: Nr:Datum:Temp:Feuchte:
Aussen-T/F 1701 16-04-2020 19:22:17 22.2 C 20 %
1702 16-04-2020 19:32:18 21.9 C 20 %
1703 16-04-2020 19:42:18 21.2 C 20 %
1704 16-04-2020 19:52:17 20.5 C 20 %
1705 16-04-2020 20:02:17 19.5 C 20 %
1706 16-04-2020 20:12:17 19.2 C 20 %
1707 16-04-2020 20:22:17 19.3 C 20 %
1708 16-04-2020 20:32:18 19.1 C 20 %
1709 16-04-2020 20:42:18 18.9 C 20 %
1710 16-04-2020 20:52:18 18.5 C 20 %
1711 16-04-2020 21:02:17 17.9 C 20 %
1712 16-04-2020 21:12:17 16.5 C 20 %
1713 16-04-2020 21:22:17 16.1 C 20 %
1714 16-04-2020 21:32:18 15.5 C 20 %
1715 16-04-2020 21:42:18 14.7 C 21 %
1716 16-04-2020 21:52:17 14.4 C 22 %
1717 16-04-2020 22:02:17 14.5 C 22 %
1718 16-04-2020 22:12:17 13.5 C 25 %
1719 16-04-2020 22:22:17 14.1 C 25 %
1720 16-04-2020 22:32:17 13.8 C 25 %
1721 16-04-2020 22:42:18 13.1 C 26 %
1722 16-04-2020 22:52:17 12.4 C 28 %
1723 16-04-2020 23:02:17 12.5 C 29 %
1724 16-04-2020 23:12:17 12.2 C 30 %
1725 16-04-2020 23:22:17 11.7 C 30 %
Sensor: Nr:Datum:Temp:Feuchte:
Aussen-T/F 1726 16-04-2020 23:32:18 11.6 C 31 %
1727 16-04-2020 23:42:18 11.6 C 31 %
1728 16-04-2020 23:52:17 11.8 C 31 %
1729 17-04-2020 00:02:18 11.4 C 31 %
1730 17-04-2020 00:12:18 11 C 31 %
1731 17-04-2020 00:22:17 11 C 32 %
1732 17-04-2020 00:32:17 11 C 32 %
1733 17-04-2020 00:42:17 11 C 32 %
1734 17-04-2020 00:52:18 10.4 C 33 %
1735 17-04-2020 01:02:17 10.1 C 34 %
1736 17-04-2020 01:12:18 10.1 C 34 %
1737 17-04-2020 01:22:18 9.8 C 35 %
1738 17-04-2020 01:32:18 10 C 35 %
1739 17-04-2020 01:42:18 10 C 35 %
1740 17-04-2020 01:52:17 9.5 C 36 %
1741 17-04-2020 02:02:17 9.7 C 36 %
1742 17-04-2020 02:12:17 9.6 C 36 %
1743 17-04-2020 02:22:17 9.1 C 36 %
1744 17-04-2020 02:32:17 8.9 C 37 %
1745 17-04-2020 02:42:17 8.5 C 38 %
1746 17-04-2020 02:52:17 8.1 C 38 %
1747 17-04-2020 03:02:17 7.9 C 39 %
1748 17-04-2020 03:12:18 7.9 C 40 %
1749 17-04-2020 03:22:18 7.8 C 40 %
1750 17-04-2020 03:32:17 7.8 C 40 %
Sensor: Nr:Datum:Temp:Feuchte:
Aussen-T/F 1751 17-04-2020 03:42:18 7.8 C 40 %
1752 17-04-2020 03:52:18 8.5 C 39 %
1753 17-04-2020 04:02:17 8.4 C 39 %
1754 17-04-2020 04:12:17 8.3 C 39 %
1755 17-04-2020 04:22:17 8 C 39 %
1756 17-04-2020 04:32:17 7.9 C 40 %
1757 17-04-2020 04:42:17 8 C 40 %
1758 17-04-2020 04:52:17 7.8 C 40 %
1759 17-04-2020 05:02:17 7.5 C 40 %
1760 17-04-2020 05:12:18 6.9 C 41 %
1761 17-04-2020 05:22:17 6.7 C 42 %
1762 17-04-2020 05:32:18 6.6 C 42 %
1763 17-04-2020 05:42:18 6.7 C 43 %
1764 17-04-2020 05:52:18 6.5 C 42 %
1765 17-04-2020 06:02:18 6.5 C 43 %
1766 17-04-2020 06:12:18 6.2 C 43 %
1767 17-04-2020 06:22:17 6 C 43 %
1768 17-04-2020 06:32:17 6 C 44 %
1769 17-04-2020 06:42:17 5.8 C 44 %
1770 17-04-2020 06:52:17 5.8 C 44 %
1771 17-04-2020 07:02:18 5.8 C 45 %
1772 17-04-2020 07:12:18 5.9 C 45 %
1773 17-04-2020 07:22:18 6.1 C 45 %
1774 17-04-2020 07:32:17 6.1 C 45 %
1775 17-04-2020 07:42:17 6.3 C 45 %
Sensor: Nr:Datum:Temp:Feuchte:
Aussen-T/F 1776 17-04-2020 07:52:17 6.3 C 45 %
1777 17-04-2020 08:02:17 6.5 C 45 %
1778 17-04-2020 08:12:17 6.7 C 45 %
1779 17-04-2020 08:22:17 6.9 C 45 %
1780 17-04-2020 08:32:18 7 C 44 %
1781 17-04-2020 08:42:18 7.6 C 44 %
1782 17-04-2020 08:52:17 7.9 C 44 %
1783 17-04-2020 09:02:18 8.4 C 42 %
1784 17-04-2020 09:12:18 8.6 C 42 %
1785 17-04-2020 09:22:17 8.8 C 41 %
1786 17-04-2020 09:32:17 9.3 C 41 %
1787 17-04-2020 09:42:17 9.6 C 40 %
1788 17-04-2020 09:52:18 10.3 C 39 %
1789 17-04-2020 10:02:17 10.8 C 38 %
1790 17-04-2020 10:12:17 11 C 37 %
1791 17-04-2020 10:22:18 11.8 C 36 %
1792 17-04-2020 10:32:18 12.4 C 35 %
1793 17-04-2020 10:42:18 13 C 34 %
1794 17-04-2020 10:52:17 13.9 C 34 %
1795 17-04-2020 11:02:17 14.6 C 32 %
1796 17-04-2020 11:12:17 15.8 C 30 %
1797 17-04-2020 11:22:18 16.5 C 28 %
1798 17-04-2020 11:32:17 17.1 C 28 %
1799 17-04-2020 11:42:17 17.7 C 26 %
1800 17-04-2020 11:52:17 17.9 C 25 %
Sensor: Nr:Datum:Temp:Feuchte:
Aussen-T/F 1801 17-04-2020 12:02:18 18.5 C 25 %
1802 17-04-2020 12:12:18 18.7 C 24 %
1803 17-04-2020 12:22:17 19.1 C 22 %
1804 17-04-2020 12:32:17 19.7 C 20 %
1805 17-04-2020 12:42:17 19.7 C 20 %
1806 17-04-2020 12:52:17 19.7 C 20 %
1807 17-04-2020 13:02:18 20 C 20 %
1808 17-04-2020 13:12:18 20.4 C 20 %
1809 17-04-2020 13:22:17 20.6 C 20 %
1810 17-04-2020 13:32:17 20.8 C 20 %
1811 17-04-2020 13:42:17 21.1 C 20 %
1812 17-04-2020 13:52:17 21.6 C 20 %
1813 17-04-2020 14:02:18 21.8 C 20 %
1814 17-04-2020 14:12:18 22.6 C 20 %
1815 17-04-2020 14:22:17 23.2 C 20 %
1816 17-04-2020 14:32:17 25.2 C 20 %
1817 17-04-2020 14:42:17 29 C 20 %
1818 17-04-2020 14:52:17 32.1 C 20 %
1819 17-04-2020 15:02:17 30.9 C 20 %
1820 17-04-2020 15:12:17 31.4 C 20 %
1821 17-04-2020 15:22:17 29.6 C 20 %
1822 17-04-2020 15:32:17 29.2 C 20 %
1823 17-04-2020 15:42:17 29 C 20 %
1824 17-04-2020 15:52:18 25.7 C 20 %
1825 17-04-2020 16:02:17 30.3 C 20 %
Sensor: Nr:Datum:Temp:Feuchte:
Aussen-T/F 1826 17-04-2020 16:12:17 30.2 C 20 %
1827 17-04-2020 16:22:17 27.5 C 20 %
1828 17-04-2020 16:32:17 28.2 C 20 %
1829 17-04-2020 16:42:17 28.2 C 20 %
1830 17-04-2020 16:52:17 27.7 C 20 %
1831 17-04-2020 17:02:18 29.6 C 20 %
1832 17-04-2020 17:12:18 29.4 C 20 %
1833 17-04-2020 17:22:17 29.5 C 20 %
1834 17-04-2020 17:32:17 30.4 C 20 %
1835 17-04-2020 17:42:18 27.7 C 20 %
1836 17-04-2020 17:52:17 28.5 C 20 %
1837 17-04-2020 18:02:17 26.6 C 20 %
1838 17-04-2020 18:12:17 26.2 C 20 %
1839 17-04-2020 18:22:17 25.7 C 20 %
1840 17-04-2020 18:32:17 24.8 C 20 %
1841 17-04-2020 18:42:17 24.7 C 20 %
1842 17-04-2020 18:52:18 24.2 C 20 %
1843 17-04-2020 19:02:17 24.1 C 20 %
1844 17-04-2020 19:12:17 23.7 C 20 %
1845 17-04-2020 19:22:17 23 C 20 %
1846 17-04-2020 19:32:17 22.2 C 20 %
1847 17-04-2020 19:42:17 21.7 C 20 %
1848 17-04-2020 19:52:17 20.7 C 20 %
1849 17-04-2020 20:02:17 20 C 20 %
1850 17-04-2020 20:12:17 19.5 C 20 %
Sensor: Nr:Datum:Temp:Feuchte:
Aussen-T/F 1851 17-04-2020 20:22:17 18.8 C 21 %
1852 17-04-2020 20:32:17 18.4 C 21 %
1853 17-04-2020 20:42:17 18.2 C 21 %
1854 17-04-2020 20:52:17 17.7 C 23 %
1855 17-04-2020 21:02:17 17.5 C 23 %
1856 17-04-2020 21:12:17 17.7 C 24 %
1857 17-04-2020 21:22:17 17.6 C 25 %
1858 17-04-2020 21:32:18 17.8 C 24 %
1859 17-04-2020 21:42:18 17 C 25 %
1860 17-04-2020 21:52:18 16.8 C 25 %
1861 17-04-2020 22:02:17 16 C 26 %
1862 17-04-2020 22:12:17 16 C 26 %
1863 17-04-2020 22:22:17 15.8 C 26 %
1864 17-04-2020 22:32:17 15.7 C 26 %
1865 17-04-2020 22:42:17 15.1 C 27 %
1866 17-04-2020 22:52:17 14.6 C 29 %
1867 17-04-2020 23:02:17 14.7 C 30 %
1868 17-04-2020 23:12:17 14.4 C 29 %
1869 17-04-2020 23:22:18 14.1 C 30 %
1870 17-04-2020 23:32:17 14 C 30 %
1871 17-04-2020 23:42:17 13.6 C 31 %
1872 17-04-2020 23:52:17 13.5 C 31 %
1873 18-04-2020 00:02:17 13.4 C 31 %
1874 18-04-2020 00:12:17 13.1 C 32 %
1875 18-04-2020 00:22:18 12.6 C 33 %
Sensor: Nr:Datum:Temp:Feuchte:
Aussen-T/F 1876 18-04-2020 00:32:17 12.2 C 33 %
1877 18-04-2020 00:42:18 12 C 33 %
1878 18-04-2020 00:52:17 11.8 C 34 %
1879 18-04-2020 01:02:18 11.8 C 34 %
1880 18-04-2020 01:12:18 11.8 C 34 %
1881 18-04-2020 01:22:17 11.4 C 34 %
1882 18-04-2020 01:32:18 11.1 C 35 %
1883 18-04-2020 01:42:18 10.9 C 36 %
1884 18-04-2020 01:52:17 10.9 C 36 %
1885 18-04-2020 02:02:18 10.8 C 36 %
1886 18-04-2020 02:12:18 10.6 C 36 %
1887 18-04-2020 02:22:17 10.7 C 36 %
1888 18-04-2020 02:32:17 10.1 C 37 %
1889 18-04-2020 02:42:17 10 C 38 %
1890 18-04-2020 02:52:18 9.8 C 38 %
1891 18-04-2020 03:02:17 9.7 C 39 %
1892 18-04-2020 03:12:17 9.6 C 39 %
1893 18-04-2020 03:22:18 9.2 C 39 %
1894 18-04-2020 03:32:18 9 C 39 %
1895 18-04-2020 03:42:18 9 C 39 %
1896 18-04-2020 03:52:18 8.9 C 40 %
1897 18-04-2020 04:02:17 9 C 40 %
1898 18-04-2020 04:12:17 9 C 40 %
1899 18-04-2020 04:22:17 9 C 40 %
1900 18-04-2020 04:32:18 8.9 C 41 %
Sensor: Nr:Datum:Temp:Feuchte:
Aussen-T/F 1901 18-04-2020 04:42:18 8.8 C 41 %
1902 18-04-2020 04:52:17 8.6 C 41 %
1903 18-04-2020 05:02:17 8.4 C 41 %
1904 18-04-2020 05:12:17 8.5 C 41 %
1905 18-04-2020 05:22:17 8.7 C 40 %
1906 18-04-2020 05:32:17 8.6 C 41 %
1907 18-04-2020 05:42:17 8.3 C 41 %
1908 18-04-2020 05:52:18 8.6 C 41 %
1909 18-04-2020 06:02:17 8.7 C 41 %
1910 18-04-2020 06:12:17 8.6 C 41 %
1911 18-04-2020 06:22:17 8.7 C 41 %
1912 18-04-2020 06:32:17 8.3 C 41 %
1913 18-04-2020 06:42:17 8.1 C 41 %
1914 18-04-2020 06:52:17 8.2 C 41 %
1915 18-04-2020 07:02:17 8.4 C 42 %
1916 18-04-2020 07:12:17 8.7 C 42 %
1917 18-04-2020 07:22:17 9.4 C 42 %
1918 18-04-2020 07:32:17 9.6 C 41 %
1919 18-04-2020 07:42:17 9.7 C 41 %
1920 18-04-2020 07:52:17 9.7 C 41 %
1921 18-04-2020 08:02:18 9.7 C 41 %
1922 18-04-2020 08:12:18 10 C 40 %
1923 18-04-2020 08:22:17 10.1 C 40 %
1924 18-04-2020 08:32:17 10.2 C 40 %
1925 18-04-2020 08:42:18 10.6 C 40 %
Sensor: Nr:Datum:Temp:Feuchte:
Aussen-T/F 1926 18-04-2020 08:52:18 11.1 C 39 %
1927 18-04-2020 09:02:17 11.7 C 38 %
1928 18-04-2020 09:12:17 12.1 C 37 %
1929 18-04-2020 09:22:17 12.5 C 36 %
1930 18-04-2020 09:32:18 13.4 C 35 %
1931 18-04-2020 09:42:18 13.8 C 34 %
1932 18-04-2020 09:52:18 14.4 C 32 %
1933 18-04-2020 10:02:18 15 C 31 %
1934 18-04-2020 10:12:18 14.9 C 31 %
1935 18-04-2020 10:22:18 16.2 C 30 %
1936 18-04-2020 10:32:18 15.8 C 30 %
1937 18-04-2020 10:42:18 17.2 C 29 %
1938 18-04-2020 10:52:18 17.9 C 29 %
1939 18-04-2020 11:02:18 18.5 C 27 %
1940 18-04-2020 11:12:18 18.3 C 27 %
1941 18-04-2020 11:22:17 18.5 C 26 %
1942 18-04-2020 11:32:18 17.8 C 27 %
1943 18-04-2020 11:42:18 18.6 C 26 %
1944 18-04-2020 11:52:18 18.9 C 27 %
1945 18-04-2020 12:02:17 19.1 C 26 %
1946 18-04-2020 12:12:17 20 C 25 %
1947 18-04-2020 12:22:18 20.2 C 24 %
1948 18-04-2020 12:32:18 20.1 C 24 %
1949 18-04-2020 12:42:18 19.6 C 25 %
1950 18-04-2020 12:52:17 19.3 C 25 %
Sensor: Nr:Datum:Temp:Feuchte:
Aussen-T/F 1951 18-04-2020 13:02:17 20.8 C 24 %
1952 18-04-2020 13:12:17 21.8 C 21 %
1953 18-04-2020 13:22:18 21.5 C 20 %
1954 18-04-2020 13:32:18 21.8 C 20 %
1955 18-04-2020 13:42:18 22.4 C 20 %
1956 18-04-2020 13:52:18 21.6 C 20 %
1957 18-04-2020 14:02:18 21.2 C 20 %
1958 18-04-2020 14:12:18 21.7 C 20 %
1959 18-04-2020 14:22:18 22.4 C 20 %
1960 18-04-2020 14:32:17 22.4 C 20 %
1961 18-04-2020 14:42:17 22.8 C 20 %
1962 18-04-2020 14:52:17 22.6 C 20 %
1963 18-04-2020 15:02:17 25.4 C 20 %
1964 18-04-2020 15:12:18 30.4 C 20 %
1965 18-04-2020 15:22:17 28.2 C 20 %
1966 18-04-2020 15:32:17 23.8 C 20 %
1967 18-04-2020 15:42:17 23.2 C 20 %
1968 18-04-2020 15:52:17 22.2 C 20 %
1969 18-04-2020 16:02:18 21.8 C 20 %
1970 18-04-2020 16:12:18 21.8 C 20 %
1971 18-04-2020 16:22:18 20.6 C 20 %
1972 18-04-2020 16:32:17 19.7 C 25 %
1973 18-04-2020 16:42:17 20 C 25 %
1974 18-04-2020 16:52:17 19.9 C 25 %
1975 18-04-2020 17:02:17 19.1 C 26 %
Sensor: Nr:Datum:Temp:Feuchte:
Aussen-T/F 1976 18-04-2020 17:12:17 18.9 C 27 %
1977 18-04-2020 17:22:17 18.7 C 28 %
1978 18-04-2020 17:32:18 17.6 C 33 %
1979 18-04-2020 17:42:18 17.5 C 33 %
1980 18-04-2020 17:52:18 17.4 C 33 %
1981 18-04-2020 18:02:18 17.3 C 34 %
1982 18-04-2020 18:12:18 17.1 C 34 %
1983 18-04-2020 18:22:17 17.3 C 33 %
1984 18-04-2020 18:32:18 17.7 C 31 %
1985 18-04-2020 18:42:18 17.7 C 31 %
1986 18-04-2020 18:52:17 17.9 C 30 %
1987 18-04-2020 19:02:18 18.1 C 30 %
1988 18-04-2020 19:12:18 17.9 C 30 %
1989 18-04-2020 19:22:17 17.6 C 30 %
1990 18-04-2020 19:32:17 17.8 C 30 %
1991 18-04-2020 19:42:17 18.1 C 29 %
1992 18-04-2020 19:52:18 17.7 C 30 %
1993 18-04-2020 20:02:17 17.3 C 30 %
1994 18-04-2020 20:12:17 16.5 C 30 %
1995 18-04-2020 20:22:17 15.9 C 31 %
1996 18-04-2020 20:32:17 15 C 32 %
1997 18-04-2020 20:42:17 14.8 C 34 %
1998 18-04-2020 20:52:17 14.5 C 34 %
1999 18-04-2020 21:02:18 14.5 C 35 %
2000 18-04-2020 21:12:18 14.9 C 34 %
Sensor: Nr:Datum:Temp:Feuchte:
Aussen-T/F 2001 18-04-2020 21:22:17 15 C 33 %
2002 18-04-2020 21:32:17 15.1 C 33 %
2003 18-04-2020 21:42:17 15 C 33 %
2004 18-04-2020 21:52:18 14.8 C 34 %
2005 18-04-2020 22:02:17 14.4 C 34 %
2006 18-04-2020 22:12:17 14.5 C 35 %
2007 18-04-2020 22:22:17 13.7 C 35 %
2008 18-04-2020 22:32:18 13.4 C 36 %
2009 18-04-2020 22:42:18 12.8 C 37 %
2010 18-04-2020 22:52:17 12.8 C 37 %
2011 18-04-2020 23:02:18 12.7 C 38 %
2012 18-04-2020 23:12:18 12.3 C 38 %
2013 18-04-2020 23:22:17 12.1 C 38 %
2014 18-04-2020 23:32:17 11.7 C 40 %
2015 18-04-2020 23:42:17 11.1 C 40 %
2016 18-04-2020 23:52:17 10.9 C 42 %
2017 19-04-2020 00:02:18 10.6 C 43 %
2018 19-04-2020 00:12:18 10.7 C 43 %
2019 19-04-2020 00:22:17 10.2 C 43 %
2020 19-04-2020 00:32:17 10.2 C 43 %
2021 19-04-2020 00:42:17 10.1 C 44 %
2022 19-04-2020 00:52:17 9.8 C 44 %
2023 19-04-2020 01:02:17 9.8 C 45 %
2024 19-04-2020 01:12:17 9.9 C 45 %
2025 19-04-2020 01:22:17 9.6 C 44 %
Sensor: Nr:Datum:Temp:Feuchte:
Aussen-T/F 2026 19-04-2020 01:32:17 9.6 C 45 %
2027 19-04-2020 01:42:17 9.9 C 45 %
2028 19-04-2020 01:52:17 9.5 C 45 %
2029 19-04-2020 02:02:17 9.5 C 45 %
2030 19-04-2020 02:12:18 9.6 C 45 %
2031 19-04-2020 02:22:17 9.7 C 45 %
2032 19-04-2020 02:32:17 10 C 45 %
2033 19-04-2020 02:42:17 10 C 44 %
2034 19-04-2020 02:52:17 9.8 C 45 %
2035 19-04-2020 03:02:17 9.6 C 45 %
2036 19-04-2020 03:12:17 9.3 C 44 %
2037 19-04-2020 03:22:17 9.1 C 45 %
2038 19-04-2020 03:32:17 8.9 C 45 %
2039 19-04-2020 03:42:17 8.7 C 45 %
2040 19-04-2020 03:52:17 8.7 C 45 %
2041 19-04-2020 04:02:17 8.5 C 45 %
2042 19-04-2020 04:12:17 9.2 C 45 %
2043 19-04-2020 04:22:17 9.2 C 45 %
2044 19-04-2020 04:32:17 9.4 C 45 %
2045 19-04-2020 04:42:17 9.6 C 45 %
2046 19-04-2020 04:52:17 9.6 C 45 %
2047 19-04-2020 05:02:17 9.7 C 45 %
2048 19-04-2020 05:12:17 9.6 C 45 %
2049 19-04-2020 05:22:18 9.6 C 45 %
2050 19-04-2020 05:32:17 9.7 C 45 %
Sensor: Nr:Datum:Temp:Feuchte:
Aussen-T/F 2051 19-04-2020 05:42:17 9.7 C 45 %
2052 19-04-2020 05:52:17 9.8 C 45 %
2053 19-04-2020 06:02:17 9.9 C 45 %
2054 19-04-2020 06:12:17 10.1 C 44 %
2055 19-04-2020 06:22:17 10.1 C 44 %
2056 19-04-2020 06:32:17 10.2 C 44 %
2057 19-04-2020 06:42:17 10.2 C 44 %
2058 19-04-2020 06:52:18 10.3 C 44 %
2059 19-04-2020 07:02:18 10.3 C 44 %
2060 19-04-2020 07:12:18 10.4 C 44 %
2061 19-04-2020 07:22:17 10.6 C 44 %
2062 19-04-2020 07:32:18 10.5 C 43 %
2063 19-04-2020 07:42:18 10.6 C 43 %
2064 19-04-2020 07:52:17 10.6 C 43 %
2065 19-04-2020 08:02:17 10.7 C 43 %
2066 19-04-2020 08:12:17 11.3 C 42 %
2067 19-04-2020 08:22:17 11.5 C 41 %
2068 19-04-2020 08:32:17 12 C 40 %
2069 19-04-2020 08:42:17 12.4 C 39 %
2070 19-04-2020 08:52:17 13.2 C 37 %
2071 19-04-2020 09:02:17 12.5 C 38 %
2072 19-04-2020 09:12:18 13 C 37 %
2073 19-04-2020 09:22:18 13.2 C 36 %
2074 19-04-2020 09:32:17 13.5 C 36 %
2075 19-04-2020 09:42:17 13.8 C 36 %
Sensor: Nr:Datum:Temp:Feuchte:
Aussen-T/F 2076 19-04-2020 09:52:17 13.8 C 35 %
2077 19-04-2020 10:02:17 13.7 C 35 %
2078 19-04-2020 10:12:17 14.2 C 35 %
2079 19-04-2020 10:22:17 14.7 C 34 %
2080 19-04-2020 10:32:17 15.5 C 33 %
2081 19-04-2020 10:42:17 16.4 C 31 %
2082 19-04-2020 10:52:17 16.4 C 31 %
2083 19-04-2020 11:02:17 15.7 C 32 %
2084 19-04-2020 11:12:17 14.7 C 33 %
2085 19-04-2020 11:22:17 14.7 C 33 %
2086 19-04-2020 11:32:17 14.4 C 34 %
2087 19-04-2020 11:42:17 14 C 34 %
2088 19-04-2020 11:52:17 13.8 C 35 %
2089 19-04-2020 12:02:17 14.2 C 34 %
2090 19-04-2020 12:12:17 14.7 C 34 %
2091 19-04-2020 12:22:17 16 C 31 %
2092 19-04-2020 12:32:18 16 C 31 %
2093 19-04-2020 12:42:18 16.3 C 30 %
2094 19-04-2020 12:52:17 16.9 C 30 %
2095 19-04-2020 13:02:17 17.4 C 28 %
2096 19-04-2020 13:12:17 16.9 C 29 %
2097 19-04-2020 13:22:17 17.4 C 27 %
2098 19-04-2020 13:32:17 18.8 C 26 %
2099 19-04-2020 13:42:17 19.1 C 25 %
2100 19-04-2020 13:52:17 19.3 C 25 %
Sensor: Nr:Datum:Temp:Feuchte:
Aussen-T/F 2101 19-04-2020 14:02:18 18.8 C 25 %
2102 19-04-2020 14:12:18 18.6 C 25 %
2103 19-04-2020 14:22:17 18.1 C 25 %
2104 19-04-2020 14:32:17 17.4 C 26 %
2105 19-04-2020 14:42:17 18 C 26 %
2106 19-04-2020 14:52:17 17.1 C 26 %
2107 19-04-2020 15:02:18 16.9 C 26 %
2108 19-04-2020 15:12:18 16.6 C 26 %
2109 19-04-2020 15:22:17 17 C 25 %
2110 19-04-2020 15:32:17 17.2 C 25 %
2111 19-04-2020 15:42:18 17.8 C 25 %
2112 19-04-2020 15:52:18 18.1 C 24 %
2113 19-04-2020 16:02:17 19.2 C 22 %
2114 19-04-2020 16:12:17 22.2 C 20 %
2115 19-04-2020 16:22:17 20.2 C 20 %
2116 19-04-2020 16:32:17 18.6 C 20 %
2117 19-04-2020 16:42:17 20.5 C 20 %
2118 19-04-2020 16:52:17 21.3 C 20 %
2119 19-04-2020 17:02:17 17.5 C 20 %
2120 19-04-2020 17:12:17 18.6 C 20 %
2121 19-04-2020 17:22:17 19.7 C 20 %
2122 19-04-2020 17:32:18 18.9 C 20 %
2123 19-04-2020 17:42:18 19.2 C 20 %
2124 19-04-2020 17:52:17 18.6 C 20 %
2125 19-04-2020 18:02:18 17.4 C 20 %
Sensor: Nr:Datum:Temp:Feuchte:
Aussen-T/F 2126 19-04-2020 18:12:18 17.3 C 20 %
2127 19-04-2020 18:22:17 17.3 C 20 %
2128 19-04-2020 18:32:17 17.3 C 20 %
2129 19-04-2020 18:42:17 16.8 C 20 %
2130 19-04-2020 18:52:17 16.8 C 20 %
2131 19-04-2020 19:02:17 16.8 C 20 %
2132 19-04-2020 19:12:17 16.7 C 20 %
2133 19-04-2020 19:22:17 16.3 C 20 %
2134 19-04-2020 19:32:18 16 C 20 %
2135 19-04-2020 19:42:18 15.6 C 20 %
2136 19-04-2020 19:52:17 15.1 C 20 %
2137 19-04-2020 20:02:18 14.7 C 20 %
2138 19-04-2020 20:12:18 13.7 C 23 %
2139 19-04-2020 20:22:17 13.3 C 24 %
2140 19-04-2020 20:32:17 13 C 25 %
2141 19-04-2020 20:42:17 12.5 C 26 %
2142 19-04-2020 20:52:17 12.3 C 26 %
2143 19-04-2020 21:02:18 12 C 26 %
2144 19-04-2020 21:12:18 12 C 26 %
2145 19-04-2020 21:22:17 11.7 C 27 %
2146 19-04-2020 21:32:17 11.5 C 27 %
2147 19-04-2020 21:42:17 11.4 C 27 %
2148 19-04-2020 21:52:17 11 C 27 %
2149 19-04-2020 22:02:17 11.2 C 26 %
2150 19-04-2020 22:12:17 11 C 26 %
Sensor: Nr:Datum:Temp:Feuchte:
Aussen-T/F 2151 19-04-2020 22:22:17 11.1 C 26 %
2152 19-04-2020 22:32:17 10.9 C 26 %
2153 19-04-2020 22:42:17 10.3 C 26 %
2154 19-04-2020 22:52:17 10.2 C 26 %
2155 19-04-2020 23:02:18 11.1 C 25 %
2156 19-04-2020 23:12:18 10.1 C 25 %
2157 19-04-2020 23:22:18 9.7 C 27 %
2158 19-04-2020 23:32:17 10.3 C 22 %
2159 19-04-2020 23:42:17 10.3 C 25 %
2160 19-04-2020 23:52:17 10.3 C 23 %
2161 20-04-2020 00:02:17 10.1 C 25 %
2162 20-04-2020 00:12:17 9.6 C 25 %
2163 20-04-2020 00:22:17 10.1 C 21 %
2164 20-04-2020 00:32:18 9.9 C 23 %
2165 20-04-2020 00:42:18 9.6 C 25 %
2166 20-04-2020 00:52:18 9.3 C 25 %
2167 20-04-2020 01:02:17 9.8 C 23 %
2168 20-04-2020 01:12:17 9.3 C 23 %
2169 20-04-2020 01:22:17 9.1 C 21 %
2170 20-04-2020 01:32:17 9.6 C 21 %
2171 20-04-2020 01:42:17 9.1 C 21 %
2172 20-04-2020 01:52:17 8.5 C 25 %
2173 20-04-2020 02:02:18 8.1 C 26 %
2174 20-04-2020 02:12:18 7.9 C 26 %
2175 20-04-2020 02:22:17 7.5 C 27 %
Sensor: Nr:Datum:Temp:Feuchte:
Aussen-T/F 2176 20-04-2020 02:32:18 7.3 C 27 %
2177 20-04-2020 02:42:18 7.3 C 27 %
2178 20-04-2020 02:52:17 7.3 C 27 %
2179 20-04-2020 03:02:17 7 C 27 %
2180 20-04-2020 03:12:17 6.9 C 28 %
2181 20-04-2020 03:22:17 6.7 C 29 %
2182 20-04-2020 03:32:17 6.9 C 28 %
2183 20-04-2020 03:42:17 6.9 C 28 %
2184 20-04-2020 03:52:17 6.7 C 29 %
2185 20-04-2020 04:02:17 6.6 C 28 %
2186 20-04-2020 04:12:17 6.5 C 28 %
2187 20-04-2020 04:22:17 6.4 C 29 %
2188 20-04-2020 04:32:18 6.4 C 28 %
2189 20-04-2020 04:42:18 6.4 C 28 %
2190 20-04-2020 04:52:17 6.2 C 29 %
2191 20-04-2020 05:02:18 6.4 C 29 %
2192 20-04-2020 05:12:18 6.3 C 29 %
2193 20-04-2020 05:22:17 6.3 C 29 %
2194 20-04-2020 05:32:17 6.2 C 30 %
2195 20-04-2020 05:42:18 6.3 C 29 %
2196 20-04-2020 05:52:17 6.3 C 29 %
2197 20-04-2020 06:02:18 6 C 30 %
2198 20-04-2020 06:12:18 5.9 C 30 %
2199 20-04-2020 06:22:17 5.9 C 30 %
2200 20-04-2020 06:32:17 6.1 C 30 %
Sensor: Nr:Datum:Temp:Feuchte:
Aussen-T/F 2201 20-04-2020 06:42:17 6.1 C 30 %
2202 20-04-2020 06:52:17 5.9 C 30 %
2203 20-04-2020 07:02:17 6.1 C 30 %
2204 20-04-2020 07:12:17 6.2 C 30 %
2205 20-04-2020 07:22:17 6.2 C 30 %
2206 20-04-2020 07:32:17 6.4 C 30 %
2207 20-04-2020 07:42:17 7.2 C 27 %
2208 20-04-2020 07:52:17 7.4 C 27 %
2209 20-04-2020 08:02:18 7.3 C 27 %
2210 20-04-2020 08:12:18 7.9 C 26 %
2211 20-04-2020 08:22:17 7.8 C 27 %
2212 20-04-2020 08:32:17 7.7 C 28 %
2213 20-04-2020 08:42:18 7.9 C 26 %
2214 20-04-2020 08:52:18 8.1 C 26 %
2215 20-04-2020 09:02:17 8.3 C 26 %
2216 20-04-2020 09:12:17 8.2 C 27 %
2217 20-04-2020 09:22:17 8.4 C 27 %
2218 20-04-2020 09:32:17 9 C 25 %
2219 20-04-2020 09:42:17 9.4 C 25 %
2220 20-04-2020 09:52:18 9.4 C 26 %
2221 20-04-2020 10:02:18 9.9 C 26 %
2222 20-04-2020 10:12:18 10.7 C 22 %
2223 20-04-2020 10:22:17 11.4 C 20 %
2224 20-04-2020 10:32:17 12.1 C 20 %
2225 20-04-2020 10:42:18 12.7 C 20 %
Sensor: Nr:Datum:Temp:Feuchte:
Aussen-T/F 2226 20-04-2020 10:52:17 13.1 C 20 %
2227 20-04-2020 11:02:18 13.7 C 20 %
2228 20-04-2020 11:12:18 14 C 20 %
2229 20-04-2020 11:22:17 14.4 C 20 %
2230 20-04-2020 11:32:17 14.7 C 20 %
2231 20-04-2020 11:42:18 14.8 C 20 %
2232 20-04-2020 11:52:17 15 C 20 %
2233 20-04-2020 12:02:17 15.2 C 20 %
2234 20-04-2020 12:12:17 15 C 20 %
2235 20-04-2020 12:22:17 15 C 20 %
2236 20-04-2020 12:32:17 15.1 C 20 %
2237 20-04-2020 12:42:17 15.1 C 20 %
2238 20-04-2020 12:52:17 15.4 C 20 %
2239 20-04-2020 13:02:17 15.4 C 20 %
2240 20-04-2020 13:12:17 16 C 20 %
2241 20-04-2020 13:22:17 15.8 C 20 %
2242 20-04-2020 13:32:17 16.1 C 20 %
2243 20-04-2020 13:42:17 16.1 C 20 %
2244 20-04-2020 13:52:17 16.8 C 20 %
2245 20-04-2020 14:02:17 16.9 C 20 %
2246 20-04-2020 14:12:17 17.3 C 20 %
2247 20-04-2020 14:22:17 18.3 C 20 %
2248 20-04-2020 14:32:18 21 C 20 %
2249 20-04-2020 14:42:18 23 C 20 %
2250 20-04-2020 14:52:18 23.2 C 20 %
Sensor: Nr:Datum:Temp:Feuchte:
Aussen-T/F 2251 20-04-2020 15:02:17 22.9 C 20 %
2252 20-04-2020 15:12:17 21.8 C 20 %
2253 20-04-2020 15:22:17 22.9 C 20 %
2254 20-04-2020 15:32:17 23.3 C 20 %
2255 20-04-2020 15:42:17 24.7 C 20 %
2256 20-04-2020 15:52:17 22.5 C 20 %
2257 20-04-2020 16:02:17 24.5 C 20 %
2258 20-04-2020 16:12:17 22.7 C 20 %
2259 20-04-2020 16:22:17 23 C 20 %
2260 20-04-2020 16:32:17 23.5 C 20 %
2261 20-04-2020 16:42:17 23.6 C 20 %
2262 20-04-2020 16:52:17 23.4 C 20 %
2263 20-04-2020 17:02:17 23.7 C 20 %
2264 20-04-2020 17:12:17 22.3 C 20 %
2265 20-04-2020 17:22:17 21.6 C 20 %
2266 20-04-2020 17:32:17 20.4 C 20 %
2267 20-04-2020 17:42:17 22.4 C 20 %
2268 20-04-2020 17:52:17 20.9 C 20 %
2269 20-04-2020 18:02:18 19.1 C 20 %
2270 20-04-2020 18:12:18 19 C 20 %
2271 20-04-2020 18:22:18 18.5 C 20 %
2272 20-04-2020 18:32:17 18.4 C 20 %
2273 20-04-2020 18:42:18 18.2 C 20 %
2274 20-04-2020 18:52:18 18.3 C 20 %
2275 20-04-2020 19:02:17 17.8 C 20 %
Sensor: Nr:Datum:Temp:Feuchte:
Aussen-T/F 2276 20-04-2020 19:12:17 17.6 C 20 %
2277 20-04-2020 19:22:17 17.2 C 20 %
2278 20-04-2020 19:32:17 17 C 20 %
2279 20-04-2020 19:42:17 16.6 C 20 %
2280 20-04-2020 19:52:17 16.3 C 20 %
2281 20-04-2020 20:02:17 16 C 20 %
2282 20-04-2020 20:12:17 15.6 C 20 %
2283 20-04-2020 20:22:17 15 C 20 %
2284 20-04-2020 20:32:17 14.4 C 20 %
2285 20-04-2020 20:42:17 14.5 C 20 %
2286 20-04-2020 20:52:17 13.8 C 20 %
2287 20-04-2020 21:02:17 13.7 C 20 %
2288 20-04-2020 21:12:17 12.9 C 20 %
2289 20-04-2020 21:22:17 12.6 C 20 %
2290 20-04-2020 21:32:17 12 C 20 %
2291 20-04-2020 21:42:17 12.2 C 20 %
2292 20-04-2020 21:52:17 12.6 C 20 %
2293 20-04-2020 22:02:17 11.8 C 20 %
2294 20-04-2020 22:12:17 11.9 C 20 %
2295 20-04-2020 22:22:17 12.1 C 20 %
2296 20-04-2020 22:32:17 12.2 C 20 %
2297 20-04-2020 22:42:17 11.9 C 20 %
2298 20-04-2020 22:52:18 11.5 C 20 %
2299 20-04-2020 23:02:17 11.5 C 20 %
2300 20-04-2020 23:12:17 11.6 C 20 %
Sensor: Nr:Datum:Temp:Feuchte:
Aussen-T/F 2301 20-04-2020 23:22:17 11 C 20 %
2302 20-04-2020 23:32:18 11.6 C 20 %
2303 20-04-2020 23:42:18 11 C 20 %
2304 20-04-2020 23:52:17 11 C 20 %
2305 21-04-2020 00:02:17 10.9 C 20 %
2306 21-04-2020 00:12:17 10.3 C 20 %
2307 21-04-2020 00:22:17 10.4 C 20 %
2308 21-04-2020 00:32:17 9.9 C 20 %
2309 21-04-2020 00:42:17 10.5 C 20 %
2310 21-04-2020 00:52:17 10 C 20 %
2311 21-04-2020 01:02:18 9.4 C 20 %
2312 21-04-2020 01:12:18 8.9 C 20 %
2313 21-04-2020 01:22:18 9 C 20 %
2314 21-04-2020 01:32:18 8.9 C 20 %
2315 21-04-2020 01:42:18 9.2 C 20 %
2316 21-04-2020 01:52:17 8.4 C 20 %
2317 21-04-2020 02:02:17 9.2 C 20 %
2318 21-04-2020 02:12:18 9.1 C 20 %
2319 21-04-2020 02:22:17 9.1 C 20 %
2320 21-04-2020 02:32:18 8.9 C 20 %
2321 21-04-2020 02:42:18 9.2 C 20 %
2322 21-04-2020 02:52:17 9 C 20 %
2323 21-04-2020 03:02:17 9.3 C 20 %
2324 21-04-2020 03:12:17 9.1 C 20 %
2325 21-04-2020 03:22:18 9.2 C 20 %
Sensor: Nr:Datum:Temp:Feuchte:
Aussen-T/F 2326 21-04-2020 03:32:17 9.1 C 20 %
2327 21-04-2020 03:42:17 8.3 C 20 %
2328 21-04-2020 03:52:18 8.6 C 20 %
2329 21-04-2020 04:02:18 8.1 C 20 %
2330 21-04-2020 04:12:18 7.4 C 23 %
2331 21-04-2020 04:22:17 7.8 C 20 %
2332 21-04-2020 04:32:17 7.7 C 23 %
2333 21-04-2020 04:42:17 7.5 C 25 %
2334 21-04-2020 04:52:17 7.5 C 25 %
2335 21-04-2020 05:02:17 7.1 C 25 %
2336 21-04-2020 05:12:17 7.7 C 25 %
2337 21-04-2020 05:22:17 7.3 C 25 %
2338 21-04-2020 05:32:18 7 C 25 %
2339 21-04-2020 05:42:18 6.8 C 26 %
2340 21-04-2020 05:52:17 6.5 C 27 %
2341 21-04-2020 06:02:17 6.9 C 27 %
2342 21-04-2020 06:12:17 6.6 C 27 %
2343 21-04-2020 06:22:18 6.6 C 27 %
2344 21-04-2020 06:32:18 6.3 C 28 %
2345 21-04-2020 06:42:18 6.4 C 28 %
2346 21-04-2020 06:52:17 6.3 C 29 %
2347 21-04-2020 07:02:18 6.1 C 30 %
2348 21-04-2020 07:12:18 6.2 C 29 %
2349 21-04-2020 07:22:17 6.3 C 30 %
2350 21-04-2020 07:32:17 6.5 C 30 %
Sensor: Nr:Datum:Temp:Feuchte:
Aussen-T/F 2351 21-04-2020 07:42:17 7.3 C 27 %
2352 21-04-2020 07:52:17 6.9 C 29 %
2353 21-04-2020 08:02:17 7.4 C 27 %
2354 21-04-2020 08:12:17 7.7 C 26 %
2355 21-04-2020 08:22:17 7.6 C 26 %
2356 21-04-2020 08:32:17 7.2 C 28 %
2357 21-04-2020 08:42:18 7.5 C 27 %
2358 21-04-2020 08:52:17 8.3 C 27 %
2359 21-04-2020 09:02:17 8.7 C 25 %
2360 21-04-2020 09:12:17 9.2 C 23 %
2361 21-04-2020 09:22:17 9.7 C 21 %
2362 21-04-2020 09:32:17 10.2 C 20 %
2363 21-04-2020 09:42:17 10.7 C 20 %
2364 21-04-2020 09:52:17 10.9 C 20 %
2365 21-04-2020 10:02:17 10.9 C 20 %
2366 21-04-2020 10:12:17 11.7 C 20 %
2367 21-04-2020 10:22:17 12.2 C 20 %
2368 21-04-2020 10:32:17 12.8 C 20 %
2369 21-04-2020 10:42:17 13.2 C 20 %
2370 21-04-2020 10:52:17 13.5 C 20 %
2371 21-04-2020 11:02:17 13.9 C 20 %
2372 21-04-2020 11:12:17 14.6 C 20 %
2373 21-04-2020 11:22:17 14.6 C 20 %
2374 21-04-2020 11:32:18 14.7 C 20 %
2375 21-04-2020 11:42:18 15.2 C 20 %
Sensor: Nr:Datum:Temp:Feuchte:
Aussen-T/F 2376 21-04-2020 11:52:18 15.7 C 20 %
2377 21-04-2020 12:02:17 16.4 C 20 %
2378 21-04-2020 12:12:18 16.1 C 20 %
2379 21-04-2020 12:22:17 16.1 C 20 %
2380 21-04-2020 12:32:17 16.2 C 20 %
2381 21-04-2020 12:42:17 16.4 C 20 %
2382 21-04-2020 12:52:17 16.6 C 20 %
2383 21-04-2020 13:02:17 16.9 C 20 %
2384 21-04-2020 13:12:17 17.4 C 20 %
2385 21-04-2020 13:22:17 17.2 C 20 %
2386 21-04-2020 13:32:17 17.3 C 20 %
2387 21-04-2020 13:42:17 17.9 C 20 %
2388 21-04-2020 13:52:17 18.1 C 20 %
2389 21-04-2020 14:02:17 18.5 C 20 %
2390 21-04-2020 14:12:17 19 C 20 %
2391 21-04-2020 14:22:17 19.4 C 20 %
2392 21-04-2020 14:32:17 22 C 20 %
2393 21-04-2020 14:42:17 24.4 C 20 %
2394 21-04-2020 14:52:17 24.2 C 20 %
2395 21-04-2020 15:02:17 24.5 C 20 %
2396 21-04-2020 15:12:17 22.2 C 20 %
2397 21-04-2020 15:22:17 23.7 C 20 %
2398 21-04-2020 15:32:18 23.2 C 20 %
2399 21-04-2020 15:42:18 24 C 20 %
2400 21-04-2020 15:52:17 23.4 C 20 %
Sensor: Nr:Datum:Temp:Feuchte:
Aussen-T/F 2401 21-04-2020 16:02:18 22.8 C 20 %
2402 21-04-2020 16:12:18 23.2 C 20 %
2403 21-04-2020 16:22:17 22.9 C 20 %
2404 21-04-2020 16:32:17 23.2 C 20 %
2405 21-04-2020 16:42:17 24.3 C 20 %
2406 21-04-2020 16:52:17 22.8 C 20 %
2407 21-04-2020 17:02:17 23.6 C 20 %
2408 21-04-2020 17:12:17 24.8 C 20 %
2409 21-04-2020 17:22:18 22.8 C 20 %
2410 21-04-2020 17:32:17 21.9 C 20 %
2411 21-04-2020 17:42:17 22.3 C 20 %
2412 21-04-2020 17:52:17 22.9 C 20 %
2413 21-04-2020 18:02:18 21.1 C 20 %
2414 21-04-2020 18:12:18 20.9 C 20 %
2415 21-04-2020 18:22:17 20.5 C 20 %
2416 21-04-2020 18:32:17 20.3 C 20 %
2417 21-04-2020 18:42:17 20 C 20 %
2418 21-04-2020 18:52:18 20 C 20 %
2419 21-04-2020 19:02:17 19.6 C 20 %
2420 21-04-2020 19:12:17 19.4 C 20 %
2421 21-04-2020 19:22:17 19.1 C 20 %
2422 21-04-2020 19:32:18 18.9 C 20 %
2423 21-04-2020 19:42:18 18.7 C 20 %
2424 21-04-2020 19:52:17 18.3 C 20 %
2425 21-04-2020 20:02:17 17.9 C 20 %
Sensor: Nr:Datum:Temp:Feuchte:
Aussen-T/F 2426 21-04-2020 20:12:17 17.4 C 20 %
2427 21-04-2020 20:22:17 16.7 C 20 %
2428 21-04-2020 20:32:17 16.2 C 20 %
2429 21-04-2020 20:42:17 15.5 C 20 %
2430 21-04-2020 20:52:17 14.8 C 20 %
2431 21-04-2020 21:02:18 14.2 C 20 %
2432 21-04-2020 21:12:18 14.5 C 20 %
2433 21-04-2020 21:22:17 14.1 C 20 %
2434 21-04-2020 21:32:17 13.9 C 20 %
2435 21-04-2020 21:42:17 13.2 C 20 %
2436 21-04-2020 21:52:18 12.9 C 20 %
2437 21-04-2020 22:02:17 13.2 C 20 %
2438 21-04-2020 22:12:17 13 C 20 %
2439 21-04-2020 22:22:17 13.4 C 20 %
2440 21-04-2020 22:32:17 12.6 C 20 %
2441 21-04-2020 22:42:17 12 C 20 %
2442 21-04-2020 22:52:18 11.8 C 20 %
2443 21-04-2020 23:02:18 12.1 C 20 %
2444 21-04-2020 23:12:18 11.8 C 20 %
2445 21-04-2020 23:22:17 11.5 C 20 %
2446 21-04-2020 23:32:18 11.3 C 20 %
2447 21-04-2020 23:42:18 11.3 C 20 %
2448 21-04-2020 23:52:18 11.1 C 20 %
2449 22-04-2020 00:02:18 11.1 C 20 %
2450 22-04-2020 00:12:18 10.6 C 20 %
Sensor: Nr:Datum:Temp:Feuchte:
Aussen-T/F 2451 22-04-2020 00:22:17 11.1 C 20 %
2452 22-04-2020 00:32:18 11.4 C 20 %
2453 22-04-2020 00:42:18 10.9 C 20 %
2454 22-04-2020 00:52:17 11 C 20 %
2455 22-04-2020 01:02:17 10.8 C 20 %
2456 22-04-2020 01:12:17 10 C 21 %
2457 22-04-2020 01:22:17 9.9 C 25 %
2458 22-04-2020 01:32:18 9.7 C 25 %
2459 22-04-2020 01:42:18 10.2 C 21 %
2460 22-04-2020 01:52:17 9.9 C 23 %
2461 22-04-2020 02:02:17 9.9 C 23 %
2462 22-04-2020 02:12:17 9.8 C 25 %
2463 22-04-2020 02:22:17 9.5 C 25 %
2464 22-04-2020 02:32:17 9.3 C 25 %
2465 22-04-2020 02:42:17 9.7 C 25 %
2466 22-04-2020 02:52:17 9.3 C 25 %
2467 22-04-2020 03:02:17 9.5 C 25 %
2468 22-04-2020 03:12:17 9 C 25 %
2469 22-04-2020 03:22:18 8.8 C 26 %
2470 22-04-2020 03:32:18 8.5 C 27 %
2471 22-04-2020 03:42:18 8.4 C 27 %
2472 22-04-2020 03:52:17 8.3 C 27 %
2473 22-04-2020 04:02:18 8.4 C 27 %
2474 22-04-2020 04:12:18 8.3 C 27 %
2475 22-04-2020 04:22:17 8 C 27 %
Sensor: Nr:Datum:Temp:Feuchte:
Aussen-T/F 2476 22-04-2020 04:32:18 7.9 C 27 %
2477 22-04-2020 04:42:18 7.9 C 27 %
2478 22-04-2020 04:52:17 7.4 C 28 %
2479 22-04-2020 05:02:18 7.5 C 28 %
2480 22-04-2020 05:12:18 7.3 C 28 %
2481 22-04-2020 05:22:17 7.1 C 29 %
2482 22-04-2020 05:32:17 7.1 C 29 %
2483 22-04-2020 05:42:18 6.9 C 30 %
2484 22-04-2020 05:52:17 6.7 C 30 %
2485 22-04-2020 06:02:18 6.7 C 30 %
2486 22-04-2020 06:12:18 6.1 C 31 %
2487 22-04-2020 06:22:17 5.8 C 32 %
2488 22-04-2020 06:32:17 5.6 C 33 %
2489 22-04-2020 06:42:17 5.3 C 35 %
2490 22-04-2020 06:52:17 5.6 C 35 %
2491 22-04-2020 07:02:17 5.6 C 35 %
2492 22-04-2020 07:12:17 5.4 C 35 %
2493 22-04-2020 07:22:18 5.9 C 35 %
2494 22-04-2020 07:32:17 5.5 C 35 %
2495 22-04-2020 07:42:17 5.7 C 35 %
2496 22-04-2020 07:52:17 5.9 C 35 %
2497 22-04-2020 08:02:17 6.5 C 34 %
2498 22-04-2020 08:12:17 6.6 C 34 %
2499 22-04-2020 08:22:17 7 C 33 %
2500 22-04-2020 08:32:17 7.5 C 32 %
Sensor: Nr:Datum:Temp:Feuchte:
Aussen-T/F 2501 22-04-2020 08:42:17 8 C 31 %
2502 22-04-2020 08:52:18 8.9 C 30 %
2503 22-04-2020 09:02:18 9.1 C 30 %
2504 22-04-2020 09:12:18 9.1 C 30 %
2505 22-04-2020 09:22:17 10.1 C 26 %
2506 22-04-2020 09:32:17 10.7 C 26 %
2507 22-04-2020 09:42:17 10.7 C 26 %
2508 22-04-2020 09:52:17 11.3 C 24 %
2509 22-04-2020 10:02:17 11.5 C 24 %
2510 22-04-2020 10:12:17 12.5 C 20 %
2511 22-04-2020 10:22:17 13 C 20 %
2512 22-04-2020 10:32:17 13.7 C 20 %
2513 22-04-2020 10:42:17 14.2 C 20 %
2514 22-04-2020 10:52:17 14.8 C 20 %
2515 22-04-2020 11:02:17 15.4 C 20 %
2516 22-04-2020 11:12:17 15.7 C 20 %
2517 22-04-2020 11:22:17 16.2 C 20 %
2518 22-04-2020 11:32:17 16.4 C 20 %
2519 22-04-2020 11:42:17 17.1 C 20 %
2520 22-04-2020 11:52:18 17.1 C 20 %
2521 22-04-2020 12:02:18 17.9 C 20 %
2522 22-04-2020 12:12:18 17.6 C 20 %
2523 22-04-2020 12:22:17 17.7 C 20 %
2524 22-04-2020 12:32:17 17.7 C 20 %
2525 22-04-2020 12:42:17 17.7 C 20 %
Sensor: Nr:Datum:Temp:Feuchte:
Aussen-T/F 2526 22-04-2020 12:52:18 18 C 20 %
2527 22-04-2020 13:02:17 18.6 C 20 %
2528 22-04-2020 13:12:17 19.3 C 20 %
2529 22-04-2020 13:22:17 19 C 20 %
2530 22-04-2020 13:32:17 18.9 C 20 %
2531 22-04-2020 13:42:17 19.1 C 20 %
2532 22-04-2020 13:52:17 19.4 C 20 %
2533 22-04-2020 14:02:17 19.8 C 20 %
2534 22-04-2020 14:12:17 20.3 C 20 %
2535 22-04-2020 14:22:17 21.2 C 20 %
2536 22-04-2020 14:32:17 25.4 C 20 %
2537 22-04-2020 14:42:17 27.1 C 20 %
2538 22-04-2020 14:52:17 25.8 C 20 %
2539 22-04-2020 15:02:17 24.9 C 20 %
2540 22-04-2020 15:12:18 26.4 C 20 %
2541 22-04-2020 15:22:17 27.6 C 20 %
2542 22-04-2020 15:32:17 27 C 20 %
2543 22-04-2020 15:42:17 25.4 C 20 %
2544 22-04-2020 15:52:17 25.7 C 20 %
2545 22-04-2020 16:02:17 25.3 C 20 %
2546 22-04-2020 16:12:17 27.2 C 20 %
2547 22-04-2020 16:22:17 26.8 C 20 %
2548 22-04-2020 16:32:18 27.7 C 20 %
2549 22-04-2020 16:42:18 25.2 C 20 %
2550 22-04-2020 16:52:17 26.3 C 20 %
Sensor: Nr:Datum:Temp:Feuchte:
Aussen-T/F 2551 22-04-2020 17:02:17 25.2 C 20 %
2552 22-04-2020 17:12:17 24.6 C 20 %
2553 22-04-2020 17:22:17 25.1 C 20 %
2554 22-04-2020 17:32:17 25.5 C 20 %
2555 22-04-2020 17:42:17 25.6 C 20 %
2556 22-04-2020 17:52:17 25.2 C 20 %
2557 22-04-2020 18:02:17 23.1 C 20 %
2558 22-04-2020 18:12:17 22 C 20 %
2559 22-04-2020 18:22:17 22.1 C 20 %
2560 22-04-2020 18:32:17 21.9 C 20 %
2561 22-04-2020 18:42:17 21.9 C 20 %
2562 22-04-2020 18:52:17 21.6 C 20 %
2563 22-04-2020 19:02:17 21.1 C 20 %
2564 22-04-2020 19:12:17 21.2 C 20 %
2565 22-04-2020 19:22:17 20.8 C 20 %
2566 22-04-2020 19:32:18 20.4 C 20 %
2567 22-04-2020 19:42:18 20.3 C 20 %
2568 22-04-2020 19:52:17 20 C 20 %
2569 22-04-2020 20:02:18 19.4 C 20 %
2570 22-04-2020 20:12:18 18.4 C 20 %
2571 22-04-2020 20:22:17 17 C 20 %
2572 22-04-2020 20:32:17 16.3 C 20 %
2573 22-04-2020 20:42:17 16.2 C 20 %
2574 22-04-2020 20:52:17 15.9 C 20 %
2575 22-04-2020 21:02:17 15.7 C 20 %
Sensor: Nr:Datum:Temp:Feuchte:
Aussen-T/F 2576 22-04-2020 21:12:17 15 C 20 %
2577 22-04-2020 21:22:17 14.6 C 20 %
2578 22-04-2020 21:32:17 14.4 C 20 %
2579 22-04-2020 21:42:17 14.4 C 20 %
2580 22-04-2020 21:52:17 14.1 C 20 %
2581 22-04-2020 22:02:17 13.7 C 20 %
2582 22-04-2020 22:12:17 13.8 C 20 %
2583 22-04-2020 22:22:17 14.2 C 20 %
2584 22-04-2020 22:32:17 13.6 C 20 %
2585 22-04-2020 22:42:17 13.5 C 20 %
2586 22-04-2020 22:52:18 13.5 C 20 %
2587 22-04-2020 23:02:17 13.7 C 20 %
2588 22-04-2020 23:12:17 13.5 C 20 %
2589 22-04-2020 23:22:17 13.2 C 20 %
2590 22-04-2020 23:32:17 12.9 C 20 %
2591 22-04-2020 23:42:17 13.2 C 20 %
2592 22-04-2020 23:52:18 12.8 C 20 %
2593 23-04-2020 00:02:17 12.6 C 20 %
2594 23-04-2020 00:12:17 12.4 C 20 %
2595 23-04-2020 00:22:17 12.4 C 20 %
2596 23-04-2020 00:32:17 12.2 C 20 %
2597 23-04-2020 00:42:17 12.2 C 20 %
2598 23-04-2020 00:52:17 12.3 C 20 %
2599 23-04-2020 01:02:17 12.1 C 20 %
2600 23-04-2020 01:12:17 11.9 C 20 %
Sensor: Nr:Datum:Temp:Feuchte:
Aussen-T/F 2601 23-04-2020 01:22:18 11 C 20 %
2602 23-04-2020 01:32:17 12 C 20 %
2603 23-04-2020 01:42:17 10.9 C 20 %
2604 23-04-2020 01:52:17 10.5 C 22 %
2605 23-04-2020 02:02:17 9.7 C 25 %
2606 23-04-2020 02:12:17 9.7 C 26 %
2607 23-04-2020 02:22:18 9.7 C 25 %
2608 23-04-2020 02:32:17 9.8 C 26 %
2609 23-04-2020 02:42:17 9.6 C 25 %
2610 23-04-2020 02:52:17 9.3 C 26 %
2611 23-04-2020 03:02:18 9.2 C 26 %
2612 23-04-2020 03:12:18 9.2 C 26 %
2613 23-04-2020 03:22:17 9.4 C 26 %
2614 23-04-2020 03:32:17 9.4 C 26 %
2615 23-04-2020 03:42:17 9.3 C 26 %
2616 23-04-2020 03:52:17 9.1 C 26 %
2617 23-04-2020 04:02:17 8.6 C 27 %
2618 23-04-2020 04:12:17 8.1 C 29 %
2619 23-04-2020 04:22:17 7.5 C 30 %
2620 23-04-2020 04:32:17 7.2 C 32 %
2621 23-04-2020 04:42:17 7.2 C 32 %
2622 23-04-2020 04:52:17 6.9 C 33 %
2623 23-04-2020 05:02:17 6.4 C 34 %
2624 23-04-2020 05:12:17 6.2 C 34 %
2625 23-04-2020 05:22:17 5.9 C 35 %
Sensor: Nr:Datum:Temp:Feuchte:
Aussen-T/F 2626 23-04-2020 05:32:17 6 C 35 %
2627 23-04-2020 05:42:17 6 C 35 %
2628 23-04-2020 05:52:17 5.8 C 36 %
2629 23-04-2020 06:02:17 5.8 C 36 %
2630 23-04-2020 06:12:18 5.4 C 36 %
2631 23-04-2020 06:22:17 5.4 C 36 %
2632 23-04-2020 06:32:18 5.3 C 36 %
2633 23-04-2020 06:42:18 5.3 C 36 %
2634 23-04-2020 06:52:17 5.3 C 36 %
2635 23-04-2020 07:02:17 5.3 C 37 %
2636 23-04-2020 07:12:17 5.3 C 37 %
2637 23-04-2020 07:22:17 5.2 C 37 %
2638 23-04-2020 07:32:17 5.2 C 39 %
2639 23-04-2020 07:42:17 5.2 C 39 %
2640 23-04-2020 07:52:17 5.3 C 39 %
2641 23-04-2020 08:02:17 5.4 C 39 %
2642 23-04-2020 08:12:18 5.5 C 39 %
2643 23-04-2020 08:22:18 5.9 C 39 %
2644 23-04-2020 08:32:18 6.2 C 38 %
2645 23-04-2020 08:42:18 6.5 C 38 %
2646 23-04-2020 08:52:17 6.9 C 38 %
2647 23-04-2020 09:02:17 7.7 C 36 %
2648 23-04-2020 09:12:17 8.1 C 36 %
2649 23-04-2020 09:22:17 8.6 C 35 %
2650 23-04-2020 09:32:17 9.2 C 35 %
Sensor: Nr:Datum:Temp:Feuchte:
Aussen-T/F 2651 23-04-2020 09:42:17 9.7 C 34 %
2652 23-04-2020 09:52:17 9.9 C 34 %
2653 23-04-2020 10:02:18 10.5 C 33 %
2654 23-04-2020 10:12:18 11 C 32 %
2655 23-04-2020 10:22:17 11.8 C 30 %
2656 23-04-2020 10:32:17 12.7 C 28 %
2657 23-04-2020 10:42:17 13.2 C 27 %
2658 23-04-2020 10:52:17 14.8 C 22 %
2659 23-04-2020 11:02:18 16 C 20 %
2660 23-04-2020 11:12:18 16.3 C 20 %
2661 23-04-2020 11:22:17 17.2 C 20 %
2662 23-04-2020 11:32:17 17.4 C 20 %
2663 23-04-2020 11:42:17 17.7 C 20 %
2664 23-04-2020 11:52:18 17.9 C 20 %
2665 23-04-2020 12:02:17 18.9 C 20 %
2666 23-04-2020 12:12:17 18.2 C 20 %
2667 23-04-2020 12:22:17 18 C 20 %
2668 23-04-2020 12:32:18 18.5 C 20 %
2669 23-04-2020 12:42:18 18.3 C 20 %
2670 23-04-2020 12:52:17 18.4 C 20 %
2671 23-04-2020 13:02:17 19.2 C 20 %
2672 23-04-2020 13:12:17 19.5 C 20 %
2673 23-04-2020 13:22:17 19.1 C 20 %
2674 23-04-2020 13:32:17 19.2 C 20 %
2675 23-04-2020 13:42:17 19.7 C 20 %
Sensor: Nr:Datum:Temp:Feuchte:
Aussen-T/F 2676 23-04-2020 13:52:17 20.1 C 20 %
2677 23-04-2020 14:02:17 20.4 C 20 %
2678 23-04-2020 14:12:17 20.7 C 20 %
2679 23-04-2020 14:22:17 21.6 C 20 %
2680 23-04-2020 14:32:17 27.4 C 20 %
2681 23-04-2020 14:42:17 29.1 C 20 %
2682 23-04-2020 14:52:17 29 C 20 %
2683 23-04-2020 15:02:17 29.3 C 20 %
2684 23-04-2020 15:12:17 29.5 C 20 %
2685 23-04-2020 15:22:18 28.8 C 20 %
2686 23-04-2020 15:32:17 30.3 C 20 %
2687 23-04-2020 15:42:17 31.4 C 20 %
2688 23-04-2020 15:52:17 28.9 C 20 %
2689 23-04-2020 16:02:18 27.7 C 20 %
2690 23-04-2020 16:12:18 28.1 C 20 %
2691 23-04-2020 16:22:17 28.4 C 20 %
2692 23-04-2020 16:32:18 28.3 C 20 %
2693 23-04-2020 16:42:18 29 C 20 %
2694 23-04-2020 16:52:17 29.2 C 20 %
2695 23-04-2020 17:02:17 31.6 C 20 %
2696 23-04-2020 17:12:18 28.2 C 20 %
2697 23-04-2020 17:22:17 28.6 C 20 %
2698 23-04-2020 17:32:18 28.1 C 20 %
2699 23-04-2020 17:42:18 28 C 20 %
2700 23-04-2020 17:52:18 30.1 C 20 %
Sensor: Nr:Datum:Temp:Feuchte:
Aussen-T/F 2701 23-04-2020 18:02:17 27.1 C 20 %
2702 23-04-2020 18:12:17 24.5 C 20 %
2703 23-04-2020 18:22:17 23.9 C 20 %
2704 23-04-2020 18:32:17 23.6 C 20 %
2705 23-04-2020 18:42:17 23.7 C 20 %
2706 23-04-2020 18:52:17 23.2 C 20 %
2707 23-04-2020 19:02:17 22.5 C 20 %
2708 23-04-2020 19:12:17 22.4 C 20 %
2709 23-04-2020 19:22:17 22 C 20 %
2710 23-04-2020 19:32:18 21.2 C 20 %
2711 23-04-2020 19:42:18 20 C 20 %
2712 23-04-2020 19:52:17 18.6 C 20 %
2713 23-04-2020 20:02:18 18.6 C 20 %
2714 23-04-2020 20:12:18 17.9 C 20 %
2715 23-04-2020 20:22:17 17.2 C 20 %
2716 23-04-2020 20:32:18 16.5 C 20 %
2717 23-04-2020 20:42:18 15.5 C 20 %
2718 23-04-2020 20:52:18 14.3 C 20 %
2719 23-04-2020 21:02:18 14 C 20 %
2720 23-04-2020 21:12:18 14.1 C 20 %
2721 23-04-2020 21:22:17 13.5 C 20 %
2722 23-04-2020 21:32:17 13.1 C 20 %
2723 23-04-2020 21:42:17 12.9 C 20 %
2724 23-04-2020 21:52:17 12.5 C 20 %
2725 23-04-2020 22:02:17 12 C 23 %
Sensor: Nr:Datum:Temp:Feuchte:
Aussen-T/F 2726 23-04-2020 22:12:17 11.6 C 25 %
2727 23-04-2020 22:22:17 11.5 C 25 %
2728 23-04-2020 22:32:18 11 C 26 %
2729 23-04-2020 22:42:18 11.1 C 26 %
2730 23-04-2020 22:52:18 10.8 C 26 %
2731 23-04-2020 23:02:18 10.4 C 27 %
2732 23-04-2020 23:12:18 10.3 C 27 %
2733 23-04-2020 23:22:18 9.6 C 29 %
2734 23-04-2020 23:32:17 9.6 C 29 %
2735 23-04-2020 23:42:17 9.6 C 29 %
2736 23-04-2020 23:52:17 9.2 C 30 %
2737 24-04-2020 00:02:18 9.2 C 30 %
2738 24-04-2020 00:12:18 9.3 C 30 %
2739 24-04-2020 00:22:17 9.2 C 30 %
2740 24-04-2020 00:32:18 8.6 C 31 %
2741 24-04-2020 00:42:18 8.4 C 31 %
2742 24-04-2020 00:52:17 8.3 C 32 %
2743 24-04-2020 01:02:18 8.1 C 32 %
2744 24-04-2020 01:12:18 8.3 C 33 %
2745 24-04-2020 01:22:17 8.1 C 32 %
2746 24-04-2020 01:32:18 8.1 C 33 %
2747 24-04-2020 01:42:18 8.2 C 33 %
2748 24-04-2020 01:52:17 7.8 C 33 %
2749 24-04-2020 02:02:17 7.5 C 34 %
2750 24-04-2020 02:12:17 7.1 C 34 %
Sensor: Nr:Datum:Temp:Feuchte:
Aussen-T/F 2751 24-04-2020 02:22:17 7 C 35 %
2752 24-04-2020 02:32:18 7.2 C 35 %
2753 24-04-2020 02:42:18 6.8 C 36 %
2754 24-04-2020 02:52:18 7 C 35 %
2755 24-04-2020 03:02:17 7 C 35 %
2756 24-04-2020 03:12:18 6.8 C 36 %
2757 24-04-2020 03:22:17 6.2 C 36 %
2758 24-04-2020 03:32:17 6.4 C 37 %
2759 24-04-2020 03:42:17 6.3 C 37 %
2760 24-04-2020 03:52:17 6.2 C 37 %
2761 24-04-2020 04:02:17 6.2 C 37 %
2762 24-04-2020 04:12:17 6.1 C 37 %
2763 24-04-2020 04:22:17 6 C 37 %
2764 24-04-2020 04:32:17 5.9 C 38 %
2765 24-04-2020 04:42:17 6.2 C 38 %
2766 24-04-2020 04:52:17 6.3 C 38 %
2767 24-04-2020 05:02:17 6.2 C 38 %
2768 24-04-2020 05:12:17 6 C 38 %
2769 24-04-2020 05:22:17 5.9 C 39 %
2770 24-04-2020 05:32:18 6.3 C 38 %
2771 24-04-2020 05:42:18 6.2 C 38 %
2772 24-04-2020 05:52:17 6.1 C 38 %
2773 24-04-2020 06:02:17 6.1 C 38 %
2774 24-04-2020 06:12:17 5.9 C 39 %
2775 24-04-2020 06:22:18 6 C 39 %
Sensor: Nr:Datum:Temp:Feuchte:
Aussen-T/F 2776 24-04-2020 06:32:17 6 C 38 %
2777 24-04-2020 06:42:17 6 C 39 %
2778 24-04-2020 06:52:17 6.2 C 39 %
2779 24-04-2020 07:02:17 6.3 C 38 %
2780 24-04-2020 07:12:17 6.3 C 39 %
2781 24-04-2020 07:22:17 6.3 C 39 %
2782 24-04-2020 07:32:18 6.3 C 39 %
2783 24-04-2020 07:42:18 6.5 C 39 %
2784 24-04-2020 07:52:17 6.7 C 39 %
2785 24-04-2020 08:02:18 6.8 C 39 %
2786 24-04-2020 08:12:18 7.3 C 38 %
2787 24-04-2020 08:22:17 8.2 C 36 %
2788 24-04-2020 08:32:17 9 C 35 %
2789 24-04-2020 08:42:17 9.6 C 35 %
2790 24-04-2020 08:52:17 9.9 C 34 %
2791 24-04-2020 09:02:17 10.4 C 33 %
2792 24-04-2020 09:12:18 11 C 32 %
2793 24-04-2020 09:22:17 11.5 C 31 %
2794 24-04-2020 09:32:18 11.9 C 31 %
2795 24-04-2020 09:42:18 12.5 C 30 %
2796 24-04-2020 09:52:17 12.4 C 30 %
2797 24-04-2020 10:02:17 12.8 C 30 %
2798 24-04-2020 10:12:17 13.1 C 29 %
2799 24-04-2020 10:22:17 14 C 28 %
2800 24-04-2020 10:32:17 14.2 C 28 %
Sensor: Nr:Datum:Temp:Feuchte:
Aussen-T/F 2801 24-04-2020 10:42:17 14.6 C 27 %
2802 24-04-2020 10:52:17 15 C 26 %
2803 24-04-2020 11:02:17 15.6 C 26 %
2804 24-04-2020 11:12:18 15.6 C 26 %
2805 24-04-2020 11:22:17 16.5 C 25 %
2806 24-04-2020 11:32:18 16.6 C 24 %
2807 24-04-2020 11:42:18 17 C 24 %
2808 24-04-2020 11:52:17 17 C 23 %
2809 24-04-2020 12:02:17 17.9 C 23 %
2810 24-04-2020 12:12:17 18.1 C 21 %
2811 24-04-2020 12:22:17 18.2 C 21 %
2812 24-04-2020 12:32:18 18.4 C 21 %
2813 24-04-2020 12:42:18 18.9 C 20 %
2814 24-04-2020 12:52:18 19.3 C 20 %
2815 24-04-2020 13:02:17 19.6 C 20 %
2816 24-04-2020 13:12:17 20.2 C 20 %
2817 24-04-2020 13:22:17 20.5 C 20 %
2818 24-04-2020 13:32:18 20.7 C 20 %
2819 24-04-2020 13:42:18 21 C 20 %
2820 24-04-2020 13:52:17 21.3 C 20 %
2821 24-04-2020 14:02:17 21.8 C 20 %
2822 24-04-2020 14:12:17 22.2 C 20 %
2823 24-04-2020 14:22:17 23.5 C 20 %
2824 24-04-2020 14:32:17 26.8 C 20 %
2825 24-04-2020 14:42:17 28.5 C 20 %
Sensor: Nr:Datum:Temp:Feuchte:
Aussen-T/F 2826 24-04-2020 14:52:17 27.1 C 20 %
2827 24-04-2020 15:02:18 28 C 20 %
2828 24-04-2020 15:12:18 31 C 20 %
2829 24-04-2020 15:22:17 27.6 C 20 %
2830 24-04-2020 15:32:17 28.1 C 20 %
2831 24-04-2020 15:42:18 27.5 C 20 %
2832 24-04-2020 15:52:17 28.8 C 20 %
2833 24-04-2020 16:02:18 28.7 C 20 %
2834 24-04-2020 16:12:18 28.7 C 20 %
2835 24-04-2020 16:22:18 27.2 C 20 %
2836 24-04-2020 16:32:18 26.8 C 20 %
2837 24-04-2020 16:42:18 28 C 20 %
2838 24-04-2020 16:52:17 26.3 C 20 %
2839 24-04-2020 17:02:17 26 C 20 %
2840 24-04-2020 17:12:17 26.7 C 20 %
2841 24-04-2020 17:22:18 26.4 C 20 %
2842 24-04-2020 17:32:18 26.3 C 20 %
2843 24-04-2020 17:42:18 24.2 C 20 %
2844 24-04-2020 17:52:17 26 C 20 %
2845 24-04-2020 18:02:18 24.1 C 20 %
2846 24-04-2020 18:12:18 22.3 C 20 %
2847 24-04-2020 18:22:17 22.2 C 20 %
2848 24-04-2020 18:32:17 22 C 20 %
2849 24-04-2020 18:42:17 20.9 C 20 %
2850 24-04-2020 18:52:18 21 C 20 %
Sensor: Nr:Datum:Temp:Feuchte:
Aussen-T/F 2851 24-04-2020 19:02:17 20.5 C 20 %
2852 24-04-2020 19:12:17 20.3 C 20 %
2853 24-04-2020 19:23:17 20 C 20 %
2854 24-04-2020 19:32:17 19.9 C 20 %
2855 24-04-2020 19:42:18 19.6 C 20 %
2856 24-04-2020 19:53:17 19.2 C 20 %
2857 24-04-2020 20:02:18 19 C 20 %
2858 24-04-2020 20:12:18 18.5 C 20 %
2859 24-04-2020 20:22:17 17.7 C 20 %
2860 24-04-2020 20:32:18 17.3 C 20 %
2861 24-04-2020 20:42:18 16.8 C 20 %
2862 24-04-2020 20:52:18 16.1 C 20 %
2863 24-04-2020 21:02:18 15.9 C 20 %
2864 24-04-2020 21:12:18 15.5 C 20 %
2865 24-04-2020 21:23:17 15.4 C 20 %
2866 24-04-2020 21:33:17 15 C 20 %
2867 24-04-2020 21:42:17 15.1 C 20 %
2868 24-04-2020 21:52:17 14.7 C 20 %
2869 24-04-2020 22:03:17 14.4 C 20 %
2870 24-04-2020 22:13:17 14.1 C 20 %
2871 24-04-2020 22:22:18 14.2 C 20 %
2872 24-04-2020 22:32:18 14.4 C 20 %
2873 24-04-2020 22:42:18 13.9 C 20 %
2874 24-04-2020 22:52:18 13.3 C 20 %
2875 24-04-2020 23:02:18 13.2 C 20 %
Sensor: Nr:Datum:Temp:Feuchte:
Aussen-T/F 2876 24-04-2020 23:12:18 13.2 C 20 %
2877 24-04-2020 23:22:17 12.7 C 20 %
2878 24-04-2020 23:33:17 12.5 C 20 %
2879 24-04-2020 23:43:17 13 C 20 %
2880 24-04-2020 23:53:17 12.4 C 20 %
2881 25-04-2020 00:02:18 12.6 C 20 %
2882 25-04-2020 00:12:18 12.7 C 20 %
2883 25-04-2020 00:23:17 12.6 C 20 %
2884 25-04-2020 00:32:18 12.3 C 20 %
2885 25-04-2020 00:42:18 11.8 C 20 %
2886 25-04-2020 00:52:18 11.7 C 20 %
2887 25-04-2020 01:03:17 11.7 C 20 %
2888 25-04-2020 01:12:17 11.7 C 20 %
2889 25-04-2020 01:23:17 11.3 C 22 %
2890 25-04-2020 01:33:17 11 C 25 %
2891 25-04-2020 01:43:17 11.1 C 25 %
2892 25-04-2020 01:52:17 11.1 C 25 %
2893 25-04-2020 02:02:18 10.4 C 26 %
2894 25-04-2020 02:12:18 10.3 C 26 %
2895 25-04-2020 02:23:17 9.7 C 29 %
2896 25-04-2020 02:33:17 9.5 C 29 %
2897 25-04-2020 02:43:17 9.4 C 30 %
2898 25-04-2020 02:53:17 9.8 C 29 %
2899 25-04-2020 03:03:17 10.1 C 28 %
2900 25-04-2020 03:13:17 10 C 28 %
Sensor: Nr:Datum:Temp:Feuchte:
Aussen-T/F 2901 25-04-2020 03:22:18 10 C 28 %
2902 25-04-2020 03:33:17 9.7 C 30 %
2903 25-04-2020 03:43:17 9 C 30 %
2904 25-04-2020 03:53:17 9 C 30 %
2905 25-04-2020 04:02:18 9.3 C 30 %
2906 25-04-2020 04:12:18 8.9 C 30 %
2907 25-04-2020 04:23:17 8.9 C 30 %
2908 25-04-2020 04:33:18 8.7 C 31 %
2909 25-04-2020 04:42:18 8.2 C 32 %
2910 25-04-2020 04:53:17 8.3 C 33 %
2911 25-04-2020 05:03:17 8.1 C 33 %
2912 25-04-2020 05:13:18 7.5 C 35 %
2913 25-04-2020 05:23:18 7 C 36 %
2914 25-04-2020 05:32:18 7.1 C 37 %
2915 25-04-2020 05:42:18 7.2 C 38 %
2916 25-04-2020 05:53:18 7.6 C 38 %
2917 25-04-2020 06:02:18 8 C 36 %
2918 25-04-2020 06:12:18 8.2 C 36 %
2919 25-04-2020 06:23:17 8.3 C 36 %
2920 25-04-2020 06:33:17 8.3 C 36 %
2921 25-04-2020 06:43:18 8.4 C 35 %
2922 25-04-2020 06:53:17 8.3 C 35 %
2923 25-04-2020 07:03:18 8.3 C 35 %
2924 25-04-2020 07:12:18 8.4 C 35 %
2925 25-04-2020 07:23:17 8.3 C 35 %
Sensor: Nr:Datum:Temp:Feuchte:
Aussen-T/F 2926 25-04-2020 07:32:18 8.4 C 35 %
2927 25-04-2020 07:42:18 8.4 C 35 %
2928 25-04-2020 07:52:18 8.4 C 35 %
2929 25-04-2020 08:03:17 8.4 C 34 %
2930 25-04-2020 08:13:17 8.7 C 34 %
2931 25-04-2020 08:23:17 8.6 C 34 %
2932 25-04-2020 08:33:17 8.7 C 34 %
2933 25-04-2020 08:43:17 8.8 C 34 %
2934 25-04-2020 08:53:17 8.8 C 32 %
2935 25-04-2020 09:03:17 9.3 C 32 %
2936 25-04-2020 09:13:17 9.6 C 31 %
2937 25-04-2020 09:23:17 9.7 C 31 %
2938 25-04-2020 09:33:17 9.8 C 31 %
2939 25-04-2020 09:43:17 10.2 C 30 %
2940 25-04-2020 09:53:17 10.4 C 30 %
2941 25-04-2020 10:03:17 10.8 C 30 %
2942 25-04-2020 10:13:17 10.5 C 28 %
2943 25-04-2020 10:23:17 11 C 28 %
2944 25-04-2020 10:32:18 11.1 C 27 %
2945 25-04-2020 10:42:18 10.5 C 27 %
2946 25-04-2020 10:53:17 11.5 C 26 %
2947 25-04-2020 11:03:17 12.4 C 25 %
2948 25-04-2020 11:13:18 12 C 24 %
2949 25-04-2020 11:23:17 10.9 C 25 %
2950 25-04-2020 11:32:18 11.6 C 25 %
Sensor: Nr:Datum:Temp:Feuchte:
Aussen-T/F 2951 25-04-2020 11:42:18 11.2 C 25 %
2952 25-04-2020 11:53:17 11.8 C 25 %
2953 25-04-2020 12:03:18 11.2 C 25 %
2954 25-04-2020 12:13:18 11.5 C 25 %
2955 25-04-2020 12:23:18 11.7 C 25 %
2956 25-04-2020 12:33:17 11.7 C 25 %
2957 25-04-2020 12:43:18 11.4 C 25 %
2958 25-04-2020 12:53:17 12.3 C 24 %
2959 25-04-2020 13:03:17 12.4 C 22 %
2960 25-04-2020 13:13:17 12.5 C 23 %
2961 25-04-2020 13:23:17 13.2 C 21 %
2962 25-04-2020 13:33:17 13.1 C 21 %
2963 25-04-2020 13:43:17 13.2 C 21 %
2964 25-04-2020 13:53:17 13.7 C 20 %
2965 25-04-2020 14:03:17 13.8 C 20 %
2966 25-04-2020 14:13:17 14.1 C 20 %
2967 25-04-2020 14:23:17 15.8 C 20 %
2968 25-04-2020 14:33:17 21 C 20 %
2969 25-04-2020 14:43:17 22.5 C 20 %
2970 25-04-2020 14:53:17 20.7 C 20 %
2971 25-04-2020 15:03:17 23.8 C 20 %
2972 25-04-2020 15:13:17 23.8 C 20 %
2973 25-04-2020 15:23:17 23.7 C 20 %
2974 25-04-2020 15:33:18 25.7 C 20 %
2975 25-04-2020 15:43:18 25.7 C 20 %
Sensor: Nr:Datum:Temp:Feuchte:
Aussen-T/F 2976 25-04-2020 15:53:18 26.3 C 20 %
2977 25-04-2020 16:03:17 23.2 C 20 %
2978 25-04-2020 16:13:17 24.8 C 20 %
2979 25-04-2020 16:23:17 23.9 C 20 %
2980 25-04-2020 16:33:17 25.3 C 20 %
2981 25-04-2020 16:43:17 22.5 C 20 %
2982 25-04-2020 16:53:17 23.9 C 20 %
2983 25-04-2020 17:03:17 25.1 C 20 %
2984 25-04-2020 17:13:17 25.9 C 20 %
2985 25-04-2020 17:23:17 26.4 C 20 %
2986 25-04-2020 17:33:18 27.1 C 20 %
2987 25-04-2020 17:43:18 22.5 C 20 %
2988 25-04-2020 17:53:17 23.3 C 20 %
2989 25-04-2020 18:03:17 20.1 C 20 %
2990 25-04-2020 18:13:17 18.5 C 20 %
2991 25-04-2020 18:23:17 18.6 C 20 %
2992 25-04-2020 18:33:17 18.3 C 20 %
2993 25-04-2020 18:43:17 17.9 C 20 %
2994 25-04-2020 18:53:17 17.7 C 20 %
2995 25-04-2020 19:03:17 17.5 C 20 %
2996 25-04-2020 19:13:17 17.1 C 20 %
2997 25-04-2020 19:23:17 16.9 C 20 %
2998 25-04-2020 19:33:17 16.4 C 20 %
2999 25-04-2020 19:43:18 16.2 C 20 %
3000 25-04-2020 19:53:17 15.7 C 20 %
Sensor: Nr:Datum:Temp:Feuchte:
Aussen-T/F 3001 25-04-2020 20:03:18 15.4 C 20 %
3002 25-04-2020 20:13:18 14.7 C 20 %
3003 25-04-2020 20:23:17 13.9 C 20 %
3004 25-04-2020 20:33:17 13.8 C 20 %
3005 25-04-2020 20:43:17 12.7 C 20 %
3006 25-04-2020 20:53:17 12.4 C 20 %
3007 25-04-2020 21:03:18 12.1 C 20 %
3008 25-04-2020 21:13:18 12 C 20 %
3009 25-04-2020 21:23:17 11.4 C 21 %
3010 25-04-2020 21:33:17 11.1 C 22 %
3011 25-04-2020 21:43:18 11.2 C 21 %
3012 25-04-2020 21:53:17 11 C 22 %
3013 25-04-2020 22:03:17 11 C 22 %
3014 25-04-2020 22:13:17 10.9 C 23 %
3015 25-04-2020 22:23:17 10.1 C 25 %
3016 25-04-2020 22:33:17 10.1 C 25 %
3017 25-04-2020 22:43:17 9.9 C 26 %
3018 25-04-2020 22:53:18 9.8 C 27 %
3019 25-04-2020 23:03:17 9.6 C 27 %
3020 25-04-2020 23:13:17 9.5 C 27 %
3021 25-04-2020 23:23:17 9.1 C 28 %
3022 25-04-2020 23:33:18 8.7 C 30 %
3023 25-04-2020 23:43:18 8.2 C 31 %
3024 25-04-2020 23:53:17 7.7 C 32 %
3025 26-04-2020 00:03:18 7.1 C 33 %
Sensor: Nr:Datum:Temp:Feuchte:
Aussen-T/F 3026 26-04-2020 00:13:18 6.8 C 35 %
3027 26-04-2020 00:23:17 6.6 C 35 %
3028 26-04-2020 00:33:18 6.3 C 35 %
3029 26-04-2020 00:43:18 6.2 C 36 %
3030 26-04-2020 00:53:17 5.9 C 37 %
3031 26-04-2020 01:03:17 5.8 C 37 %
3032 26-04-2020 01:13:18 5.5 C 38 %
3033 26-04-2020 01:23:17 5.6 C 38 %
3034 26-04-2020 01:33:17 5.2 C 38 %
3035 26-04-2020 01:43:17 5.1 C 38 %
3036 26-04-2020 01:53:17 5.1 C 39 %
3037 26-04-2020 02:03:17 4.7 C 40 %
3038 26-04-2020 02:13:17 4.7 C 40 %
3039 26-04-2020 02:23:17 4.6 C 40 %
3040 26-04-2020 02:33:17 4.5 C 40 %
3041 26-04-2020 02:43:17 4.8 C 41 %
3042 26-04-2020 02:53:18 4.7 C 41 %
3043 26-04-2020 03:03:17 4.4 C 41 %
3044 26-04-2020 03:13:18 4.3 C 41 %
3045 26-04-2020 03:23:17 4.1 C 41 %
3046 26-04-2020 03:33:18 4 C 41 %
3047 26-04-2020 03:43:18 3.8 C 42 %
3048 26-04-2020 03:53:17 3.6 C 43 %
3049 26-04-2020 04:03:18 3.9 C 44 %
3050 26-04-2020 04:13:18 3.6 C 43 %
Sensor: Nr:Datum:Temp:Feuchte:
Aussen-T/F 3051 26-04-2020 04:23:17 3.4 C 43 %
3052 26-04-2020 04:33:17 3.2 C 43 %
3053 26-04-2020 04:43:17 3.3 C 44 %
3054 26-04-2020 04:53:17 3.1 C 44 %
3055 26-04-2020 05:03:18 3.1 C 45 %
3056 26-04-2020 05:13:18 3 C 44 %
3057 26-04-2020 05:23:17 2.7 C 45 %
3058 26-04-2020 05:33:17 2.6 C 45 %
3059 26-04-2020 05:43:17 2.7 C 46 %
3060 26-04-2020 05:53:17 2.5 C 46 %
3061 26-04-2020 06:03:17 2.3 C 46 %
3062 26-04-2020 06:13:17 2.4 C 46 %
3063 26-04-2020 06:23:17 2.4 C 46 %
3064 26-04-2020 06:33:17 2.4 C 46 %
3065 26-04-2020 06:43:18 2.3 C 46 %
3066 26-04-2020 06:53:17 2.3 C 46 %
3067 26-04-2020 07:03:17 2.3 C 46 %
3068 26-04-2020 07:13:17 2.6 C 47 %
3069 26-04-2020 07:23:17 2.7 C 47 %
3070 26-04-2020 07:33:17 2.8 C 46 %
3071 26-04-2020 07:43:17 2.8 C 46 %
3072 26-04-2020 07:53:17 2.9 C 47 %
3073 26-04-2020 08:03:17 3.2 C 46 %
3074 26-04-2020 08:13:17 3.4 C 46 %
3075 26-04-2020 08:23:17 3.6 C 46 %
Sensor: Nr:Datum:Temp:Feuchte:
Aussen-T/F 3076 26-04-2020 08:33:17 4 C 45 %
3077 26-04-2020 08:43:17 4.3 C 45 %
3078 26-04-2020 08:53:17 4.5 C 45 %
3079 26-04-2020 09:03:17 4.9 C 45 %
3080 26-04-2020 09:13:17 5.2 C 43 %
3081 26-04-2020 09:23:17 5.8 C 44 %
3082 26-04-2020 09:33:17 6.4 C 42 %
3083 26-04-2020 09:43:17 6.8 C 41 %
3084 26-04-2020 09:53:17 7.4 C 40 %
3085 26-04-2020 10:03:18 7.8 C 39 %
3086 26-04-2020 10:13:18 8.5 C 38 %
3087 26-04-2020 10:23:17 9 C 37 %
3088 26-04-2020 10:33:18 9.6 C 36 %
3089 26-04-2020 10:43:18 10.4 C 35 %
3090 26-04-2020 10:53:17 11.3 C 32 %
3091 26-04-2020 11:03:17 12.2 C 31 %
3092 26-04-2020 11:13:17 12.8 C 29 %
3093 26-04-2020 11:23:17 13.6 C 27 %
3094 26-04-2020 11:33:17 14.1 C 26 %
3095 26-04-2020 11:43:17 14.7 C 25 %
3096 26-04-2020 11:53:17 15.2 C 22 %
3097 26-04-2020 12:03:17 15.2 C 21 %
3098 26-04-2020 12:13:17 15.1 C 20 %
3099 26-04-2020 12:23:18 15.4 C 20 %
3100 26-04-2020 12:33:17 15.9 C 20 %
Sensor: Nr:Datum:Temp:Feuchte:
Aussen-T/F 3101 26-04-2020 12:43:18 15.9 C 20 %
3102 26-04-2020 12:53:17 16.2 C 20 %
3103 26-04-2020 13:03:17 16.5 C 20 %
3104 26-04-2020 13:13:17 16.8 C 20 %
3105 26-04-2020 13:23:18 16.6 C 20 %
3106 26-04-2020 13:33:17 16.8 C 20 %
3107 26-04-2020 13:43:17 17.1 C 20 %
3108 26-04-2020 13:53:17 17.1 C 20 %
3109 26-04-2020 14:03:17 17.4 C 20 %
3110 26-04-2020 14:13:17 18.1 C 20 %
3111 26-04-2020 14:23:17 19.3 C 20 %
3112 26-04-2020 14:33:18 25 C 20 %
3113 26-04-2020 14:43:18 24.8 C 20 %
3114 26-04-2020 14:53:17 26.7 C 20 %
3115 26-04-2020 15:03:18 26.6 C 20 %
3116 26-04-2020 15:13:18 28.3 C 20 %
3117 26-04-2020 15:23:17 29.7 C 20 %
3118 26-04-2020 15:33:17 29.5 C 20 %
3119 26-04-2020 15:43:17 28 C 20 %
3120 26-04-2020 15:53:18 29 C 20 %
3121 26-04-2020 16:03:18 30.5 C 20 %
3122 26-04-2020 16:13:18 27.6 C 20 %
3123 26-04-2020 16:23:17 28.4 C 20 %
3124 26-04-2020 16:33:17 26.5 C 20 %
3125 26-04-2020 16:43:17 30.3 C 20 %
Sensor: Nr:Datum:Temp:Feuchte:
Aussen-T/F 3126 26-04-2020 16:53:17 28.1 C 20 %
3127 26-04-2020 17:03:18 29 C 20 %
3128 26-04-2020 17:13:18 28.3 C 20 %
3129 26-04-2020 17:23:18 27.4 C 20 %
3130 26-04-2020 17:33:18 27.2 C 20 %
3131 26-04-2020 17:43:18 28 C 20 %
3132 26-04-2020 17:53:17 26.5 C 20 %
3133 26-04-2020 18:03:17 25.8 C 20 %
3134 26-04-2020 18:13:17 23.1 C 20 %
3135 26-04-2020 18:23:17 22 C 20 %
3136 26-04-2020 18:33:17 21.9 C 20 %
3137 26-04-2020 18:43:17 21.1 C 20 %
3138 26-04-2020 18:53:17 21.1 C 20 %
3139 26-04-2020 19:03:17 20.9 C 20 %
3140 26-04-2020 19:13:17 20.2 C 20 %
3141 26-04-2020 19:23:17 19.7 C 20 %
3142 26-04-2020 19:33:17 19.5 C 20 %
3143 26-04-2020 19:43:18 19.1 C 20 %
3144 26-04-2020 19:53:17 18.2 C 20 %
3145 26-04-2020 20:03:18 17.3 C 20 %
3146 26-04-2020 20:13:18 16.6 C 20 %
3147 26-04-2020 20:23:17 15.8 C 20 %
3148 26-04-2020 20:33:17 14.7 C 20 %
3149 26-04-2020 20:43:17 14.3 C 20 %
3150 26-04-2020 20:53:18 14 C 20 %
Sensor: Nr:Datum:Temp:Feuchte:
Aussen-T/F 3151 26-04-2020 21:03:18 13.7 C 20 %
3152 26-04-2020 21:13:18 13.1 C 20 %
3153 26-04-2020 21:23:17 12.6 C 20 %
3154 26-04-2020 21:33:18 12.4 C 20 %
3155 26-04-2020 21:43:18 12.1 C 20 %
3156 26-04-2020 21:53:17 11.6 C 23 %
3157 26-04-2020 22:03:17 11.3 C 25 %
3158 26-04-2020 22:13:17 10.9 C 26 %
3159 26-04-2020 22:23:18 10.7 C 26 %
3160 26-04-2020 22:33:17 10.5 C 26 %
3161 26-04-2020 22:43:17 9.9 C 28 %
3162 26-04-2020 22:53:17 9.6 C 29 %
3163 26-04-2020 23:03:17 9.2 C 29 %
3164 26-04-2020 23:13:17 9 C 30 %
3165 26-04-2020 23:23:17 8.9 C 30 %
3166 26-04-2020 23:33:18 8.8 C 30 %
3167 26-04-2020 23:43:18 8.7 C 30 %
3168 26-04-2020 23:53:17 8.5 C 30 %
3169 27-04-2020 00:03:18 8.3 C 30 %
3170 27-04-2020 00:13:18 8 C 31 %
3171 27-04-2020 00:23:18 7.9 C 32 %
3172 27-04-2020 00:33:17 7.6 C 32 %
3173 27-04-2020 00:43:17 7.4 C 33 %
3174 27-04-2020 00:53:17 7.2 C 33 %
3175 27-04-2020 01:03:18 7.1 C 33 %
Sensor: Nr:Datum:Temp:Feuchte:
Aussen-T/F 3176 27-04-2020 01:13:18 6.8 C 35 %
3177 27-04-2020 01:23:18 6.9 C 35 %
3178 27-04-2020 01:33:17 6.9 C 35 %
3179 27-04-2020 01:43:17 6.8 C 35 %
3180 27-04-2020 01:53:17 6.4 C 35 %
3181 27-04-2020 02:03:17 6.2 C 36 %
3182 27-04-2020 02:13:17 6 C 36 %
3183 27-04-2020 02:23:17 5.9 C 37 %
3184 27-04-2020 02:33:17 5.7 C 37 %
3185 27-04-2020 02:43:17 6 C 37 %
3186 27-04-2020 02:53:17 6 C 37 %
3187 27-04-2020 03:03:18 5.7 C 38 %
3188 27-04-2020 03:13:18 5.6 C 38 %
3189 27-04-2020 03:23:18 5.6 C 38 %
3190 27-04-2020 03:33:17 5.6 C 38 %
3191 27-04-2020 03:43:17 5.6 C 39 %
3192 27-04-2020 03:53:17 5.7 C 39 %
3193 27-04-2020 04:03:18 5 C 38 %
3194 27-04-2020 04:13:18 4.8 C 40 %
3195 27-04-2020 04:23:17 4.4 C 40 %
3196 27-04-2020 04:33:18 4.3 C 41 %
3197 27-04-2020 04:43:18 4 C 41 %
3198 27-04-2020 04:53:17 4.1 C 42 %
3199 27-04-2020 05:03:17 4 C 42 %
3200 27-04-2020 05:13:17 4.2 C 42 %
Sensor: Nr:Datum:Temp:Feuchte:
Aussen-T/F 3201 27-04-2020 05:23:17 3.7 C 43 %
3202 27-04-2020 05:33:17 3.7 C 43 %
3203 27-04-2020 05:43:17 3.4 C 43 %
3204 27-04-2020 05:53:17 3.7 C 44 %
3205 27-04-2020 06:03:18 3.5 C 44 %
3206 27-04-2020 06:13:18 3.4 C 44 %
3207 27-04-2020 06:23:17 3.6 C 45 %
3208 27-04-2020 06:33:17 3.8 C 45 %
3209 27-04-2020 06:43:17 3.8 C 44 %
3210 27-04-2020 06:53:17 3.8 C 44 %
3211 27-04-2020 07:03:17 3.8 C 44 %
3212 27-04-2020 07:13:17 3.9 C 45 %
3213 27-04-2020 07:23:17 3.9 C 45 %
3214 27-04-2020 07:33:17 4.2 C 44 %
3215 27-04-2020 07:43:17 4.5 C 43 %
3216 27-04-2020 07:53:17 4.6 C 43 %
3217 27-04-2020 08:03:17 4.9 C 42 %
3218 27-04-2020 08:13:17 4.8 C 42 %
3219 27-04-2020 08:23:17 5.1 C 42 %
3220 27-04-2020 08:33:17 5.5 C 41 %
3221 27-04-2020 08:43:17 5.7 C 41 %
3222 27-04-2020 08:53:17 6 C 41 %
3223 27-04-2020 09:03:18 6.4 C 40 %
3224 27-04-2020 09:13:18 6.6 C 40 %
3225 27-04-2020 09:23:17 7 C 40 %
Sensor: Nr:Datum:Temp:Feuchte:
Aussen-T/F 3226 27-04-2020 09:33:17 7.6 C 39 %
3227 27-04-2020 09:43:17 8.3 C 37 %
3228 27-04-2020 09:53:17 8.5 C 38 %
3229 27-04-2020 10:03:17 9.1 C 37 %
3230 27-04-2020 10:13:17 9.9 C 37 %
3231 27-04-2020 10:23:17 10.7 C 35 %
3232 27-04-2020 10:33:17 11.7 C 34 %
3233 27-04-2020 10:43:17 12.3 C 32 %
3234 27-04-2020 10:53:17 13.5 C 30 %
3235 27-04-2020 11:03:17 15.5 C 25 %
3236 27-04-2020 11:13:17 16.6 C 22 %
3237 27-04-2020 11:23:17 16.8 C 20 %
3238 27-04-2020 11:33:17 17.2 C 20 %
3239 27-04-2020 11:43:17 17.5 C 20 %
3240 27-04-2020 11:53:17 17.7 C 20 %
3241 27-04-2020 12:03:17 18.1 C 20 %
3242 27-04-2020 12:13:17 18.4 C 20 %
3243 27-04-2020 12:23:17 18.3 C 20 %
3244 27-04-2020 12:33:17 18.7 C 20 %
3245 27-04-2020 12:43:17 19 C 20 %
3246 27-04-2020 12:53:18 19.1 C 20 %
3247 27-04-2020 13:03:17 19.7 C 20 %
3248 27-04-2020 13:13:17 19.5 C 20 %
3249 27-04-2020 13:23:17 19.6 C 20 %
3250 27-04-2020 13:33:17 20.1 C 20 %
Sensor: Nr:Datum:Temp:Feuchte:
Aussen-T/F 3251 27-04-2020 13:43:17 20.2 C 20 %
3252 27-04-2020 13:53:17 20.4 C 20 %
3253 27-04-2020 14:03:18 21 C 20 %
3254 27-04-2020 14:13:18 21.4 C 20 %
3255 27-04-2020 14:23:17 25.1 C 20 %
3256 27-04-2020 14:33:18 25.5 C 20 %
3257 27-04-2020 14:43:18 28.2 C 20 %
3258 27-04-2020 14:53:17 28.9 C 20 %
3259 27-04-2020 15:03:17 30.1 C 20 %
3260 27-04-2020 15:13:17 27.6 C 20 %
3261 27-04-2020 15:23:17 26.7 C 20 %
3262 27-04-2020 15:33:17 27.5 C 20 %
3263 27-04-2020 15:43:17 27.6 C 20 %
3264 27-04-2020 15:53:17 27.9 C 20 %
3265 27-04-2020 16:03:17 26.8 C 20 %
3266 27-04-2020 16:13:17 23.7 C 20 %
3267 27-04-2020 16:23:17 23.4 C 20 %
3268 27-04-2020 16:33:17 24.1 C 20 %
3269 27-04-2020 16:43:17 23.7 C 20 %
3270 27-04-2020 16:53:17 22.7 C 20 %
3271 27-04-2020 17:03:18 22.1 C 20 %
3272 27-04-2020 17:13:18 22.1 C 20 %
3273 27-04-2020 17:23:17 21.6 C 20 %
3274 27-04-2020 17:33:17 21.7 C 20 %
3275 27-04-2020 17:43:17 21.6 C 20 %
Sensor: Nr:Datum:Temp:Feuchte:
Aussen-T/F 3276 27-04-2020 17:53:17 22.2 C 20 %
3277 27-04-2020 18:03:17 21.5 C 20 %
3278 27-04-2020 18:13:17 21.8 C 20 %
3279 27-04-2020 18:23:17 24 C 20 %
3280 27-04-2020 18:33:18 23.1 C 20 %
3281 27-04-2020 18:43:18 22.4 C 20 %
3282 27-04-2020 18:53:17 22.1 C 20 %
3283 27-04-2020 19:03:17 20.9 C 20 %
3284 27-04-2020 19:13:17 19.4 C 20 %
3285 27-04-2020 19:23:18 19.2 C 20 %
3286 27-04-2020 19:33:17 18.3 C 20 %
3287 27-04-2020 19:43:18 18.2 C 20 %
3288 27-04-2020 19:53:17 17.4 C 20 %
3289 27-04-2020 20:03:17 17.1 C 20 %
3290 27-04-2020 20:13:17 16.8 C 20 %
3291 27-04-2020 20:23:17 16.2 C 20 %
3292 27-04-2020 20:33:17 15.4 C 21 %
3293 27-04-2020 20:43:17 15.1 C 21 %
3294 27-04-2020 20:53:18 15.2 C 21 %
3295 27-04-2020 21:03:17 15 C 21 %
3296 27-04-2020 21:13:17 15 C 22 %
3297 27-04-2020 21:23:17 14.6 C 25 %
3298 27-04-2020 21:33:18 14.2 C 25 %
3299 27-04-2020 21:43:18 13.6 C 26 %
3300 27-04-2020 21:53:17 13.2 C 27 %
Sensor: Nr:Datum:Temp:Feuchte:
Aussen-T/F 3301 27-04-2020 22:03:18 13.3 C 27 %
3302 27-04-2020 22:13:18 13.3 C 27 %
3303 27-04-2020 22:23:17 13 C 28 %
3304 27-04-2020 22:33:17 12.3 C 30 %
3305 27-04-2020 22:43:17 12.1 C 30 %
3306 27-04-2020 22:53:18 12 C 30 %
3307 27-04-2020 23:03:17 12 C 30 %
3308 27-04-2020 23:13:17 12 C 30 %
3309 27-04-2020 23:23:17 11.8 C 31 %
3310 27-04-2020 23:33:17 11.4 C 32 %
3311 27-04-2020 23:43:17 11 C 32 %
3312 27-04-2020 23:53:18 10.6 C 34 %
3313 28-04-2020 00:03:17 10.5 C 35 %
3314 28-04-2020 00:13:17 10 C 35 %
3315 28-04-2020 00:23:17 10 C 35 %
3316 28-04-2020 00:33:18 9.8 C 36 %
3317 28-04-2020 00:43:18 9.8 C 36 %
3318 28-04-2020 00:53:17 9.7 C 36 %
3319 28-04-2020 01:03:18 9.5 C 36 %
3320 28-04-2020 01:13:18 9.3 C 37 %
3321 28-04-2020 01:23:17 9.1 C 37 %
3322 28-04-2020 01:33:17 9.1 C 37 %
3323 28-04-2020 01:43:18 9.2 C 37 %
3324 28-04-2020 01:53:17 8.8 C 38 %
3325 28-04-2020 02:03:18 8.7 C 39 %
Sensor: Nr:Datum:Temp:Feuchte:
Aussen-T/F 3326 28-04-2020 02:13:18 8.8 C 39 %
3327 28-04-2020 02:23:17 8.4 C 39 %
3328 28-04-2020 02:33:18 8.2 C 39 %
3329 28-04-2020 02:43:18 8.3 C 40 %
3330 28-04-2020 02:53:18 8.6 C 40 %
3331 28-04-2020 03:03:17 8.7 C 40 %
3332 28-04-2020 03:13:17 8.4 C 40 %
3333 28-04-2020 03:23:17 8.3 C 40 %
3334 28-04-2020 03:33:18 8.3 C 40 %
3335 28-04-2020 03:43:18 7.8 C 40 %
3336 28-04-2020 03:53:18 7.7 C 41 %
3337 28-04-2020 04:03:18 7.9 C 41 %
3338 28-04-2020 04:13:18 7.4 C 41 %
3339 28-04-2020 04:23:18 7.3 C 41 %
3340 28-04-2020 04:33:18 7.3 C 42 %
3341 28-04-2020 04:43:18 7.6 C 43 %
3342 28-04-2020 04:53:17 7.7 C 42 %
3343 28-04-2020 05:03:17 7.8 C 41 %
3344 28-04-2020 05:13:17 7.8 C 42 %
3345 28-04-2020 05:23:17 7.8 C 41 %
3346 28-04-2020 05:33:18 7.9 C 41 %
3347 28-04-2020 05:43:18 7.7 C 41 %
3348 28-04-2020 05:53:17 7.5 C 41 %
3349 28-04-2020 06:03:17 7.2 C 41 %
3350 28-04-2020 06:13:17 7 C 42 %
Sensor: Nr:Datum:Temp:Feuchte:
Aussen-T/F 3351 28-04-2020 06:23:17 7.3 C 43 %
3352 28-04-2020 06:33:18 7.6 C 43 %
3353 28-04-2020 06:43:18 8 C 42 %
3354 28-04-2020 06:53:17 8.3 C 41 %
3355 28-04-2020 07:03:18 8.7 C 41 %
3356 28-04-2020 07:13:18 9.1 C 40 %
3357 28-04-2020 07:23:18 9.3 C 39 %
3358 28-04-2020 07:33:17 9.5 C 39 %
3359 28-04-2020 07:43:17 9.6 C 39 %
3360 28-04-2020 07:53:17 9.4 C 39 %
3361 28-04-2020 08:03:17 9.2 C 40 %
3362 28-04-2020 08:13:17 9.5 C 41 %
3363 28-04-2020 08:23:17 9.8 C 41 %
3364 28-04-2020 08:33:17 10 C 41 %
3365 28-04-2020 08:43:17 10.1 C 41 %
3366 28-04-2020 08:53:17 10.6 C 40 %
3367 28-04-2020 09:03:17 10.7 C 40 %
3368 28-04-2020 09:13:17 11.2 C 39 %
3369 28-04-2020 09:23:17 11.7 C 39 %
3370 28-04-2020 09:33:18 11.8 C 39 %
3371 28-04-2020 09:43:18 11.8 C 38 %
3372 28-04-2020 09:53:17 12.2 C 38 %
3373 28-04-2020 10:03:17 12.8 C 38 %
3374 28-04-2020 10:13:17 12.9 C 37 %
3375 28-04-2020 10:23:18 13.3 C 36 %
Sensor: Nr:Datum:Temp:Feuchte:
Aussen-T/F 3376 28-04-2020 10:33:17 13.7 C 36 %
3377 28-04-2020 10:43:17 14 C 35 %
3378 28-04-2020 10:53:17 14.1 C 35 %
3379 28-04-2020 11:03:17 13.4 C 37 %
3380 28-04-2020 11:13:17 13.8 C 38 %
3381 28-04-2020 11:23:17 13.5 C 38 %
3382 28-04-2020 11:33:17 14.2 C 38 %
3383 28-04-2020 11:43:17 14.3 C 37 %
3384 28-04-2020 11:53:17 14.6 C 38 %
3385 28-04-2020 12:03:17 14.9 C 37 %
3386 28-04-2020 12:13:17 15 C 37 %
3387 28-04-2020 12:23:17 14.9 C 38 %
3388 28-04-2020 12:33:17 15.2 C 37 %
3389 28-04-2020 12:43:17 15 C 38 %
3390 28-04-2020 12:53:17 14.9 C 39 %
3391 28-04-2020 13:03:18 14.7 C 39 %
3392 28-04-2020 13:13:18 14.5 C 41 %
3393 28-04-2020 13:23:17 14.2 C 41 %
3394 28-04-2020 13:33:17 14.9 C 40 %
3395 28-04-2020 13:43:17 14.9 C 38 %
3396 28-04-2020 13:53:17 15.2 C 36 %
3397 28-04-2020 14:03:17 16.2 C 36 %
3398 28-04-2020 14:13:17 16.9 C 35 %
3399 28-04-2020 14:23:18 20.2 C 30 %
3400 28-04-2020 14:33:18 17.5 C 32 %
Sensor: Nr:Datum:Temp:Feuchte:
Aussen-T/F 3401 28-04-2020 14:43:18 16.5 C 34 %
3402 28-04-2020 14:53:17 17.2 C 33 %
3403 28-04-2020 15:03:17 16.4 C 34 %
3404 28-04-2020 15:13:17 15.6 C 36 %
3405 28-04-2020 15:23:17 15.6 C 36 %
3406 28-04-2020 15:33:17 18.1 C 32 %
3407 28-04-2020 15:43:17 16.5 C 33 %
3408 28-04-2020 15:53:17 17 C 32 %
3409 28-04-2020 16:03:18 17.1 C 32 %
3410 28-04-2020 16:13:18 16.7 C 32 %
3411 28-04-2020 16:23:17 16.9 C 32 %
3412 28-04-2020 16:33:17 18.5 C 30 %
3413 28-04-2020 16:43:17 20.1 C 26 %
3414 28-04-2020 16:53:17 19.4 C 27 %
3415 28-04-2020 17:03:17 17.6 C 30 %
3416 28-04-2020 17:13:17 17.4 C 30 %
3417 28-04-2020 17:23:17 17.2 C 29 %
3418 28-04-2020 17:33:17 17 C 30 %
3419 28-04-2020 17:43:17 16.8 C 30 %
3420 28-04-2020 17:53:17 17.6 C 28 %
3421 28-04-2020 18:03:17 18.2 C 27 %
3422 28-04-2020 18:13:17 17.4 C 29 %
3423 28-04-2020 18:23:17 18 C 28 %
3424 28-04-2020 18:33:18 17.6 C 28 %
3425 28-04-2020 18:43:18 17.7 C 28 %
Sensor: Nr:Datum:Temp:Feuchte:
Aussen-T/F 3426 28-04-2020 18:53:17 16.6 C 30 %
3427 28-04-2020 19:03:17 16.3 C 30 %
3428 28-04-2020 19:13:17 16.3 C 30 %
3429 28-04-2020 19:23:17 16.3 C 30 %
3430 28-04-2020 19:33:18 16.4 C 30 %
3431 28-04-2020 19:43:18 16.5 C 30 %
3432 28-04-2020 19:53:17 16.1 C 30 %
3433 28-04-2020 20:03:18 15 C 32 %
3434 28-04-2020 20:13:18 14.2 C 35 %
3435 28-04-2020 20:23:17 13.6 C 37 %
3436 28-04-2020 20:33:17 13.4 C 37 %
3437 28-04-2020 20:43:18 13.1 C 37 %
3438 28-04-2020 20:53:17 13 C 38 %
3439 28-04-2020 21:03:17 12.5 C 39 %
3440 28-04-2020 21:13:17 13.5 C 36 %
3441 28-04-2020 21:23:17 13.9 C 35 %
3442 28-04-2020 21:33:17 14.6 C 34 %
3443 28-04-2020 21:43:17 14.4 C 34 %
3444 28-04-2020 21:53:17 14.2 C 34 %
3445 28-04-2020 22:03:17 13.4 C 35 %
3446 28-04-2020 22:13:17 12.8 C 37 %
3447 28-04-2020 22:23:17 12.8 C 37 %
3448 28-04-2020 22:33:17 13 C 36 %
3449 28-04-2020 22:43:17 13.1 C 36 %
3450 28-04-2020 22:53:18 12.9 C 37 %
Sensor: Nr:Datum:Temp:Feuchte:
Aussen-T/F 3451 28-04-2020 23:03:17 12.7 C 38 %
3452 28-04-2020 23:13:18 12.7 C 38 %
3453 28-04-2020 23:23:18 12.7 C 38 %
3454 28-04-2020 23:33:18 12.7 C 38 %
3455 28-04-2020 23:43:18 12.5 C 39 %
3456 28-04-2020 23:53:18 12.2 C 39 %
3457 29-04-2020 00:03:17 12.2 C 39 %
3458 29-04-2020 00:13:17 12.2 C 39 %
3459 29-04-2020 00:23:17 12.1 C 39 %
3460 29-04-2020 00:33:18 11.8 C 40 %
3461 29-04-2020 00:43:18 11.5 C 40 %
3462 29-04-2020 00:53:18 11.5 C 40 %
3463 29-04-2020 01:03:18 11.5 C 40 %
3464 29-04-2020 01:13:18 11.6 C 40 %
3465 29-04-2020 01:23:17 11.7 C 40 %
3466 29-04-2020 01:33:17 11.6 C 42 %
3467 29-04-2020 01:43:17 11.4 C 43 %
3468 29-04-2020 01:53:17 11.4 C 44 %
3469 29-04-2020 02:03:17 11.4 C 44 %
3470 29-04-2020 02:13:17 11.4 C 41 %
3471 29-04-2020 02:23:17 12.3 C 37 %
3472 29-04-2020 02:33:18 12.6 C 37 %
3473 29-04-2020 02:43:18 12.5 C 36 %
3474 29-04-2020 02:53:17 12.1 C 36 %
3475 29-04-2020 03:03:17 12 C 36 %
Sensor: Nr:Datum:Temp:Feuchte:
Aussen-T/F 3476 29-04-2020 03:13:17 11.4 C 39 %
3477 29-04-2020 03:23:17 11.5 C 39 %
3478 29-04-2020 03:33:17 11.7 C 39 %
3479 29-04-2020 03:43:17 12 C 37 %
3480 29-04-2020 03:53:17 12.1 C 37 %
3481 29-04-2020 04:03:17 11.9 C 39 %
3482 29-04-2020 04:13:17 11.9 C 39 %
3483 29-04-2020 04:23:17 11.7 C 39 %
3484 29-04-2020 04:33:17 11.9 C 38 %
3485 29-04-2020 04:43:18 11.6 C 39 %
3486 29-04-2020 04:53:17 11.4 C 39 %
3487 29-04-2020 05:03:18 11.7 C 39 %
3488 29-04-2020 05:13:18 11.5 C 39 %
3489 29-04-2020 05:23:18 11.7 C 39 %
3490 29-04-2020 05:33:17 11.5 C 39 %
3491 29-04-2020 05:43:17 11.4 C 39 %
3492 29-04-2020 05:53:17 11.3 C 40 %
3493 29-04-2020 06:03:18 11.3 C 40 %
3494 29-04-2020 06:13:18 11.5 C 39 %
3495 29-04-2020 06:23:17 11.6 C 38 %
3496 29-04-2020 06:33:17 11.2 C 39 %
3497 29-04-2020 06:43:17 11 C 40 %
3498 29-04-2020 06:53:17 11.2 C 40 %
3499 29-04-2020 07:03:17 11.5 C 39 %
3500 29-04-2020 07:13:17 11.9 C 39 %
Sensor: Nr:Datum:Temp:Feuchte:
Aussen-T/F 3501 29-04-2020 07:23:17 12.1 C 37 %
3502 29-04-2020 07:33:17 12.3 C 37 %
3503 29-04-2020 07:43:17 12.4 C 36 %
3504 29-04-2020 07:53:17 12.7 C 36 %
3505 29-04-2020 08:03:17 12.9 C 36 %
3506 29-04-2020 08:13:17 12.9 C 36 %
3507 29-04-2020 08:23:17 12.7 C 36 %
3508 29-04-2020 08:33:17 12.6 C 36 %
3509 29-04-2020 08:43:17 12.5 C 36 %
3510 29-04-2020 08:53:17 13 C 35 %
3511 29-04-2020 09:03:17 13.1 C 35 %
3512 29-04-2020 09:13:17 13.2 C 35 %
3513 29-04-2020 09:23:17 13.5 C 34 %
3514 29-04-2020 09:33:17 13.6 C 33 %
3515 29-04-2020 09:43:17 13.9 C 32 %
3516 29-04-2020 09:53:17 14.1 C 32 %
3517 29-04-2020 10:03:17 14.5 C 31 %
3518 29-04-2020 10:13:17 14.8 C 30 %
3519 29-04-2020 10:23:17 15.1 C 29 %
3520 29-04-2020 10:33:17 14.8 C 30 %
3521 29-04-2020 10:43:17 15 C 29 %
3522 29-04-2020 10:53:17 15.5 C 28 %
3523 29-04-2020 11:03:17 16 C 28 %
3524 29-04-2020 11:13:17 16 C 28 %
3525 29-04-2020 11:23:17 16.3 C 27 %
Sensor: Nr:Datum:Temp:Feuchte:
Aussen-T/F 3526 29-04-2020 11:33:18 16.8 C 27 %
3527 29-04-2020 11:43:18 16.9 C 25 %
3528 29-04-2020 11:53:17 17.1 C 25 %
3529 29-04-2020 12:03:18 17.5 C 25 %
3530 29-04-2020 12:13:18 16.4 C 25 %
3531 29-04-2020 12:23:17 15.5 C 26 %
3532 29-04-2020 12:33:17 15.9 C 26 %
3533 29-04-2020 12:43:17 16.3 C 25 %
3534 29-04-2020 12:53:17 16.2 C 25 %
3535 29-04-2020 13:03:17 17.5 C 25 %
3536 29-04-2020 13:13:17 16.4 C 25 %
3537 29-04-2020 13:23:18 16.1 C 25 %
3538 29-04-2020 13:33:18 17.5 C 25 %
3539 29-04-2020 13:43:18 17.3 C 25 %
3540 29-04-2020 13:53:18 16.6 C 25 %
3541 29-04-2020 14:03:18 16.7 C 26 %
3542 29-04-2020 14:13:18 15.7 C 26 %
3543 29-04-2020 14:23:18 15.9 C 26 %
3544 29-04-2020 14:33:17 16.1 C 26 %
3545 29-04-2020 14:43:17 19.2 C 22 %
3546 29-04-2020 14:53:17 21.1 C 20 %
3547 29-04-2020 15:03:17 20.9 C 20 %
3548 29-04-2020 15:13:17 22.7 C 20 %
3549 29-04-2020 15:23:17 22.3 C 20 %
3550 29-04-2020 15:33:17 19.6 C 20 %
Sensor: Nr:Datum:Temp:Feuchte:
Aussen-T/F 3551 29-04-2020 15:43:17 18.7 C 20 %
3552 29-04-2020 15:53:17 19.2 C 20 %
3553 29-04-2020 16:03:17 17.4 C 22 %
3554 29-04-2020 16:13:17 17.9 C 22 %
3555 29-04-2020 16:23:17 18.4 C 20 %
3556 29-04-2020 16:33:17 17.7 C 21 %
3557 29-04-2020 16:43:17 20.2 C 20 %
3558 29-04-2020 16:53:17 18.2 C 20 %
3559 29-04-2020 17:03:17 17.4 C 22 %
3560 29-04-2020 17:13:17 16 C 25 %
3561 29-04-2020 17:23:17 19.4 C 23 %
3562 29-04-2020 17:33:17 21.1 C 20 %
3563 29-04-2020 17:43:17 21.2 C 20 %
3564 29-04-2020 17:53:17 20.2 C 20 %
3565 29-04-2020 18:03:17 21 C 20 %
3566 29-04-2020 18:13:18 17.5 C 21 %
3567 29-04-2020 18:23:17 17.4 C 21 %
3568 29-04-2020 18:33:17 17.7 C 22 %
3569 29-04-2020 18:43:17 17.9 C 22 %
3570 29-04-2020 18:53:17 17.2 C 23 %
3571 29-04-2020 19:03:18 17 C 25 %
3572 29-04-2020 19:13:18 17.5 C 24 %
3573 29-04-2020 19:23:17 17.5 C 23 %
3574 29-04-2020 19:33:17 17.1 C 23 %
3575 29-04-2020 19:43:18 16.7 C 24 %
Sensor: Nr:Datum:Temp:Feuchte:
Aussen-T/F 3576 29-04-2020 19:53:17 16.1 C 25 %
3577 29-04-2020 20:03:18 15.4 C 26 %
3578 29-04-2020 20:13:18 15 C 26 %
3579 29-04-2020 20:23:18 14.7 C 29 %
3580 29-04-2020 20:33:17 14.5 C 29 %
3581 29-04-2020 20:43:17 14.5 C 28 %
3582 29-04-2020 20:53:18 14.4 C 28 %
3583 29-04-2020 21:03:18 13.8 C 30 %
3584 29-04-2020 21:13:18 13.2 C 31 %
3585 29-04-2020 21:23:17 12.9 C 33 %
3586 29-04-2020 21:33:17 13 C 32 %
3587 29-04-2020 21:43:17 13.5 C 32 %
3588 29-04-2020 21:53:17 13.2 C 32 %
3589 29-04-2020 22:03:18 13 C 32 %
3590 29-04-2020 22:13:18 13.2 C 33 %
3591 29-04-2020 22:23:17 13.5 C 32 %
3592 29-04-2020 22:33:17 13.3 C 32 %
3593 29-04-2020 22:43:17 13.1 C 32 %
3594 29-04-2020 22:53:18 13.3 C 33 %
3595 29-04-2020 23:03:18 12.8 C 35 %
3596 29-04-2020 23:13:18 12.8 C 35 %
3597 29-04-2020 23:23:17 13 C 34 %
3598 29-04-2020 23:33:17 13.2 C 33 %
3599 29-04-2020 23:43:17 13.2 C 34 %
3600 29-04-2020 23:53:18 12.9 C 35 %
Sensor: Nr:Datum:Temp:Feuchte:
Aussen-T/F 3601 30-04-2020 00:03:17 13 C 34 %
3602 30-04-2020 00:13:17 13.2 C 34 %
3603 30-04-2020 00:23:17 13.3 C 33 %
3604 30-04-2020 00:33:17 13.2 C 33 %
3605 30-04-2020 00:43:17 13.3 C 33 %
3606 30-04-2020 00:53:17 13.1 C 33 %
3607 30-04-2020 01:03:17 13.1 C 33 %
3608 30-04-2020 01:13:17 13.2 C 33 %
3609 30-04-2020 01:23:17 13.2 C 33 %
3610 30-04-2020 01:33:17 13.4 C 33 %
3611 30-04-2020 01:43:17 13.4 C 32 %
3612 30-04-2020 01:53:17 13 C 34 %
3613 30-04-2020 02:03:17 12 C 37 %
3614 30-04-2020 02:13:17 11.8 C 39 %
3615 30-04-2020 02:23:17 11.5 C 39 %
3616 30-04-2020 02:33:17 11.8 C 38 %
3617 30-04-2020 02:43:17 11.7 C 38 %
3618 30-04-2020 02:53:17 11.8 C 37 %
3619 30-04-2020 03:03:17 11.7 C 37 %
3620 30-04-2020 03:13:17 11.2 C 38 %
3621 30-04-2020 03:23:17 10.9 C 40 %
3622 30-04-2020 03:33:17 10.9 C 40 %
3623 30-04-2020 03:43:18 11 C 40 %
3624 30-04-2020 03:53:17 11 C 40 %
3625 30-04-2020 04:03:17 10.8 C 41 %
Sensor: Nr:Datum:Temp:Feuchte:
Aussen-T/F 3626 30-04-2020 04:13:17 10.7 C 41 %
3627 30-04-2020 04:23:17 10.6 C 43 %
3628 30-04-2020 04:33:18 10.7 C 44 %
3629 30-04-2020 04:43:18 10.6 C 44 %
3630 30-04-2020 04:53:17 10.7 C 45 %
3631 30-04-2020 05:03:17 10.7 C 45 %
3632 30-04-2020 05:13:17 10.8 C 45 %
3633 30-04-2020 05:23:17 10.8 C 45 %
3634 30-04-2020 05:33:17 10.8 C 45 %
3635 30-04-2020 05:43:17 10.7 C 45 %
3636 30-04-2020 05:53:18 10.8 C 45 %
3637 30-04-2020 06:03:17 10.7 C 45 %
3638 30-04-2020 06:13:18 10.7 C 45 %
3639 30-04-2020 06:23:17 10.7 C 45 %
3640 30-04-2020 06:33:17 10.8 C 45 %
3641 30-04-2020 06:43:17 10.7 C 45 %
3642 30-04-2020 06:53:17 10.8 C 45 %
3643 30-04-2020 07:03:17 10.6 C 44 %
3644 30-04-2020 07:13:17 10.3 C 42 %
3645 30-04-2020 07:23:17 10.2 C 42 %
3646 30-04-2020 07:33:17 10.2 C 42 %
3647 30-04-2020 07:43:17 10.1 C 42 %
3648 30-04-2020 07:53:17 10 C 43 %
3649 30-04-2020 08:03:17 9.9 C 42 %
3650 30-04-2020 08:13:17 9.8 C 43 %
Sensor: Nr:Datum:Temp:Feuchte:
Aussen-T/F 3651 30-04-2020 08:23:17 10 C 43 %
3652 30-04-2020 08:33:17 11 C 39 %
3653 30-04-2020 08:43:17 10.7 C 40 %
3654 30-04-2020 08:53:17 10.9 C 40 %
3655 30-04-2020 09:03:17 11.2 C 39 %
3656 30-04-2020 09:13:17 11.8 C 37 %
3657 30-04-2020 09:23:18 12.1 C 36 %
3658 30-04-2020 09:33:17 12.5 C 36 %
3659 30-04-2020 09:43:17 12.5 C 36 %
3660 30-04-2020 09:53:17 12.7 C 36 %
3661 30-04-2020 10:03:17 13.2 C 35 %
3662 30-04-2020 10:13:17 13.9 C 35 %
3663 30-04-2020 10:23:17 14 C 33 %
3664 30-04-2020 10:33:17 13.7 C 32 %
3665 30-04-2020 10:43:17 14.4 C 31 %
3666 30-04-2020 10:53:18 14 C 31 %
3667 30-04-2020 11:03:18 14 C 30 %
3668 30-04-2020 11:13:18 14 C 30 %
3669 30-04-2020 11:23:17 14 C 31 %
3670 30-04-2020 11:33:17 14.5 C 31 %
3671 30-04-2020 11:43:17 14.2 C 30 %
3672 30-04-2020 11:53:17 14.3 C 30 %
3673 30-04-2020 12:03:18 14.5 C 30 %
3674 30-04-2020 12:13:18 14.2 C 29 %
3675 30-04-2020 12:23:17 14.6 C 29 %
Sensor: Nr:Datum:Temp:Feuchte:
Aussen-T/F 3676 30-04-2020 12:33:17 14.4 C 29 %
3677 30-04-2020 12:43:17 14.5 C 29 %
3678 30-04-2020 12:53:18 15 C 27 %
3679 30-04-2020 13:03:17 14.7 C 27 %
3680 30-04-2020 13:13:17 14.6 C 27 %
3681 30-04-2020 13:23:17 14.6 C 27 %
3682 30-04-2020 13:33:17 14.5 C 27 %
3683 30-04-2020 13:43:17 15.2 C 26 %
3684 30-04-2020 13:53:17 15.9 C 25 %
3685 30-04-2020 14:03:18 16.8 C 23 %
3686 30-04-2020 14:13:18 16.2 C 21 %
3687 30-04-2020 14:23:17 16.6 C 21 %
3688 30-04-2020 14:33:18 19.7 C 20 %
3689 30-04-2020 14:43:18 18.3 C 20 %
3690 30-04-2020 14:53:17 18.1 C 20 %
3691 30-04-2020 15:03:18 19.2 C 20 %
3692 30-04-2020 15:13:18 19.5 C 20 %
3693 30-04-2020 15:23:17 17.4 C 20 %
3694 30-04-2020 15:33:17 16.5 C 20 %
3695 30-04-2020 15:43:17 15.8 C 20 %
3696 30-04-2020 15:53:18 15.9 C 21 %
3697 30-04-2020 16:03:17 16.2 C 20 %
3698 30-04-2020 16:13:17 16.3 C 20 %
3699 30-04-2020 16:23:17 16.7 C 21 %
3700 30-04-2020 16:33:17 16.4 C 20 %
Sensor: Nr:Datum:Temp:Feuchte:
Aussen-T/F 3701 30-04-2020 16:43:18 16.3 C 21 %
3702 30-04-2020 16:53:17 15.9 C 21 %
3703 30-04-2020 17:03:17 14.8 C 25 %
3704 30-04-2020 17:13:17 12.5 C 33 %
3705 30-04-2020 17:23:18 11.8 C 37 %
3706 30-04-2020 17:33:17 11.5 C 37 %
3707 30-04-2020 17:43:17 10.7 C 40 %
3708 30-04-2020 17:53:17 10.8 C 42 %
3709 30-04-2020 18:03:17 10.6 C 41 %
3710 30-04-2020 18:13:18 10.3 C 42 %
3711 30-04-2020 18:23:17 10.2 C 42 %
3712 30-04-2020 18:33:17 10.2 C 43 %
3713 30-04-2020 18:43:17 10 C 41 %
3714 30-04-2020 18:53:17 9.9 C 41 %
3715 30-04-2020 19:03:18 9.6 C 41 %
3716 30-04-2020 19:13:18 9.5 C 41 %
3717 30-04-2020 19:23:17 10 C 40 %
3718 30-04-2020 19:33:18 10.1 C 41 %
3719 30-04-2020 19:43:18 10 C 41 %
3720 30-04-2020 19:53:17 9.9 C 44 %
3721 30-04-2020 20:03:17 9.7 C 45 %
3722 30-04-2020 20:13:17 9.6 C 45 %
3723 30-04-2020 20:23:17 9.4 C 44 %
3724 30-04-2020 20:33:18 9 C 44 %
3725 30-04-2020 20:43:18 8.6 C 45 %
Sensor: Nr:Datum:Temp:Feuchte:
Aussen-T/F 3726 30-04-2020 20:53:17 8.6 C 46 %
3727 30-04-2020 21:03:17 8.7 C 46 %
3728 30-04-2020 21:13:17 8.8 C 45 %
3729 30-04-2020 21:23:17 8.9 C 45 %
3730 30-04-2020 21:33:17 9 C 45 %
3731 30-04-2020 21:43:18 9 C 45 %
3732 30-04-2020 21:53:17 9 C 45 %
3733 30-04-2020 22:03:18 8.6 C 45 %
3734 30-04-2020 22:13:18 8.4 C 45 %
3735 30-04-2020 22:23:18 8.7 C 45 %
3736 30-04-2020 22:33:17 8.7 C 45 %
3737 30-04-2020 22:43:17 8.6 C 45 %
3738 30-04-2020 22:53:18 8.5 C 45 %
3739 30-04-2020 23:03:17 8.4 C 45 %
3740 30-04-2020 23:13:17 8.3 C 45 %
3741 30-04-2020 23:23:17 8.3 C 45 %
3742 30-04-2020 23:33:17 8.6 C 45 %
3743 30-04-2020 23:43:17 9 C 44 %
3744 30-04-2020 23:53:17 9.2 C 43 %
3745 01-05-2020 00:03:17 8.9 C 43 %
3746 01-05-2020 00:13:17 8.6 C 44 %
3747 01-05-2020 00:23:17 8.2 C 44 %
3748 01-05-2020 00:33:18 8.4 C 44 %
3749 01-05-2020 00:43:18 8.2 C 44 %
3750 01-05-2020 00:53:17 7.8 C 45 %
Sensor: Nr:Datum:Temp:Feuchte:
Aussen-T/F 3751 01-05-2020 01:03:17 8.1 C 45 %
3752 01-05-2020 01:13:18 8.2 C 44 %
3753 01-05-2020 01:23:18 8.1 C 43 %
3754 01-05-2020 01:33:18 8.1 C 43 %
3755 01-05-2020 01:43:18 8.5 C 42 %
3756 01-05-2020 01:53:17 8.5 C 41 %
3757 01-05-2020 02:03:17 8.1 C 42 %
3758 01-05-2020 02:13:18 8 C 42 %
3759 01-05-2020 02:23:17 7.7 C 43 %
3760 01-05-2020 02:33:17 7.6 C 43 %
3761 01-05-2020 02:43:17 7.8 C 43 %
3762 01-05-2020 02:53:17 7.7 C 44 %
3763 01-05-2020 03:03:17 7.4 C 44 %
3764 01-05-2020 03:13:18 7.4 C 46 %
3765 01-05-2020 03:23:17 7.9 C 44 %
3766 01-05-2020 03:33:17 8.2 C 41 %
3767 01-05-2020 03:43:17 8 C 42 %
3768 01-05-2020 03:53:18 7.4 C 44 %
3769 01-05-2020 04:03:17 7.3 C 45 %
3770 01-05-2020 04:13:17 7 C 45 %
3771 01-05-2020 04:23:17 7.1 C 46 %
3772 01-05-2020 04:33:17 7.3 C 46 %
3773 01-05-2020 04:43:17 7.4 C 46 %
3774 01-05-2020 04:53:17 7.6 C 46 %
3775 01-05-2020 05:03:18 7.8 C 46 %
Sensor: Nr:Datum:Temp:Feuchte:
Aussen-T/F 3776 01-05-2020 05:13:18 7.9 C 46 %
3777 01-05-2020 05:23:17 8 C 45 %
3778 01-05-2020 05:33:18 8 C 45 %
3779 01-05-2020 05:43:18 8.6 C 41 %
3780 01-05-2020 05:53:17 8.4 C 40 %
3781 01-05-2020 06:03:17 8.1 C 41 %
3782 01-05-2020 06:13:17 7.8 C 43 %
3783 01-05-2020 06:23:17 7.6 C 44 %
3784 01-05-2020 06:33:17 7.6 C 45 %
3785 01-05-2020 06:43:17 7.4 C 45 %
3786 01-05-2020 06:53:17 7 C 45 %
3787 01-05-2020 07:03:17 6.8 C 46 %
3788 01-05-2020 07:13:17 6.9 C 46 %
3789 01-05-2020 07:23:17 7.8 C 46 %
3790 01-05-2020 07:33:18 7.9 C 46 %
3791 01-05-2020 07:43:18 8.3 C 45 %
3792 01-05-2020 07:53:17 8.1 C 41 %
3793 01-05-2020 08:03:18 8.1 C 41 %
3794 01-05-2020 08:13:18 8.4 C 41 %
3795 01-05-2020 08:23:18 8.3 C 42 %
3796 01-05-2020 08:33:18 8.3 C 44 %
3797 01-05-2020 08:43:18 9 C 44 %
3798 01-05-2020 08:53:17 9.2 C 42 %
3799 01-05-2020 09:03:17 9.6 C 42 %
3800 01-05-2020 09:13:17 9.7 C 42 %
Sensor: Nr:Datum:Temp:Feuchte:
Aussen-T/F 3801 01-05-2020 09:23:17 10.1 C 40 %
3802 01-05-2020 09:33:17 10.4 C 38 %
3803 01-05-2020 09:43:18 10.6 C 39 %
3804 01-05-2020 09:53:18 10.5 C 38 %
3805 01-05-2020 10:03:18 10.5 C 38 %
3806 01-05-2020 10:13:18 10.6 C 37 %
3807 01-05-2020 10:23:17 10.5 C 37 %
3808 01-05-2020 10:33:17 11 C 37 %
3809 01-05-2020 10:43:17 11.5 C 36 %
3810 01-05-2020 10:53:17 12.6 C 34 %
3811 01-05-2020 11:03:17 12.5 C 33 %
3812 01-05-2020 11:13:18 12.8 C 33 %
3813 01-05-2020 11:23:17 12.7 C 32 %
3814 01-05-2020 11:33:18 13.1 C 31 %
3815 01-05-2020 11:43:18 13.1 C 31 %
3816 01-05-2020 11:53:17 12.8 C 32 %
3817 01-05-2020 12:03:17 12.1 C 32 %
3818 01-05-2020 12:13:17 11.9 C 34 %
3819 01-05-2020 12:23:17 12.1 C 33 %
3820 01-05-2020 12:33:17 11.1 C 36 %
3821 01-05-2020 12:43:17 10.7 C 38 %
3822 01-05-2020 12:53:17 10.4 C 39 %
3823 01-05-2020 13:03:18 10.3 C 38 %
3824 01-05-2020 13:13:18 9.7 C 38 %
3825 01-05-2020 13:23:17 10.5 C 38 %
Sensor: Nr:Datum:Temp:Feuchte:
Aussen-T/F 3826 01-05-2020 13:33:17 11.3 C 36 %
3827 01-05-2020 13:43:17 12.4 C 34 %
3828 01-05-2020 13:53:17 12.8 C 34 %
3829 01-05-2020 14:03:17 12.3 C 33 %
3830 01-05-2020 14:13:17 13.5 C 31 %
3831 01-05-2020 14:23:18 14.7 C 28 %
3832 01-05-2020 14:33:18 14.2 C 27 %
3833 01-05-2020 14:43:18 16.8 C 22 %
3834 01-05-2020 14:53:17 19.6 C 20 %
3835 01-05-2020 15:03:17 19.2 C 20 %
3836 01-05-2020 15:13:17 20 C 20 %
3837 01-05-2020 15:23:17 16.6 C 20 %
3838 01-05-2020 15:33:17 14.9 C 25 %
3839 01-05-2020 15:43:17 13.5 C 27 %
3840 01-05-2020 15:53:17 11.7 C 34 %
3841 01-05-2020 16:03:18 13.5 C 30 %
3842 01-05-2020 16:13:18 18.5 C 24 %
3843 01-05-2020 16:23:17 19 C 20 %
3844 01-05-2020 16:33:18 18 C 20 %
3845 01-05-2020 16:43:18 18.4 C 20 %
3846 01-05-2020 16:53:17 17.1 C 22 %
3847 01-05-2020 17:03:18 19.1 C 20 %
3848 01-05-2020 17:13:18 18.3 C 20 %
3849 01-05-2020 17:23:17 15.5 C 25 %
3850 01-05-2020 17:33:17 14 C 28 %
Sensor: Nr:Datum:Temp:Feuchte:
Aussen-T/F 3851 01-05-2020 17:43:17 12.2 C 34 %
3852 01-05-2020 17:53:17 12.3 C 35 %
3853 01-05-2020 18:03:18 12.5 C 35 %
3854 01-05-2020 18:13:18 12.1 C 35 %
3855 01-05-2020 18:23:17 12.2 C 35 %
3856 01-05-2020 18:33:18 12.8 C 35 %
3857 01-05-2020 18:43:18 13.8 C 34 %
3858 01-05-2020 18:53:17 13.2 C 31 %
3859 01-05-2020 19:03:18 12.7 C 34 %
3860 01-05-2020 19:13:18 12.1 C 35 %
3861 01-05-2020 19:23:18 11.7 C 36 %
3862 01-05-2020 19:33:17 11.8 C 35 %
3863 01-05-2020 19:43:17 11.8 C 35 %
3864 01-05-2020 19:53:17 11.4 C 35 %
3865 01-05-2020 20:03:17 11.3 C 35 %
3866 01-05-2020 20:13:17 11.3 C 35 %
3867 01-05-2020 20:23:17 11.5 C 34 %
3868 01-05-2020 20:33:17 11.1 C 34 %
3869 01-05-2020 20:43:17 10.5 C 36 %
3870 01-05-2020 20:53:17 10.3 C 37 %
3871 01-05-2020 21:03:18 10.3 C 37 %
3872 01-05-2020 21:13:18 10.4 C 37 %
3873 01-05-2020 21:23:17 10.2 C 37 %
3874 01-05-2020 21:33:17 9.8 C 38 %
3875 01-05-2020 21:43:17 9.3 C 39 %
Sensor: Nr:Datum:Temp:Feuchte:
Aussen-T/F 3876 01-05-2020 21:53:17 8.8 C 40 %
3877 01-05-2020 22:03:18 9 C 40 %
3878 01-05-2020 22:13:18 9 C 40 %
3879 01-05-2020 22:23:17 9.2 C 39 %
3880 01-05-2020 22:33:17 9.3 C 39 %
3881 01-05-2020 22:43:17 9.3 C 40 %
3882 01-05-2020 22:53:18 9.5 C 39 %
3883 01-05-2020 23:03:17 9.4 C 40 %
3884 01-05-2020 23:13:17 9.3 C 40 %
3885 01-05-2020 23:23:17 9.3 C 40 %
3886 01-05-2020 23:33:17 9.4 C 40 %
3887 01-05-2020 23:43:17 9.5 C 39 %
3888 01-05-2020 23:53:17 9.4 C 40 %
3889 02-05-2020 00:03:17 9.3 C 40 %
3890 02-05-2020 00:13:17 9.2 C 40 %
3891 02-05-2020 00:23:17 9 C 40 %
3892 02-05-2020 00:33:18 8.9 C 40 %
3893 02-05-2020 00:43:18 8.9 C 40 %
3894 02-05-2020 00:53:17 8.9 C 40 %
3895 02-05-2020 01:03:18 9.1 C 40 %
3896 02-05-2020 01:13:18 9.3 C 39 %
3897 02-05-2020 01:23:17 9.3 C 39 %
3898 02-05-2020 01:33:17 9.1 C 40 %
3899 02-05-2020 01:43:18 8.8 C 40 %
3900 02-05-2020 01:53:17 8.5 C 40 %
Sensor: Nr:Datum:Temp:Feuchte:
Aussen-T/F 3901 02-05-2020 02:03:18 8.3 C 41 %
3902 02-05-2020 02:13:18 8.3 C 42 %
3903 02-05-2020 02:23:17 8.4 C 42 %
3904 02-05-2020 02:33:18 8.7 C 41 %
3905 02-05-2020 02:43:18 9.1 C 40 %
3906 02-05-2020 02:53:17 9.3 C 39 %
3907 02-05-2020 03:03:18 9.3 C 39 %
3908 02-05-2020 03:13:18 9.1 C 39 %
3909 02-05-2020 03:23:17 9.3 C 39 %
3910 02-05-2020 03:33:17 9.2 C 39 %
3911 02-05-2020 03:43:17 8.9 C 40 %
3912 02-05-2020 03:53:17 8.9 C 40 %
3913 02-05-2020 04:03:18 8.6 C 40 %
3914 02-05-2020 04:13:18 8.4 C 41 %
3915 02-05-2020 04:23:17 8.4 C 41 %
3916 02-05-2020 04:33:18 8.8 C 40 %
3917 02-05-2020 04:43:18 9 C 39 %
3918 02-05-2020 04:53:18 8.8 C 40 %
3919 02-05-2020 05:03:17 8.8 C 39 %
3920 02-05-2020 05:13:17 8.8 C 39 %
3921 02-05-2020 05:23:17 8.7 C 39 %
3922 02-05-2020 05:33:17 8.8 C 39 %
3923 02-05-2020 05:43:17 8.4 C 40 %
3924 02-05-2020 05:53:17 8.2 C 39 %
3925 02-05-2020 06:03:17 8.2 C 39 %
Sensor: Nr:Datum:Temp:Feuchte:
Aussen-T/F 3926 02-05-2020 06:13:17 7.7 C 40 %
3927 02-05-2020 06:23:17 7.9 C 40 %
3928 02-05-2020 06:33:17 7.9 C 40 %
3929 02-05-2020 06:43:17 8 C 39 %
3930 02-05-2020 06:53:17 8.2 C 39 %
3931 02-05-2020 07:03:17 8 C 39 %
3932 02-05-2020 07:13:17 8.3 C 39 %
3933 02-05-2020 07:23:17 8.4 C 38 %
3934 02-05-2020 07:33:17 8.2 C 38 %
3935 02-05-2020 07:43:17 8 C 39 %
3936 02-05-2020 07:53:17 8.4 C 39 %
3937 02-05-2020 08:03:17 8.5 C 39 %
3938 02-05-2020 08:13:17 8.9 C 38 %
3939 02-05-2020 08:23:17 9 C 37 %
3940 02-05-2020 08:33:17 9.8 C 37 %
3941 02-05-2020 08:43:17 9.8 C 37 %
3942 02-05-2020 08:53:17 9.5 C 37 %
3943 02-05-2020 09:03:17 9.6 C 36 %
3944 02-05-2020 09:13:17 9.7 C 36 %
3945 02-05-2020 09:23:17 9.9 C 36 %
3946 02-05-2020 09:33:17 10.8 C 35 %
3947 02-05-2020 09:43:17 10.8 C 35 %
3948 02-05-2020 09:53:17 10.2 C 35 %
3949 02-05-2020 10:03:18 9.7 C 36 %
3950 02-05-2020 10:13:18 8.6 C 40 %
Sensor: Nr:Datum:Temp:Feuchte:
Aussen-T/F 3951 02-05-2020 10:23:17 6.8 C 41 %
3952 02-05-2020 10:33:17 6.7 C 44 %
3953 02-05-2020 10:43:17 6.7 C 43 %
3954 02-05-2020 10:53:17 6.9 C 43 %
3955 02-05-2020 11:03:17 7.4 C 42 %
3956 02-05-2020 11:13:17 8.4 C 40 %
3957 02-05-2020 11:23:17 8.7 C 40 %
3958 02-05-2020 11:33:17 8.8 C 40 %
3959 02-05-2020 11:43:17 9.3 C 39 %
3960 02-05-2020 11:53:17 9.2 C 39 %
3961 02-05-2020 12:03:17 9.6 C 38 %
3962 02-05-2020 12:13:17 10 C 36 %
3963 02-05-2020 12:23:17 10.3 C 36 %
3964 02-05-2020 12:33:18 10.8 C 36 %
3965 02-05-2020 12:43:18 11.8 C 35 %
3966 02-05-2020 12:53:17 10.4 C 37 %
3967 02-05-2020 13:03:17 11.7 C 32 %
3968 02-05-2020 13:13:17 12.1 C 31 %
3969 02-05-2020 13:23:17 11.4 C 32 %
3970 02-05-2020 13:33:17 11.3 C 32 %
3971 02-05-2020 13:43:17 11.5 C 33 %
3972 02-05-2020 13:53:17 12.2 C 32 %
3973 02-05-2020 14:03:17 12.7 C 31 %
3974 02-05-2020 14:13:17 14.3 C 28 %
3975 02-05-2020 14:23:18 15.6 C 25 %
Sensor: Nr:Datum:Temp:Feuchte:
Aussen-T/F 3976 02-05-2020 14:33:17 12.8 C 27 %
3977 02-05-2020 14:43:18 8.8 C 37 %
3978 02-05-2020 14:53:17 8.4 C 40 %
3979 02-05-2020 15:03:17 7.7 C 42 %
3980 02-05-2020 15:13:17 8.1 C 45 %
3981 02-05-2020 15:23:17 8.9 C 41 %
3982 02-05-2020 15:33:18 13.2 C 32 %
3983 02-05-2020 15:43:18 17.2 C 29 %
3984 02-05-2020 15:53:17 16.8 C 25 %
3985 02-05-2020 16:03:17 18.1 C 23 %
3986 02-05-2020 16:13:17 19.2 C 20 %
3987 02-05-2020 16:23:17 19.8 C 20 %
3988 02-05-2020 16:33:17 16.9 C 20 %
3989 02-05-2020 16:43:17 14.2 C 28 %
3990 02-05-2020 16:53:17 13.5 C 29 %
3991 02-05-2020 17:03:17 18.1 C 23 %
3992 02-05-2020 17:13:17 16.2 C 22 %
3993 02-05-2020 17:23:18 14.5 C 25 %
3994 02-05-2020 17:33:18 14 C 28 %
3995 02-05-2020 17:43:18 14.2 C 27 %
3996 02-05-2020 17:53:17 16.8 C 22 %
3997 02-05-2020 18:03:17 14.7 C 20 %
3998 02-05-2020 18:13:17 14.1 C 22 %
3999 02-05-2020 18:23:17 13.3 C 26 %
4000 02-05-2020 18:33:17 13.2 C 27 %
Sensor: Nr:Datum:Temp:Feuchte:
Aussen-T/F 4001 02-05-2020 18:43:17 12.6 C 29 %
4002 02-05-2020 18:53:17 12.3 C 29 %
4003 02-05-2020 19:03:17 11.9 C 31 %
4004 02-05-2020 19:13:17 11.2 C 31 %
4005 02-05-2020 19:23:17 11.7 C 29 %
4006 02-05-2020 19:33:17 11.5 C 29 %
4007 02-05-2020 19:43:18 11.5 C 30 %
4008 02-05-2020 19:53:17 11.9 C 30 %
4009 02-05-2020 20:03:17 12.1 C 30 %
4010 02-05-2020 20:13:17 11.5 C 30 %
4011 02-05-2020 20:23:17 11.3 C 30 %
4012 02-05-2020 20:33:17 10 C 35 %
4013 02-05-2020 20:43:17 9.2 C 38 %
4014 02-05-2020 20:53:17 8.8 C 39 %
4015 02-05-2020 21:03:17 8.5 C 40 %
4016 02-05-2020 21:13:17 8.3 C 40 %
4017 02-05-2020 21:23:17 8.2 C 39 %
4018 02-05-2020 21:33:17 7.9 C 40 %
4019 02-05-2020 21:43:17 7.8 C 41 %
4020 02-05-2020 21:53:18 7.4 C 41 %
4021 02-05-2020 22:03:17 6.9 C 43 %
4022 02-05-2020 22:13:17 6.8 C 44 %
4023 02-05-2020 22:23:17 6.5 C 45 %
4024 02-05-2020 22:33:17 6.3 C 45 %
4025 02-05-2020 22:43:17 6.3 C 45 %
Sensor: Nr:Datum:Temp:Feuchte:
Aussen-T/F 4026 02-05-2020 22:53:18 6.6 C 45 %
4027 02-05-2020 23:03:17 6.6 C 44 %
4028 02-05-2020 23:13:17 6.4 C 44 %
4029 02-05-2020 23:23:17 6.4 C 44 %
4030 02-05-2020 23:33:17 6.4 C 44 %
4031 02-05-2020 23:43:17 6.2 C 44 %
4032 02-05-2020 23:53:17 6 C 45 %
Sensor: Nr:Datum:Temp:Feuchte:
G-T/H 1 05-04-2020 00:01:17 9.1 C 60 %
2 05-04-2020 00:11:17 9.1 C 60 %
3 05-04-2020 00:21:17 9.1 C 60 %
4 05-04-2020 00:31:17 9.2 C 60 %
5 05-04-2020 00:41:17 9.1 C 60 %
6 05-04-2020 00:51:18 9.2 C 60 %
7 05-04-2020 01:01:18 9.1 C 60 %
8 05-04-2020 01:11:18 9.2 C 60 %
9 05-04-2020 01:21:17 9.1 C 60 %
10 05-04-2020 01:31:18 9.1 C 60 %
11 05-04-2020 01:41:18 9.2 C 60 %
12 05-04-2020 01:51:17 9.2 C 60 %
13 05-04-2020 02:01:18 9.1 C 60 %
14 05-04-2020 02:11:18 9.1 C 60 %
15 05-04-2020 02:21:17 9.1 C 60 %
16 05-04-2020 02:31:18 9.1 C 60 %
17 05-04-2020 02:41:18 9.1 C 60 %
18 05-04-2020 02:51:17 9.1 C 60 %
19 05-04-2020 03:01:18 9.1 C 60 %
20 05-04-2020 03:11:18 9.1 C 60 %
21 05-04-2020 03:21:17 9.1 C 60 %
22 05-04-2020 03:31:17 9.1 C 60 %
23 05-04-2020 03:41:17 9.1 C 61 %
24 05-04-2020 03:51:17 9.1 C 61 %
25 05-04-2020 04:01:17 9.1 C 61 %
Sensor: Nr:Datum:Temp:Feuchte:
G-T/H 26 05-04-2020 04:11:17 9 C 61 %
27 05-04-2020 04:21:17 9 C 61 %
28 05-04-2020 04:31:17 9 C 61 %
29 05-04-2020 04:41:17 9 C 61 %
30 05-04-2020 04:51:17 9 C 61 %
31 05-04-2020 05:01:17 9 C 61 %
32 05-04-2020 05:11:17 9 C 61 %
33 05-04-2020 05:21:17 9 C 61 %
34 05-04-2020 05:31:17 9 C 61 %
35 05-04-2020 05:41:17 9 C 60 %
36 05-04-2020 05:51:17 8.9 C 61 %
37 05-04-2020 06:01:17 8.9 C 61 %
38 05-04-2020 06:11:17 8.9 C 61 %
39 05-04-2020 06:21:17 8.9 C 61 %
40 05-04-2020 06:31:18 8.9 C 61 %
41 05-04-2020 06:41:18 8.9 C 61 %
42 05-04-2020 06:51:17 8.9 C 61 %
43 05-04-2020 07:01:18 8.9 C 61 %
44 05-04-2020 07:11:18 8.9 C 61 %
45 05-04-2020 07:21:18 8.8 C 61 %
46 05-04-2020 07:31:17 8.8 C 61 %
47 05-04-2020 07:41:17 8.8 C 61 %
48 05-04-2020 07:51:17 8.8 C 61 %
49 05-04-2020 08:01:17 8.8 C 61 %
50 05-04-2020 08:11:17 8.8 C 61 %
Sensor: Nr:Datum:Temp:Feuchte:
G-T/H 51 05-04-2020 08:21:17 8.8 C 61 %
52 05-04-2020 08:31:17 8.8 C 61 %
53 05-04-2020 08:41:17 8.8 C 61 %
54 05-04-2020 08:51:18 8.8 C 61 %
55 05-04-2020 09:01:17 8.8 C 61 %
56 05-04-2020 09:11:17 8.8 C 61 %
57 05-04-2020 09:21:17 8.8 C 61 %
58 05-04-2020 09:31:17 8.7 C 61 %
59 05-04-2020 09:41:17 8.7 C 61 %
60 05-04-2020 09:51:18 8.8 C 61 %
61 05-04-2020 10:01:18 8.7 C 62 %
62 05-04-2020 10:11:18 8.8 C 62 %
63 05-04-2020 10:21:17 8.8 C 62 %
64 05-04-2020 10:31:17 8.8 C 62 %
65 05-04-2020 10:41:17 8.8 C 62 %
66 05-04-2020 10:51:17 8.8 C 62 %
67 05-04-2020 11:01:17 8.7 C 62 %
68 05-04-2020 11:11:17 8.8 C 62 %
69 05-04-2020 11:21:17 8.7 C 62 %
70 05-04-2020 11:31:17 8.7 C 62 %
71 05-04-2020 11:41:17 8.8 C 62 %
72 05-04-2020 11:51:17 8.7 C 62 %
73 05-04-2020 12:01:17 8.7 C 62 %
74 05-04-2020 12:11:17 8.8 C 62 %
75 05-04-2020 12:21:17 8.8 C 62 %
Sensor: Nr:Datum:Temp:Feuchte:
G-T/H 76 05-04-2020 12:31:18 8.8 C 62 %
77 05-04-2020 12:41:18 8.8 C 62 %
78 05-04-2020 12:51:17 8.8 C 62 %
79 05-04-2020 13:01:17 8.8 C 62 %
80 05-04-2020 13:11:17 8.8 C 62 %
81 05-04-2020 13:21:17 8.8 C 62 %
82 05-04-2020 13:31:17 8.9 C 62 %
83 05-04-2020 13:41:17 8.9 C 62 %
84 05-04-2020 13:51:17 8.9 C 62 %
85 05-04-2020 14:01:17 8.9 C 62 %
86 05-04-2020 14:11:17 9 C 62 %
87 05-04-2020 14:21:17 9 C 62 %
88 05-04-2020 14:31:18 9 C 62 %
89 05-04-2020 14:41:18 9 C 62 %
90 05-04-2020 14:51:18 9.1 C 62 %
91 05-04-2020 15:01:17 9.1 C 62 %
92 05-04-2020 15:11:18 9.1 C 62 %
93 05-04-2020 15:21:17 9.2 C 62 %
94 05-04-2020 15:31:17 9.2 C 62 %
95 05-04-2020 15:41:17 9.2 C 62 %
96 05-04-2020 15:51:18 9.2 C 62 %
97 05-04-2020 16:01:17 9.3 C 62 %
98 05-04-2020 16:11:17 9.3 C 62 %
99 05-04-2020 16:21:17 9.3 C 62 %
100 05-04-2020 16:31:17 9.3 C 62 %
Sensor: Nr:Datum:Temp:Feuchte:
G-T/H 101 05-04-2020 16:41:17 9.3 C 62 %
102 05-04-2020 16:51:17 9.4 C 62 %
103 05-04-2020 17:01:17 9.4 C 62 %
104 05-04-2020 17:11:17 9.4 C 62 %
105 05-04-2020 17:21:17 9.5 C 62 %
106 05-04-2020 17:31:17 9.5 C 63 %
107 05-04-2020 17:41:17 9.5 C 63 %
108 05-04-2020 17:51:17 9.6 C 63 %
109 05-04-2020 18:01:17 9.6 C 63 %
110 05-04-2020 18:11:17 9.6 C 63 %
111 05-04-2020 18:21:17 9.6 C 63 %
112 05-04-2020 18:31:17 9.6 C 63 %
113 05-04-2020 18:41:17 9.7 C 63 %
114 05-04-2020 18:51:17 9.7 C 63 %
115 05-04-2020 19:01:17 9.7 C 63 %
116 05-04-2020 19:11:17 9.7 C 63 %
117 05-04-2020 19:21:17 9.8 C 63 %
118 05-04-2020 19:31:18 9.8 C 63 %
119 05-04-2020 19:41:18 9.9 C 63 %
120 05-04-2020 19:51:17 9.8 C 63 %
121 05-04-2020 20:01:18 9.8 C 64 %
122 05-04-2020 20:11:18 9.8 C 64 %
123 05-04-2020 20:21:17 9.9 C 64 %
124 05-04-2020 20:31:17 9.9 C 64 %
125 05-04-2020 20:41:17 9.9 C 64 %
Sensor: Nr:Datum:Temp:Feuchte:
G-T/H 126 05-04-2020 20:51:17 9.9 C 64 %
127 05-04-2020 21:01:18 9.9 C 64 %
128 05-04-2020 21:11:18 10 C 63 %
129 05-04-2020 21:21:17 10 C 63 %
130 05-04-2020 21:31:17 10 C 63 %
131 05-04-2020 21:41:17 10 C 63 %
132 05-04-2020 21:51:17 10 C 63 %
133 05-04-2020 22:01:17 10 C 63 %
134 05-04-2020 22:11:17 10 C 63 %
135 05-04-2020 22:21:17 10 C 63 %
136 05-04-2020 22:31:17 10 C 64 %
137 05-04-2020 22:41:17 10 C 64 %
138 05-04-2020 22:51:17 10 C 64 %
139 05-04-2020 23:01:17 10.1 C 64 %
140 05-04-2020 23:11:17 10.1 C 64 %
141 05-04-2020 23:21:17 10.1 C 64 %
142 05-04-2020 23:31:17 10.1 C 64 %
143 05-04-2020 23:41:17 10.1 C 64 %
144 05-04-2020 23:51:17 10.1 C 64 %
145 06-04-2020 00:01:17 10.1 C 64 %
146 06-04-2020 00:11:17 10.1 C 64 %
147 06-04-2020 00:21:17 10.1 C 64 %
148 06-04-2020 00:31:18 10.1 C 64 %
149 06-04-2020 00:41:18 10.1 C 64 %
150 06-04-2020 00:51:17 10.1 C 64 %
Sensor: Nr:Datum:Temp:Feuchte:
G-T/H 151 06-04-2020 01:01:18 10.1 C 64 %
152 06-04-2020 01:11:18 10.1 C 64 %
153 06-04-2020 01:21:17 10.1 C 64 %
154 06-04-2020 01:31:17 10.1 C 64 %
155 06-04-2020 01:41:17 10.1 C 64 %
156 06-04-2020 01:51:17 10.1 C 64 %
157 06-04-2020 02:01:17 10.1 C 64 %
158 06-04-2020 02:11:17 10.1 C 64 %
159 06-04-2020 02:21:17 10.1 C 64 %
160 06-04-2020 02:31:17 10.1 C 64 %
161 06-04-2020 02:41:17 10.1 C 64 %
162 06-04-2020 02:51:17 10.1 C 64 %
163 06-04-2020 03:01:17 10.1 C 64 %
164 06-04-2020 03:11:17 10.1 C 64 %
165 06-04-2020 03:21:17 10.1 C 64 %
166 06-04-2020 03:31:18 10.1 C 64 %
167 06-04-2020 03:41:18 10.1 C 64 %
168 06-04-2020 03:51:17 10.1 C 64 %
169 06-04-2020 04:01:17 10.1 C 64 %
170 06-04-2020 04:11:17 10.1 C 64 %
171 06-04-2020 04:21:17 10.1 C 64 %
172 06-04-2020 04:31:17 10.1 C 64 %
173 06-04-2020 04:41:17 10.1 C 63 %
174 06-04-2020 04:51:17 10 C 63 %
175 06-04-2020 05:01:17 10 C 63 %
Sensor: Nr:Datum:Temp:Feuchte:
G-T/H 176 06-04-2020 05:11:17 10 C 63 %
177 06-04-2020 05:21:18 10 C 63 %
178 06-04-2020 05:31:17 10 C 62 %
179 06-04-2020 05:41:17 10 C 62 %
180 06-04-2020 05:51:17 10 C 62 %
181 06-04-2020 06:01:17 10 C 62 %
182 06-04-2020 06:11:17 10 C 62 %
183 06-04-2020 06:21:18 9.9 C 63 %
184 06-04-2020 06:31:17 9.9 C 63 %
185 06-04-2020 06:41:18 9.9 C 63 %
186 06-04-2020 06:51:17 9.9 C 63 %
187 06-04-2020 07:01:17 9.9 C 63 %
188 06-04-2020 07:11:17 9.9 C 63 %
189 06-04-2020 07:21:17 9.9 C 63 %
190 06-04-2020 07:31:18 9.8 C 63 %
191 06-04-2020 07:41:18 9.8 C 63 %
192 06-04-2020 07:51:17 9.8 C 63 %
193 06-04-2020 08:01:17 9.8 C 63 %
194 06-04-2020 08:11:17 9.8 C 63 %
195 06-04-2020 08:21:17 9.8 C 63 %
196 06-04-2020 08:31:17 9.7 C 63 %
197 06-04-2020 08:41:17 9.7 C 63 %
198 06-04-2020 08:51:17 9.7 C 63 %
199 06-04-2020 09:01:18 9.7 C 63 %
200 06-04-2020 09:11:18 9.7 C 63 %
Sensor: Nr:Datum:Temp:Feuchte:
G-T/H 201 06-04-2020 09:21:17 9.7 C 63 %
202 06-04-2020 09:31:17 9.7 C 64 %
203 06-04-2020 09:41:17 9.7 C 64 %
204 06-04-2020 09:51:18 9.7 C 64 %
205 06-04-2020 10:01:18 9.7 C 64 %
206 06-04-2020 10:11:18 9.7 C 64 %
207 06-04-2020 10:21:17 9.7 C 64 %
208 06-04-2020 10:31:17 9.7 C 64 %
209 06-04-2020 10:41:17 9.7 C 64 %
210 06-04-2020 10:51:17 9.7 C 64 %
211 06-04-2020 11:01:17 9.7 C 64 %
212 06-04-2020 11:11:18 9.7 C 64 %
213 06-04-2020 11:21:17 9.7 C 64 %
214 06-04-2020 11:31:17 9.7 C 64 %
215 06-04-2020 11:41:17 9.7 C 64 %
216 06-04-2020 11:51:18 9.7 C 64 %
217 06-04-2020 12:01:18 9.7 C 64 %
218 06-04-2020 12:11:18 9.7 C 64 %
219 06-04-2020 12:21:17 9.7 C 64 %
220 06-04-2020 12:31:17 9.7 C 64 %
221 06-04-2020 12:41:17 9.7 C 64 %
222 06-04-2020 12:51:17 9.8 C 64 %
223 06-04-2020 13:01:17 9.8 C 64 %
224 06-04-2020 13:11:17 9.8 C 64 %
225 06-04-2020 13:21:17 9.8 C 64 %
Sensor: Nr:Datum:Temp:Feuchte:
G-T/H 226 06-04-2020 13:31:18 9.9 C 64 %
227 06-04-2020 13:41:18 9.8 C 64 %
228 06-04-2020 13:51:17 9.9 C 64 %
229 06-04-2020 14:01:18 9.9 C 64 %
230 06-04-2020 14:11:18 10 C 63 %
231 06-04-2020 14:21:17 10 C 63 %
232 06-04-2020 14:31:17 10 C 64 %
233 06-04-2020 14:41:17 10 C 64 %
234 06-04-2020 14:51:18 10.1 C 64 %
235 06-04-2020 15:01:17 10.1 C 64 %
236 06-04-2020 15:11:17 10.1 C 64 %
237 06-04-2020 15:21:17 10.1 C 64 %
238 06-04-2020 15:31:17 10.2 C 64 %
239 06-04-2020 15:41:17 10.2 C 64 %
240 06-04-2020 15:51:17 10.2 C 64 %
241 06-04-2020 16:01:17 10.2 C 64 %
242 06-04-2020 16:11:17 10.3 C 64 %
243 06-04-2020 16:21:18 10.3 C 64 %
244 06-04-2020 16:31:18 10.3 C 64 %
245 06-04-2020 16:41:18 10.4 C 64 %
246 06-04-2020 16:51:17 10.4 C 64 %
247 06-04-2020 17:01:17 10.4 C 64 %
248 06-04-2020 17:11:17 10.4 C 64 %
249 06-04-2020 17:21:17 10.5 C 64 %
250 06-04-2020 17:31:17 10.5 C 64 %
Sensor: Nr:Datum:Temp:Feuchte:
G-T/H 251 06-04-2020 17:41:17 10.5 C 64 %
252 06-04-2020 17:51:17 10.5 C 64 %
253 06-04-2020 18:01:17 10.6 C 64 %
254 06-04-2020 18:11:17 10.6 C 64 %
255 06-04-2020 18:21:17 10.6 C 64 %
256 06-04-2020 18:31:18 10.7 C 64 %
257 06-04-2020 18:41:18 10.7 C 64 %
258 06-04-2020 18:51:17 10.7 C 64 %
259 06-04-2020 19:01:17 10.8 C 64 %
260 06-04-2020 19:11:17 10.8 C 64 %
261 06-04-2020 19:21:17 10.8 C 64 %
262 06-04-2020 19:31:17 10.8 C 64 %
263 06-04-2020 19:41:17 10.8 C 64 %
264 06-04-2020 19:51:17 10.9 C 64 %
265 06-04-2020 20:01:18 10.9 C 64 %
266 06-04-2020 20:11:18 10.9 C 64 %
267 06-04-2020 20:21:17 10.9 C 64 %
268 06-04-2020 20:31:17 10.9 C 64 %
269 06-04-2020 20:41:18 10.9 C 64 %
270 06-04-2020 20:51:17 11 C 64 %
271 06-04-2020 21:01:18 11 C 64 %
272 06-04-2020 21:11:18 11 C 64 %
273 06-04-2020 21:21:17 11 C 64 %
274 06-04-2020 21:31:18 11 C 64 %
275 06-04-2020 21:41:18 11 C 64 %
Sensor: Nr:Datum:Temp:Feuchte:
G-T/H 276 06-04-2020 21:51:17 11 C 64 %
277 06-04-2020 22:01:17 11 C 64 %
278 06-04-2020 22:11:17 11 C 64 %
279 06-04-2020 22:21:17 11 C 64 %
280 06-04-2020 22:31:17 11 C 64 %
281 06-04-2020 22:41:17 11 C 64 %
282 06-04-2020 22:51:17 11.1 C 64 %
283 06-04-2020 23:01:18 11.1 C 64 %
284 06-04-2020 23:11:18 11.1 C 64 %
285 06-04-2020 23:21:17 11.1 C 64 %
286 06-04-2020 23:31:17 11.1 C 64 %
287 06-04-2020 23:41:17 11.1 C 64 %
288 06-04-2020 23:51:17 11.1 C 65 %
289 07-04-2020 00:01:17 11.1 C 65 %
290 07-04-2020 00:11:17 11.1 C 65 %
291 07-04-2020 00:21:18 11.1 C 65 %
292 07-04-2020 00:31:17 11.1 C 65 %
293 07-04-2020 00:41:17 11.1 C 65 %
294 07-04-2020 00:51:17 11.1 C 65 %
295 07-04-2020 01:01:17 11.1 C 65 %
296 07-04-2020 01:11:17 11.1 C 65 %
297 07-04-2020 01:21:17 11.1 C 65 %
298 07-04-2020 01:31:17 11.2 C 65 %
299 07-04-2020 01:41:17 11.2 C 65 %
300 07-04-2020 01:51:18 11.2 C 65 %
Sensor: Nr:Datum:Temp:Feuchte:
G-T/H 301 07-04-2020 02:01:18 11.2 C 65 %
302 07-04-2020 02:11:18 11.2 C 65 %
303 07-04-2020 02:21:17 11.2 C 65 %
304 07-04-2020 02:31:17 11.2 C 65 %
305 07-04-2020 02:41:17 11.1 C 65 %
306 07-04-2020 02:51:17 11.2 C 65 %
307 07-04-2020 03:01:17 11.2 C 65 %
308 07-04-2020 03:11:17 11.1 C 65 %
309 07-04-2020 03:21:17 11.2 C 65 %
310 07-04-2020 03:31:17 11.2 C 65 %
311 07-04-2020 03:41:17 11.1 C 65 %
312 07-04-2020 03:51:17 11.1 C 65 %
313 07-04-2020 04:01:17 11.2 C 65 %
314 07-04-2020 04:11:17 11.1 C 65 %
315 07-04-2020 04:21:17 11.1 C 65 %
316 07-04-2020 04:31:17 11.1 C 65 %
317 07-04-2020 04:41:18 11.1 C 65 %
318 07-04-2020 04:51:17 11.1 C 65 %
319 07-04-2020 05:01:17 11.1 C 65 %
320 07-04-2020 05:11:17 11.1 C 65 %
321 07-04-2020 05:21:18 11.1 C 65 %
322 07-04-2020 05:31:17 11.1 C 65 %
323 07-04-2020 05:41:17 11.1 C 65 %
324 07-04-2020 05:51:17 11.1 C 65 %
325 07-04-2020 06:01:17 11.1 C 65 %
Sensor: Nr:Datum:Temp:Feuchte:
G-T/H 326 07-04-2020 06:11:17 11.1 C 65 %
327 07-04-2020 06:21:17 11.1 C 65 %
328 07-04-2020 06:31:17 11.1 C 65 %
329 07-04-2020 06:41:17 11.1 C 65 %
330 07-04-2020 06:51:17 11.1 C 65 %
331 07-04-2020 07:01:18 11.1 C 65 %
332 07-04-2020 07:11:18 11 C 65 %
333 07-04-2020 07:21:18 11 C 65 %
334 07-04-2020 07:31:17 11 C 65 %
335 07-04-2020 07:41:18 11 C 65 %
336 07-04-2020 07:51:17 11 C 65 %
337 07-04-2020 08:01:17 11 C 65 %
338 07-04-2020 08:11:18 11 C 65 %
339 07-04-2020 08:21:17 11 C 65 %
340 07-04-2020 08:31:17 11 C 65 %
341 07-04-2020 08:41:17 11 C 65 %
342 07-04-2020 08:51:17 11 C 65 %
343 07-04-2020 09:01:17 11 C 65 %
344 07-04-2020 09:11:17 10.9 C 66 %
345 07-04-2020 09:21:17 11 C 65 %
346 07-04-2020 09:31:17 11 C 65 %
347 07-04-2020 09:41:18 11 C 65 %
348 07-04-2020 09:51:17 11 C 65 %
349 07-04-2020 10:01:17 11 C 65 %
350 07-04-2020 10:11:18 11.1 C 65 %
Sensor: Nr:Datum:Temp:Feuchte:
G-T/H 351 07-04-2020 10:21:17 11.1 C 65 %
352 07-04-2020 10:31:18 11.3 C 66 %
353 07-04-2020 10:41:18 11.5 C 66 %
354 07-04-2020 10:51:17 11.6 C 67 %
355 07-04-2020 11:01:17 11.7 C 68 %
356 07-04-2020 11:11:17 11.9 C 68 %
357 07-04-2020 11:21:17 12 C 67 %
358 07-04-2020 11:31:17 12.1 C 67 %
359 07-04-2020 11:41:17 12.2 C 66 %
360 07-04-2020 11:51:17 12.3 C 66 %
361 07-04-2020 12:01:17 12.5 C 66 %
362 07-04-2020 12:11:17 12.6 C 66 %
363 07-04-2020 12:21:18 12.7 C 65 %
364 07-04-2020 12:31:17 12.9 C 65 %
365 07-04-2020 12:41:17 13 C 64 %
366 07-04-2020 12:51:18 13.1 C 64 %
367 07-04-2020 13:01:17 13.3 C 63 %
368 07-04-2020 13:11:17 13.4 C 63 %
369 07-04-2020 13:21:17 13.5 C 63 %
370 07-04-2020 13:31:17 13.7 C 62 %
371 07-04-2020 13:41:17 13.9 C 61 %
372 07-04-2020 13:51:18 14.1 C 60 %
373 07-04-2020 14:01:17 14.2 C 59 %
374 07-04-2020 14:11:17 14.2 C 59 %
375 07-04-2020 14:21:17 14.4 C 59 %
Sensor: Nr:Datum:Temp:Feuchte:
G-T/H 376 07-04-2020 14:31:17 14.5 C 59 %
377 07-04-2020 14:41:17 14.5 C 58 %
378 07-04-2020 14:51:17 14.7 C 58 %
379 07-04-2020 15:01:17 14.8 C 57 %
380 07-04-2020 15:11:17 14.9 C 57 %
381 07-04-2020 15:21:17 15 C 56 %
382 07-04-2020 15:31:17 15.2 C 55 %
383 07-04-2020 15:41:18 15.2 C 54 %
384 07-04-2020 15:51:17 15.3 C 54 %
385 07-04-2020 16:01:17 15.4 C 54 %
386 07-04-2020 16:11:17 15.5 C 53 %
387 07-04-2020 16:21:17 15.6 C 52 %
388 07-04-2020 16:31:17 15.6 C 52 %
389 07-04-2020 16:41:18 15.8 C 51 %
390 07-04-2020 16:51:18 15.9 C 51 %
391 07-04-2020 17:01:17 16.2 C 49 %
392 07-04-2020 17:11:17 16.2 C 48 %
393 07-04-2020 17:21:17 16.2 C 47 %
394 07-04-2020 17:31:18 16.3 C 47 %
395 07-04-2020 17:41:18 16.4 C 46 %
396 07-04-2020 17:51:18 16.5 C 45 %
397 07-04-2020 18:01:17 16.6 C 44 %
398 07-04-2020 18:11:17 16.6 C 45 %
399 07-04-2020 18:21:17 16.8 C 45 %
400 07-04-2020 18:31:17 16.8 C 45 %
Sensor: Nr:Datum:Temp:Feuchte:
G-T/H 401 07-04-2020 18:41:17 16.7 C 45 %
402 07-04-2020 18:51:17 16.8 C 45 %
403 07-04-2020 19:01:17 16.8 C 45 %
404 07-04-2020 19:11:18 16.8 C 45 %
405 07-04-2020 19:21:17 16.9 C 45 %
406 07-04-2020 19:31:17 16.5 C 46 %
407 07-04-2020 19:41:17 16.1 C 47 %
408 07-04-2020 19:51:17 15.9 C 49 %
409 07-04-2020 20:01:18 15.8 C 50 %
410 07-04-2020 20:11:18 15.6 C 50 %
411 07-04-2020 20:21:17 15.5 C 51 %
412 07-04-2020 20:31:17 15.4 C 51 %
413 07-04-2020 20:41:17 15.3 C 52 %
414 07-04-2020 20:51:17 15.2 C 52 %
415 07-04-2020 21:01:17 15.1 C 53 %
416 07-04-2020 21:11:17 15 C 53 %
417 07-04-2020 21:21:18 15 C 54 %
418 07-04-2020 21:31:17 14.9 C 55 %
419 07-04-2020 21:41:17 14.9 C 55 %
420 07-04-2020 21:51:17 14.8 C 55 %
421 07-04-2020 22:01:18 14.7 C 56 %
422 07-04-2020 22:11:18 14.7 C 56 %
423 07-04-2020 22:21:17 14.7 C 56 %
424 07-04-2020 22:31:17 14.6 C 56 %
425 07-04-2020 22:41:17 14.6 C 57 %
Sensor: Nr:Datum:Temp:Feuchte:
G-T/H 426 07-04-2020 22:51:18 14.5 C 57 %
427 07-04-2020 23:01:18 14.5 C 57 %
428 07-04-2020 23:11:18 14.4 C 57 %
429 07-04-2020 23:21:17 14.4 C 57 %
430 07-04-2020 23:31:17 14.4 C 57 %
431 07-04-2020 23:41:17 14.3 C 58 %
432 07-04-2020 23:51:17 14.3 C 58 %
433 08-04-2020 00:01:17 14.3 C 58 %
434 08-04-2020 00:11:17 14.2 C 58 %
435 08-04-2020 00:21:17 14.2 C 58 %
436 08-04-2020 00:31:17 14.2 C 58 %
437 08-04-2020 00:41:17 14.2 C 58 %
438 08-04-2020 00:51:18 14.1 C 58 %
439 08-04-2020 01:01:17 14.1 C 59 %
440 08-04-2020 01:11:17 14.1 C 59 %
441 08-04-2020 01:21:17 14 C 59 %
442 08-04-2020 01:31:18 14 C 59 %
443 08-04-2020 01:41:18 14 C 59 %
444 08-04-2020 01:51:17 13.9 C 60 %
445 08-04-2020 02:01:18 13.9 C 60 %
446 08-04-2020 02:11:18 13.9 C 60 %
447 08-04-2020 02:21:17 13.9 C 60 %
448 08-04-2020 02:31:17 13.8 C 60 %
449 08-04-2020 02:41:18 13.8 C 60 %
450 08-04-2020 02:51:17 13.8 C 60 %
Sensor: Nr:Datum:Temp:Feuchte:
G-T/H 451 08-04-2020 03:01:18 13.8 C 60 %
452 08-04-2020 03:11:18 13.7 C 60 %
453 08-04-2020 03:21:17 13.7 C 60 %
454 08-04-2020 03:31:17 13.6 C 60 %
455 08-04-2020 03:41:17 13.7 C 60 %
456 08-04-2020 03:51:17 13.6 C 59 %
457 08-04-2020 04:01:17 13.6 C 59 %
458 08-04-2020 04:11:18 13.6 C 59 %
459 08-04-2020 04:21:17 13.5 C 59 %
460 08-04-2020 04:31:17 13.5 C 59 %
461 08-04-2020 04:41:17 13.5 C 59 %
462 08-04-2020 04:51:17 13.5 C 59 %
463 08-04-2020 05:01:18 13.4 C 59 %
464 08-04-2020 05:11:18 13.4 C 59 %
465 08-04-2020 05:21:17 13.4 C 60 %
466 08-04-2020 05:31:17 13.4 C 60 %
467 08-04-2020 05:41:18 13.3 C 60 %
468 08-04-2020 05:51:17 13.3 C 60 %
469 08-04-2020 06:01:17 13.3 C 60 %
470 08-04-2020 06:11:17 13.2 C 60 %
471 08-04-2020 06:21:17 13.2 C 60 %
472 08-04-2020 06:31:17 13.2 C 60 %
473 08-04-2020 06:41:17 13.1 C 60 %
474 08-04-2020 06:51:18 13.1 C 60 %
475 08-04-2020 07:01:18 13.1 C 60 %
Sensor: Nr:Datum:Temp:Feuchte:
G-T/H 476 08-04-2020 07:11:18 13.1 C 60 %
477 08-04-2020 07:21:17 13.1 C 60 %
478 08-04-2020 07:31:17 13 C 60 %
479 08-04-2020 07:41:17 13 C 60 %
480 08-04-2020 07:51:17 13 C 60 %
481 08-04-2020 08:01:17 13 C 60 %
482 08-04-2020 08:11:17 13 C 60 %
483 08-04-2020 08:21:17 13 C 60 %
484 08-04-2020 08:31:18 12.9 C 61 %
485 08-04-2020 08:41:18 12.9 C 61 %
486 08-04-2020 08:51:18 12.9 C 61 %
487 08-04-2020 09:01:18 12.9 C 61 %
488 08-04-2020 09:11:18 12.8 C 61 %
489 08-04-2020 09:21:17 12.8 C 62 %
490 08-04-2020 09:31:17 12.8 C 62 %
491 08-04-2020 09:41:17 12.8 C 62 %
492 08-04-2020 09:51:17 12.8 C 62 %
493 08-04-2020 10:01:17 12.8 C 62 %
494 08-04-2020 10:11:17 12.8 C 62 %
495 08-04-2020 10:21:17 12.7 C 62 %
496 08-04-2020 10:31:18 12.7 C 62 %
497 08-04-2020 10:41:18 12.7 C 62 %
498 08-04-2020 10:51:18 12.7 C 62 %
499 08-04-2020 11:01:18 12.7 C 62 %
500 08-04-2020 11:11:18 12.7 C 62 %
Sensor: Nr:Datum:Temp:Feuchte:
G-T/H 501 08-04-2020 11:21:17 12.7 C 62 %
502 08-04-2020 11:31:18 12.7 C 63 %
503 08-04-2020 11:41:18 12.7 C 63 %
504 08-04-2020 11:51:17 12.7 C 63 %
505 08-04-2020 12:01:18 12.7 C 63 %
506 08-04-2020 12:11:18 12.7 C 63 %
507 08-04-2020 12:21:17 12.7 C 63 %
508 08-04-2020 12:31:17 12.7 C 63 %
509 08-04-2020 12:41:17 12.7 C 63 %
510 08-04-2020 12:51:17 12.7 C 63 %
511 08-04-2020 13:01:18 12.7 C 63 %
512 08-04-2020 13:11:18 12.7 C 63 %
513 08-04-2020 13:21:17 12.7 C 63 %
514 08-04-2020 13:31:18 12.7 C 63 %
515 08-04-2020 13:41:18 12.7 C 63 %
516 08-04-2020 13:51:17 12.7 C 63 %
517 08-04-2020 14:01:18 12.7 C 63 %
518 08-04-2020 14:11:18 12.7 C 63 %
519 08-04-2020 14:21:17 12.8 C 63 %
520 08-04-2020 14:31:18 12.8 C 63 %
521 08-04-2020 14:41:18 12.8 C 63 %
522 08-04-2020 14:51:17 12.8 C 63 %
523 08-04-2020 15:01:17 12.8 C 63 %
524 08-04-2020 15:11:17 12.8 C 63 %
525 08-04-2020 15:21:18 12.8 C 63 %
Sensor: Nr:Datum:Temp:Feuchte:
G-T/H 526 08-04-2020 15:31:17 12.8 C 63 %
527 08-04-2020 15:41:17 12.8 C 63 %
528 08-04-2020 15:51:17 12.8 C 63 %
529 08-04-2020 16:01:17 12.9 C 63 %
530 08-04-2020 16:11:17 12.9 C 63 %
531 08-04-2020 16:21:18 12.9 C 63 %
532 08-04-2020 16:31:17 12.9 C 63 %
533 08-04-2020 16:41:17 13 C 62 %
534 08-04-2020 16:51:17 13 C 62 %
535 08-04-2020 17:01:17 13 C 62 %
536 08-04-2020 17:11:17 13 C 62 %
537 08-04-2020 17:21:17 13 C 62 %
538 08-04-2020 17:31:17 13 C 62 %
539 08-04-2020 17:41:17 13 C 62 %
540 08-04-2020 17:51:17 13.1 C 62 %
541 08-04-2020 18:01:17 13.1 C 62 %
542 08-04-2020 18:11:17 13.1 C 62 %
543 08-04-2020 18:21:17 13.1 C 61 %
544 08-04-2020 18:31:18 13.1 C 61 %
545 08-04-2020 18:41:18 13.1 C 61 %
546 08-04-2020 18:51:17 13.2 C 61 %
547 08-04-2020 19:01:17 13.2 C 61 %
548 08-04-2020 19:11:17 13.2 C 61 %
549 08-04-2020 19:21:17 13.2 C 61 %
550 08-04-2020 19:31:17 13.2 C 62 %
Sensor: Nr:Datum:Temp:Feuchte:
G-T/H 551 08-04-2020 19:41:17 13.2 C 62 %
552 08-04-2020 19:51:17 13.2 C 62 %
553 08-04-2020 20:01:17 13.2 C 62 %
554 08-04-2020 20:11:17 13.2 C 62 %
555 08-04-2020 20:21:18 13.2 C 62 %
556 08-04-2020 20:31:17 13.2 C 62 %
557 08-04-2020 20:41:18 13.2 C 62 %
558 08-04-2020 20:51:17 13.2 C 62 %
559 08-04-2020 21:01:18 13.2 C 62 %
560 08-04-2020 21:11:18 13.2 C 62 %
561 08-04-2020 21:21:17 13.2 C 62 %
562 08-04-2020 21:31:17 13.2 C 62 %
563 08-04-2020 21:41:17 13.2 C 62 %
564 08-04-2020 21:51:17 13.2 C 62 %
565 08-04-2020 22:01:17 13.2 C 62 %
566 08-04-2020 22:11:18 13.2 C 62 %
567 08-04-2020 22:21:17 13.2 C 62 %
568 08-04-2020 22:31:17 13.2 C 62 %
569 08-04-2020 22:41:17 13.2 C 62 %
570 08-04-2020 22:51:18 13.2 C 62 %
571 08-04-2020 23:01:17 13.2 C 63 %
572 08-04-2020 23:11:17 13.2 C 63 %
573 08-04-2020 23:21:17 13.2 C 63 %
574 08-04-2020 23:31:17 13.2 C 63 %
575 08-04-2020 23:41:17 13.2 C 63 %
Sensor: Nr:Datum:Temp:Feuchte:
G-T/H 576 08-04-2020 23:51:17 13.2 C 63 %
577 09-04-2020 00:01:18 13.2 C 63 %
578 09-04-2020 00:11:18 13.2 C 63 %
579 09-04-2020 00:21:17 13.2 C 63 %
580 09-04-2020 00:31:18 13.2 C 63 %
581 09-04-2020 00:41:18 13.2 C 63 %
582 09-04-2020 00:51:17 13.2 C 63 %
583 09-04-2020 01:01:17 13.2 C 63 %
584 09-04-2020 01:11:17 13.2 C 63 %
585 09-04-2020 01:21:17 13.1 C 63 %
586 09-04-2020 01:31:17 13.1 C 63 %
587 09-04-2020 01:41:17 13.1 C 63 %
588 09-04-2020 01:51:17 13.1 C 63 %
589 09-04-2020 02:01:17 13.1 C 63 %
590 09-04-2020 02:11:17 13.1 C 63 %
591 09-04-2020 02:21:18 13.1 C 63 %
592 09-04-2020 02:31:18 13.1 C 62 %
593 09-04-2020 02:41:18 13.1 C 62 %
594 09-04-2020 02:51:17 13.1 C 62 %
595 09-04-2020 03:01:17 13.1 C 62 %
596 09-04-2020 03:11:17 13.1 C 62 %
597 09-04-2020 03:21:17 13.1 C 62 %
598 09-04-2020 03:31:17 13 C 62 %
599 09-04-2020 03:41:17 13 C 62 %
600 09-04-2020 03:51:17 13 C 62 %
Sensor: Nr:Datum:Temp:Feuchte:
G-T/H 601 09-04-2020 04:01:17 13 C 62 %
602 09-04-2020 04:11:17 13.1 C 63 %
603 09-04-2020 04:21:17 13 C 62 %
604 09-04-2020 04:31:18 13 C 62 %
605 09-04-2020 04:41:18 13 C 62 %
606 09-04-2020 04:51:17 13 C 62 %
607 09-04-2020 05:01:17 13 C 62 %
608 09-04-2020 05:11:17 13 C 62 %
609 09-04-2020 05:21:17 13 C 62 %
610 09-04-2020 05:31:18 13 C 62 %
611 09-04-2020 05:41:18 13 C 62 %
612 09-04-2020 05:51:17 12.9 C 63 %
613 09-04-2020 06:01:18 12.9 C 63 %
614 09-04-2020 06:11:18 12.9 C 63 %
615 09-04-2020 06:21:17 12.9 C 63 %
616 09-04-2020 06:31:17 12.9 C 63 %
617 09-04-2020 06:41:17 12.9 C 63 %
618 09-04-2020 06:51:17 12.9 C 63 %
619 09-04-2020 07:01:17 12.8 C 63 %
620 09-04-2020 07:11:17 12.8 C 63 %
621 09-04-2020 07:21:17 12.8 C 63 %
622 09-04-2020 07:31:17 12.8 C 63 %
623 09-04-2020 07:41:17 12.8 C 63 %
624 09-04-2020 07:51:17 12.8 C 63 %
625 09-04-2020 08:01:17 12.8 C 63 %
Sensor: Nr:Datum:Temp:Feuchte:
G-T/H 626 09-04-2020 08:11:17 12.8 C 63 %